<?xml version="1.0" encoding="UTF-8" standalone="no" ?>
<gpx xmlns="http://www.topografix.com/GPX/1/1" xmlns:xsi="http://www.w3.org/2001/XMLSchema-instance" xsi:schemaLocation="http://www.topografix.com/GPX/1/1 http://www.topografix.com/GPX/1/1/gpx.xsd" version="1.1" creator="VisuGPX - https://www.visugpx.com">
  <metadata>
    <name>La provilloise</name>
    <desc><![CDATA[Petite sortie avec Cedric.
excellents passage, et petite gamelle...]]></desc>
  </metadata>
  <trk>
    <name><![CDATA[PROVILLOISE]]></name>
    <trkseg>
      <trkpt lat="50.16183" lon="3.20315">
        <ele>52.53</ele>
        <time>2014-09-13T07:11:59Z</time>
      </trkpt>
      <trkpt lat="50.16182" lon="3.20315">
        <ele>52.53</ele>
        <time>2014-09-13T07:12:00Z</time>
      </trkpt>
      <trkpt lat="50.16181" lon="3.20317">
        <ele>52.53</ele>
        <time>2014-09-13T07:12:28Z</time>
      </trkpt>
      <trkpt lat="50.16184" lon="3.20321">
        <ele>52.53</ele>
        <time>2014-09-13T07:12:34Z</time>
      </trkpt>
      <trkpt lat="50.16185" lon="3.20323">
        <ele>52.53</ele>
        <time>2014-09-13T07:12:35Z</time>
      </trkpt>
      <trkpt lat="50.16221" lon="3.20366">
        <ele>51.09</ele>
        <time>2014-09-13T07:12:48Z</time>
      </trkpt>
      <trkpt lat="50.16236" lon="3.20385">
        <ele>51.09</ele>
        <time>2014-09-13T07:12:53Z</time>
      </trkpt>
      <trkpt lat="50.16239" lon="3.20389">
        <ele>50.61</ele>
        <time>2014-09-13T07:12:54Z</time>
      </trkpt>
      <trkpt lat="50.16243" lon="3.20393">
        <ele>50.61</ele>
        <time>2014-09-13T07:12:55Z</time>
      </trkpt>
      <trkpt lat="50.16282" lon="3.20448">
        <ele>49.16</ele>
        <time>2014-09-13T07:13:08Z</time>
      </trkpt>
      <trkpt lat="50.16282" lon="3.20455">
        <ele>49.16</ele>
        <time>2014-09-13T07:13:09Z</time>
      </trkpt>
      <trkpt lat="50.1628" lon="3.20462">
        <ele>48.68</ele>
        <time>2014-09-13T07:13:10Z</time>
      </trkpt>
      <trkpt lat="50.16277" lon="3.20467">
        <ele>49.16</ele>
        <time>2014-09-13T07:13:11Z</time>
      </trkpt>
      <trkpt lat="50.16273" lon="3.20471">
        <ele>49.16</ele>
        <time>2014-09-13T07:13:12Z</time>
      </trkpt>
      <trkpt lat="50.1627" lon="3.20476">
        <ele>49.16</ele>
        <time>2014-09-13T07:13:13Z</time>
      </trkpt>
      <trkpt lat="50.16257" lon="3.20497">
        <ele>50.13</ele>
        <time>2014-09-13T07:13:17Z</time>
      </trkpt>
      <trkpt lat="50.16223" lon="3.20566">
        <ele>50.61</ele>
        <time>2014-09-13T07:13:29Z</time>
      </trkpt>
      <trkpt lat="50.16216" lon="3.20581">
        <ele>50.61</ele>
        <time>2014-09-13T07:13:32Z</time>
      </trkpt>
      <trkpt lat="50.16214" lon="3.20586">
        <ele>50.61</ele>
        <time>2014-09-13T07:13:33Z</time>
      </trkpt>
      <trkpt lat="50.16213" lon="3.20593">
        <ele>50.61</ele>
        <time>2014-09-13T07:13:34Z</time>
      </trkpt>
      <trkpt lat="50.16214" lon="3.20598">
        <ele>50.61</ele>
        <time>2014-09-13T07:13:35Z</time>
      </trkpt>
      <trkpt lat="50.16216" lon="3.20603">
        <ele>50.61</ele>
        <time>2014-09-13T07:13:36Z</time>
      </trkpt>
      <trkpt lat="50.16218" lon="3.20608">
        <ele>50.61</ele>
        <time>2014-09-13T07:13:37Z</time>
      </trkpt>
      <trkpt lat="50.16221" lon="3.20613">
        <ele>50.61</ele>
        <time>2014-09-13T07:13:38Z</time>
      </trkpt>
      <trkpt lat="50.16223" lon="3.20617">
        <ele>50.61</ele>
        <time>2014-09-13T07:13:39Z</time>
      </trkpt>
      <trkpt lat="50.16227" lon="3.20621">
        <ele>50.61</ele>
        <time>2014-09-13T07:13:40Z</time>
      </trkpt>
      <trkpt lat="50.1627" lon="3.20666">
        <ele>49.16</ele>
        <time>2014-09-13T07:13:52Z</time>
      </trkpt>
      <trkpt lat="50.16309" lon="3.20706">
        <ele>47.72</ele>
        <time>2014-09-13T07:14:03Z</time>
      </trkpt>
      <trkpt lat="50.16312" lon="3.20712">
        <ele>47.72</ele>
        <time>2014-09-13T07:14:04Z</time>
      </trkpt>
      <trkpt lat="50.16315" lon="3.20721">
        <ele>47.72</ele>
        <time>2014-09-13T07:14:05Z</time>
      </trkpt>
      <trkpt lat="50.16334" lon="3.20829">
        <ele>47.24</ele>
        <time>2014-09-13T07:14:20Z</time>
      </trkpt>
      <trkpt lat="50.16354" lon="3.20934">
        <ele>47.24</ele>
        <time>2014-09-13T07:14:37Z</time>
      </trkpt>
      <trkpt lat="50.16355" lon="3.20935">
        <ele>47.24</ele>
        <time>2014-09-13T07:14:38Z</time>
      </trkpt>
      <trkpt lat="50.16357" lon="3.20936">
        <ele>46.76</ele>
        <time>2014-09-13T07:14:39Z</time>
      </trkpt>
      <trkpt lat="50.16359" lon="3.20936">
        <ele>46.76</ele>
        <time>2014-09-13T07:14:40Z</time>
      </trkpt>
      <trkpt lat="50.16361" lon="3.20935">
        <ele>46.76</ele>
        <time>2014-09-13T07:14:41Z</time>
      </trkpt>
      <trkpt lat="50.16363" lon="3.20934">
        <ele>46.28</ele>
        <time>2014-09-13T07:14:42Z</time>
      </trkpt>
      <trkpt lat="50.16403" lon="3.20903">
        <ele>46.28</ele>
        <time>2014-09-13T07:14:51Z</time>
      </trkpt>
      <trkpt lat="50.16437" lon="3.20869">
        <ele>46.28</ele>
        <time>2014-09-13T07:14:59Z</time>
      </trkpt>
      <trkpt lat="50.1644" lon="3.20864">
        <ele>46.28</ele>
        <time>2014-09-13T07:15:00Z</time>
      </trkpt>
      <trkpt lat="50.16443" lon="3.20858">
        <ele>46.28</ele>
        <time>2014-09-13T07:15:01Z</time>
      </trkpt>
      <trkpt lat="50.16445" lon="3.20851">
        <ele>46.28</ele>
        <time>2014-09-13T07:15:02Z</time>
      </trkpt>
      <trkpt lat="50.16447" lon="3.20844">
        <ele>46.28</ele>
        <time>2014-09-13T07:15:03Z</time>
      </trkpt>
      <trkpt lat="50.16449" lon="3.20837">
        <ele>46.28</ele>
        <time>2014-09-13T07:15:04Z</time>
      </trkpt>
      <trkpt lat="50.16452" lon="3.20829">
        <ele>46.28</ele>
        <time>2014-09-13T07:15:05Z</time>
      </trkpt>
      <trkpt lat="50.16455" lon="3.20824">
        <ele>46.28</ele>
        <time>2014-09-13T07:15:06Z</time>
      </trkpt>
      <trkpt lat="50.16479" lon="3.20791">
        <ele>46.28</ele>
        <time>2014-09-13T07:15:12Z</time>
      </trkpt>
      <trkpt lat="50.16483" lon="3.20787">
        <ele>46.28</ele>
        <time>2014-09-13T07:15:13Z</time>
      </trkpt>
      <trkpt lat="50.16488" lon="3.20784">
        <ele>46.28</ele>
        <time>2014-09-13T07:15:14Z</time>
      </trkpt>
      <trkpt lat="50.16492" lon="3.20782">
        <ele>46.28</ele>
        <time>2014-09-13T07:15:15Z</time>
      </trkpt>
      <trkpt lat="50.16496" lon="3.2078">
        <ele>46.28</ele>
        <time>2014-09-13T07:15:16Z</time>
      </trkpt>
      <trkpt lat="50.165" lon="3.20778">
        <ele>46.28</ele>
        <time>2014-09-13T07:15:17Z</time>
      </trkpt>
      <trkpt lat="50.16561" lon="3.20735">
        <ele>45.8</ele>
        <time>2014-09-13T07:15:30Z</time>
      </trkpt>
      <trkpt lat="50.1662" lon="3.20687">
        <ele>45.32</ele>
        <time>2014-09-13T07:15:44Z</time>
      </trkpt>
      <trkpt lat="50.16681" lon="3.2062">
        <ele>45.32</ele>
        <time>2014-09-13T07:15:58Z</time>
      </trkpt>
      <trkpt lat="50.16701" lon="3.20598">
        <ele>45.32</ele>
        <time>2014-09-13T07:16:02Z</time>
      </trkpt>
      <trkpt lat="50.16758" lon="3.20557">
        <ele>45.32</ele>
        <time>2014-09-13T07:16:13Z</time>
      </trkpt>
      <trkpt lat="50.16785" lon="3.20523">
        <ele>45.8</ele>
        <time>2014-09-13T07:16:19Z</time>
      </trkpt>
      <trkpt lat="50.16796" lon="3.20507">
        <ele>45.8</ele>
        <time>2014-09-13T07:16:22Z</time>
      </trkpt>
      <trkpt lat="50.16799" lon="3.20502">
        <ele>45.8</ele>
        <time>2014-09-13T07:16:23Z</time>
      </trkpt>
      <trkpt lat="50.16801" lon="3.20497">
        <ele>45.8</ele>
        <time>2014-09-13T07:16:24Z</time>
      </trkpt>
      <trkpt lat="50.16802" lon="3.20491">
        <ele>45.8</ele>
        <time>2014-09-13T07:16:25Z</time>
      </trkpt>
      <trkpt lat="50.16803" lon="3.20485">
        <ele>45.8</ele>
        <time>2014-09-13T07:16:26Z</time>
      </trkpt>
      <trkpt lat="50.16802" lon="3.20478">
        <ele>45.8</ele>
        <time>2014-09-13T07:16:27Z</time>
      </trkpt>
      <trkpt lat="50.16801" lon="3.20472">
        <ele>45.8</ele>
        <time>2014-09-13T07:16:28Z</time>
      </trkpt>
      <trkpt lat="50.16799" lon="3.20465">
        <ele>45.8</ele>
        <time>2014-09-13T07:16:29Z</time>
      </trkpt>
      <trkpt lat="50.16797" lon="3.20458">
        <ele>45.8</ele>
        <time>2014-09-13T07:16:30Z</time>
      </trkpt>
      <trkpt lat="50.16769" lon="3.20334">
        <ele>45.8</ele>
        <time>2014-09-13T07:16:46Z</time>
      </trkpt>
      <trkpt lat="50.16739" lon="3.20206">
        <ele>45.8</ele>
        <time>2014-09-13T07:17:02Z</time>
      </trkpt>
      <trkpt lat="50.16705" lon="3.20068">
        <ele>45.8</ele>
        <time>2014-09-13T07:17:19Z</time>
      </trkpt>
      <trkpt lat="50.16667" lon="3.19913">
        <ele>45.8</ele>
        <time>2014-09-13T07:17:37Z</time>
      </trkpt>
      <trkpt lat="50.16627" lon="3.19753">
        <ele>45.8</ele>
        <time>2014-09-13T07:17:55Z</time>
      </trkpt>
      <trkpt lat="50.16589" lon="3.19607">
        <ele>46.76</ele>
        <time>2014-09-13T07:18:12Z</time>
      </trkpt>
      <trkpt lat="50.16584" lon="3.19565">
        <ele>47.24</ele>
        <time>2014-09-13T07:18:17Z</time>
      </trkpt>
      <trkpt lat="50.16583" lon="3.19557">
        <ele>47.24</ele>
        <time>2014-09-13T07:18:18Z</time>
      </trkpt>
      <trkpt lat="50.16556" lon="3.19474">
        <ele>47.72</ele>
        <time>2014-09-13T07:18:29Z</time>
      </trkpt>
      <trkpt lat="50.16554" lon="3.19466">
        <ele>47.72</ele>
        <time>2014-09-13T07:18:30Z</time>
      </trkpt>
      <trkpt lat="50.16552" lon="3.19457">
        <ele>47.72</ele>
        <time>2014-09-13T07:18:31Z</time>
      </trkpt>
      <trkpt lat="50.16531" lon="3.1937">
        <ele>47.72</ele>
        <time>2014-09-13T07:18:41Z</time>
      </trkpt>
      <trkpt lat="50.16498" lon="3.19226">
        <ele>48.2</ele>
        <time>2014-09-13T07:18:58Z</time>
      </trkpt>
      <trkpt lat="50.16457" lon="3.19103">
        <ele>47.72</ele>
        <time>2014-09-13T07:19:15Z</time>
      </trkpt>
      <trkpt lat="50.16424" lon="3.19029">
        <ele>47.72</ele>
        <time>2014-09-13T07:19:26Z</time>
      </trkpt>
      <trkpt lat="50.16379" lon="3.18948">
        <ele>47.72</ele>
        <time>2014-09-13T07:19:40Z</time>
      </trkpt>
      <trkpt lat="50.16309" lon="3.1887">
        <ele>47.72</ele>
        <time>2014-09-13T07:19:56Z</time>
      </trkpt>
      <trkpt lat="50.16229" lon="3.18808">
        <ele>47.72</ele>
        <time>2014-09-13T07:20:12Z</time>
      </trkpt>
      <trkpt lat="50.16161" lon="3.18778">
        <ele>47.72</ele>
        <time>2014-09-13T07:20:25Z</time>
      </trkpt>
      <trkpt lat="50.16074" lon="3.18747">
        <ele>47.72</ele>
        <time>2014-09-13T07:20:42Z</time>
      </trkpt>
      <trkpt lat="50.16" lon="3.18721">
        <ele>47.72</ele>
        <time>2014-09-13T07:20:56Z</time>
      </trkpt>
      <trkpt lat="50.1592" lon="3.1869">
        <ele>47.72</ele>
        <time>2014-09-13T07:21:11Z</time>
      </trkpt>
      <trkpt lat="50.15844" lon="3.18661">
        <ele>47.24</ele>
        <time>2014-09-13T07:21:26Z</time>
      </trkpt>
      <trkpt lat="50.15818" lon="3.18649">
        <ele>47.24</ele>
        <time>2014-09-13T07:21:31Z</time>
      </trkpt>
      <trkpt lat="50.15726" lon="3.18614">
        <ele>47.24</ele>
        <time>2014-09-13T07:21:48Z</time>
      </trkpt>
      <trkpt lat="50.15636" lon="3.1858">
        <ele>47.24</ele>
        <time>2014-09-13T07:22:05Z</time>
      </trkpt>
      <trkpt lat="50.15543" lon="3.18552">
        <ele>47.24</ele>
        <time>2014-09-13T07:22:22Z</time>
      </trkpt>
      <trkpt lat="50.15454" lon="3.1852">
        <ele>49.16</ele>
        <time>2014-09-13T07:22:40Z</time>
      </trkpt>
      <trkpt lat="50.15446" lon="3.18515">
        <ele>50.13</ele>
        <time>2014-09-13T07:22:43Z</time>
      </trkpt>
      <trkpt lat="50.15445" lon="3.18512">
        <ele>50.61</ele>
        <time>2014-09-13T07:22:44Z</time>
      </trkpt>
      <trkpt lat="50.15444" lon="3.18509">
        <ele>51.09</ele>
        <time>2014-09-13T07:22:45Z</time>
      </trkpt>
      <trkpt lat="50.15444" lon="3.18505">
        <ele>51.09</ele>
        <time>2014-09-13T07:22:46Z</time>
      </trkpt>
      <trkpt lat="50.15445" lon="3.18502">
        <ele>51.09</ele>
        <time>2014-09-13T07:22:47Z</time>
      </trkpt>
      <trkpt lat="50.15446" lon="3.18497">
        <ele>51.09</ele>
        <time>2014-09-13T07:22:48Z</time>
      </trkpt>
      <trkpt lat="50.15453" lon="3.18444">
        <ele>51.09</ele>
        <time>2014-09-13T07:22:57Z</time>
      </trkpt>
      <trkpt lat="50.15451" lon="3.18396">
        <ele>50.13</ele>
        <time>2014-09-13T07:23:03Z</time>
      </trkpt>
      <trkpt lat="50.15439" lon="3.18249">
        <ele>47.24</ele>
        <time>2014-09-13T07:23:18Z</time>
      </trkpt>
      <trkpt lat="50.15431" lon="3.18089">
        <ele>46.76</ele>
        <time>2014-09-13T07:23:35Z</time>
      </trkpt>
      <trkpt lat="50.15428" lon="3.18028">
        <ele>46.76</ele>
        <time>2014-09-13T07:23:42Z</time>
      </trkpt>
      <trkpt lat="50.15428" lon="3.1802">
        <ele>46.76</ele>
        <time>2014-09-13T07:23:43Z</time>
      </trkpt>
      <trkpt lat="50.15423" lon="3.17973">
        <ele>46.76</ele>
        <time>2014-09-13T07:23:49Z</time>
      </trkpt>
      <trkpt lat="50.15422" lon="3.17966">
        <ele>46.76</ele>
        <time>2014-09-13T07:23:50Z</time>
      </trkpt>
      <trkpt lat="50.1542" lon="3.1796">
        <ele>46.76</ele>
        <time>2014-09-13T07:23:51Z</time>
      </trkpt>
      <trkpt lat="50.15417" lon="3.17956">
        <ele>46.76</ele>
        <time>2014-09-13T07:23:52Z</time>
      </trkpt>
      <trkpt lat="50.15413" lon="3.17955">
        <ele>46.76</ele>
        <time>2014-09-13T07:23:53Z</time>
      </trkpt>
      <trkpt lat="50.15408" lon="3.17957">
        <ele>46.76</ele>
        <time>2014-09-13T07:23:54Z</time>
      </trkpt>
      <trkpt lat="50.15405" lon="3.17958">
        <ele>46.76</ele>
        <time>2014-09-13T07:23:55Z</time>
      </trkpt>
      <trkpt lat="50.15401" lon="3.17961">
        <ele>46.76</ele>
        <time>2014-09-13T07:23:56Z</time>
      </trkpt>
      <trkpt lat="50.15397" lon="3.17964">
        <ele>46.76</ele>
        <time>2014-09-13T07:23:57Z</time>
      </trkpt>
      <trkpt lat="50.1536" lon="3.17986">
        <ele>46.76</ele>
        <time>2014-09-13T07:24:07Z</time>
      </trkpt>
      <trkpt lat="50.15336" lon="3.17982">
        <ele>45.8</ele>
        <time>2014-09-13T07:24:13Z</time>
      </trkpt>
      <trkpt lat="50.15331" lon="3.17981">
        <ele>45.8</ele>
        <time>2014-09-13T07:24:14Z</time>
      </trkpt>
      <trkpt lat="50.15293" lon="3.17975">
        <ele>45.8</ele>
        <time>2014-09-13T07:24:23Z</time>
      </trkpt>
      <trkpt lat="50.15289" lon="3.17974">
        <ele>45.8</ele>
        <time>2014-09-13T07:24:24Z</time>
      </trkpt>
      <trkpt lat="50.15285" lon="3.17973">
        <ele>45.8</ele>
        <time>2014-09-13T07:24:25Z</time>
      </trkpt>
      <trkpt lat="50.1525" lon="3.17968">
        <ele>45.8</ele>
        <time>2014-09-13T07:24:35Z</time>
      </trkpt>
      <trkpt lat="50.15202" lon="3.1796">
        <ele>46.28</ele>
        <time>2014-09-13T07:24:47Z</time>
      </trkpt>
      <trkpt lat="50.15197" lon="3.17959">
        <ele>45.8</ele>
        <time>2014-09-13T07:24:48Z</time>
      </trkpt>
      <trkpt lat="50.15117" lon="3.1795">
        <ele>45.8</ele>
        <time>2014-09-13T07:25:02Z</time>
      </trkpt>
      <trkpt lat="50.15091" lon="3.17946">
        <ele>45.8</ele>
        <time>2014-09-13T07:25:08Z</time>
      </trkpt>
      <trkpt lat="50.15086" lon="3.17945">
        <ele>45.8</ele>
        <time>2014-09-13T07:25:09Z</time>
      </trkpt>
      <trkpt lat="50.15032" lon="3.17937">
        <ele>45.8</ele>
        <time>2014-09-13T07:25:21Z</time>
      </trkpt>
      <trkpt lat="50.15028" lon="3.17937">
        <ele>45.8</ele>
        <time>2014-09-13T07:25:22Z</time>
      </trkpt>
      <trkpt lat="50.15023" lon="3.17936">
        <ele>45.8</ele>
        <time>2014-09-13T07:25:23Z</time>
      </trkpt>
      <trkpt lat="50.15019" lon="3.17935">
        <ele>45.8</ele>
        <time>2014-09-13T07:25:24Z</time>
      </trkpt>
      <trkpt lat="50.15014" lon="3.17935">
        <ele>45.8</ele>
        <time>2014-09-13T07:25:25Z</time>
      </trkpt>
      <trkpt lat="50.14981" lon="3.1793">
        <ele>45.8</ele>
        <time>2014-09-13T07:25:33Z</time>
      </trkpt>
      <trkpt lat="50.14976" lon="3.1793">
        <ele>45.8</ele>
        <time>2014-09-13T07:25:34Z</time>
      </trkpt>
      <trkpt lat="50.14972" lon="3.17929">
        <ele>45.8</ele>
        <time>2014-09-13T07:25:35Z</time>
      </trkpt>
      <trkpt lat="50.14964" lon="3.17927">
        <ele>45.8</ele>
        <time>2014-09-13T07:25:37Z</time>
      </trkpt>
      <trkpt lat="50.1496" lon="3.17927">
        <ele>45.8</ele>
        <time>2014-09-13T07:25:38Z</time>
      </trkpt>
      <trkpt lat="50.1491" lon="3.17922">
        <ele>45.8</ele>
        <time>2014-09-13T07:25:50Z</time>
      </trkpt>
      <trkpt lat="50.14882" lon="3.17916">
        <ele>45.8</ele>
        <time>2014-09-13T07:25:57Z</time>
      </trkpt>
      <trkpt lat="50.1487" lon="3.17911">
        <ele>46.28</ele>
        <time>2014-09-13T07:26:00Z</time>
      </trkpt>
      <trkpt lat="50.14841" lon="3.17909">
        <ele>45.8</ele>
        <time>2014-09-13T07:26:07Z</time>
      </trkpt>
      <trkpt lat="50.14833" lon="3.17911">
        <ele>45.8</ele>
        <time>2014-09-13T07:26:09Z</time>
      </trkpt>
      <trkpt lat="50.14829" lon="3.17912">
        <ele>47.24</ele>
        <time>2014-09-13T07:26:10Z</time>
      </trkpt>
      <trkpt lat="50.1476" lon="3.17945">
        <ele>47.24</ele>
        <time>2014-09-13T07:26:27Z</time>
      </trkpt>
      <trkpt lat="50.14693" lon="3.17979">
        <ele>47.24</ele>
        <time>2014-09-13T07:26:43Z</time>
      </trkpt>
      <trkpt lat="50.14635" lon="3.1801">
        <ele>47.72</ele>
        <time>2014-09-13T07:26:57Z</time>
      </trkpt>
      <trkpt lat="50.14557" lon="3.18049">
        <ele>47.72</ele>
        <time>2014-09-13T07:27:16Z</time>
      </trkpt>
      <trkpt lat="50.1448" lon="3.18088">
        <ele>47.72</ele>
        <time>2014-09-13T07:27:35Z</time>
      </trkpt>
      <trkpt lat="50.14411" lon="3.1812">
        <ele>48.2</ele>
        <time>2014-09-13T07:27:52Z</time>
      </trkpt>
      <trkpt lat="50.14395" lon="3.18129">
        <ele>48.2</ele>
        <time>2014-09-13T07:27:56Z</time>
      </trkpt>
      <trkpt lat="50.14379" lon="3.18138">
        <ele>48.2</ele>
        <time>2014-09-13T07:28:00Z</time>
      </trkpt>
      <trkpt lat="50.14364" lon="3.18149">
        <ele>48.2</ele>
        <time>2014-09-13T07:28:04Z</time>
      </trkpt>
      <trkpt lat="50.14361" lon="3.18152">
        <ele>48.2</ele>
        <time>2014-09-13T07:28:05Z</time>
      </trkpt>
      <trkpt lat="50.14357" lon="3.18154">
        <ele>48.2</ele>
        <time>2014-09-13T07:28:06Z</time>
      </trkpt>
      <trkpt lat="50.14349" lon="3.1816">
        <ele>47.72</ele>
        <time>2014-09-13T07:28:08Z</time>
      </trkpt>
      <trkpt lat="50.1428" lon="3.18207">
        <ele>48.68</ele>
        <time>2014-09-13T07:28:25Z</time>
      </trkpt>
      <trkpt lat="50.14275" lon="3.18209">
        <ele>48.68</ele>
        <time>2014-09-13T07:28:26Z</time>
      </trkpt>
      <trkpt lat="50.14233" lon="3.18216">
        <ele>48.2</ele>
        <time>2014-09-13T07:28:35Z</time>
      </trkpt>
      <trkpt lat="50.14229" lon="3.18216">
        <ele>48.2</ele>
        <time>2014-09-13T07:28:36Z</time>
      </trkpt>
      <trkpt lat="50.14148" lon="3.18225">
        <ele>48.68</ele>
        <time>2014-09-13T07:28:54Z</time>
      </trkpt>
      <trkpt lat="50.14078" lon="3.18229">
        <ele>48.2</ele>
        <time>2014-09-13T07:29:10Z</time>
      </trkpt>
      <trkpt lat="50.14069" lon="3.18229">
        <ele>48.68</ele>
        <time>2014-09-13T07:29:13Z</time>
      </trkpt>
      <trkpt lat="50.14067" lon="3.1823">
        <ele>48.2</ele>
        <time>2014-09-13T07:29:14Z</time>
      </trkpt>
      <trkpt lat="50.14056" lon="3.18231">
        <ele>48.2</ele>
        <time>2014-09-13T07:29:17Z</time>
      </trkpt>
      <trkpt lat="50.13979" lon="3.18224">
        <ele>49.16</ele>
        <time>2014-09-13T07:29:34Z</time>
      </trkpt>
      <trkpt lat="50.13917" lon="3.182">
        <ele>48.68</ele>
        <time>2014-09-13T07:29:49Z</time>
      </trkpt>
      <trkpt lat="50.13916" lon="3.18195">
        <ele>48.68</ele>
        <time>2014-09-13T07:29:50Z</time>
      </trkpt>
      <trkpt lat="50.13916" lon="3.18188">
        <ele>48.68</ele>
        <time>2014-09-13T07:29:51Z</time>
      </trkpt>
      <trkpt lat="50.13918" lon="3.18183">
        <ele>48.68</ele>
        <time>2014-09-13T07:29:52Z</time>
      </trkpt>
      <trkpt lat="50.13921" lon="3.18178">
        <ele>48.68</ele>
        <time>2014-09-13T07:29:53Z</time>
      </trkpt>
      <trkpt lat="50.13924" lon="3.18172">
        <ele>48.68</ele>
        <time>2014-09-13T07:29:54Z</time>
      </trkpt>
      <trkpt lat="50.13939" lon="3.18136">
        <ele>49.16</ele>
        <time>2014-09-13T07:30:00Z</time>
      </trkpt>
      <trkpt lat="50.13945" lon="3.18122">
        <ele>49.16</ele>
        <time>2014-09-13T07:30:02Z</time>
      </trkpt>
      <trkpt lat="50.13947" lon="3.18116">
        <ele>49.16</ele>
        <time>2014-09-13T07:30:03Z</time>
      </trkpt>
      <trkpt lat="50.1395" lon="3.18109">
        <ele>49.16</ele>
        <time>2014-09-13T07:30:04Z</time>
      </trkpt>
      <trkpt lat="50.13952" lon="3.18103">
        <ele>49.16</ele>
        <time>2014-09-13T07:30:05Z</time>
      </trkpt>
      <trkpt lat="50.13955" lon="3.18097">
        <ele>49.16</ele>
        <time>2014-09-13T07:30:06Z</time>
      </trkpt>
      <trkpt lat="50.13957" lon="3.18091">
        <ele>49.16</ele>
        <time>2014-09-13T07:30:07Z</time>
      </trkpt>
      <trkpt lat="50.14002" lon="3.17993">
        <ele>49.16</ele>
        <time>2014-09-13T07:30:22Z</time>
      </trkpt>
      <trkpt lat="50.14016" lon="3.17969">
        <ele>49.16</ele>
        <time>2014-09-13T07:30:26Z</time>
      </trkpt>
      <trkpt lat="50.14078" lon="3.17898">
        <ele>49.16</ele>
        <time>2014-09-13T07:30:41Z</time>
      </trkpt>
      <trkpt lat="50.14081" lon="3.17892">
        <ele>49.16</ele>
        <time>2014-09-13T07:30:42Z</time>
      </trkpt>
      <trkpt lat="50.14083" lon="3.17886">
        <ele>49.16</ele>
        <time>2014-09-13T07:30:43Z</time>
      </trkpt>
      <trkpt lat="50.14083" lon="3.17878">
        <ele>49.16</ele>
        <time>2014-09-13T07:30:44Z</time>
      </trkpt>
      <trkpt lat="50.14083" lon="3.1787">
        <ele>49.16</ele>
        <time>2014-09-13T07:30:45Z</time>
      </trkpt>
      <trkpt lat="50.14081" lon="3.17863">
        <ele>49.16</ele>
        <time>2014-09-13T07:30:46Z</time>
      </trkpt>
      <trkpt lat="50.14079" lon="3.17856">
        <ele>50.13</ele>
        <time>2014-09-13T07:30:47Z</time>
      </trkpt>
      <trkpt lat="50.14076" lon="3.17849">
        <ele>50.13</ele>
        <time>2014-09-13T07:30:48Z</time>
      </trkpt>
      <trkpt lat="50.14026" lon="3.17739">
        <ele>51.57</ele>
        <time>2014-09-13T07:31:05Z</time>
      </trkpt>
      <trkpt lat="50.14018" lon="3.17712">
        <ele>52.53</ele>
        <time>2014-09-13T07:31:09Z</time>
      </trkpt>
      <trkpt lat="50.14018" lon="3.17706">
        <ele>52.53</ele>
        <time>2014-09-13T07:31:10Z</time>
      </trkpt>
      <trkpt lat="50.14017" lon="3.177">
        <ele>53.01</ele>
        <time>2014-09-13T07:31:11Z</time>
      </trkpt>
      <trkpt lat="50.14018" lon="3.17694">
        <ele>53.01</ele>
        <time>2014-09-13T07:31:12Z</time>
      </trkpt>
      <trkpt lat="50.14019" lon="3.17689">
        <ele>53.01</ele>
        <time>2014-09-13T07:31:13Z</time>
      </trkpt>
      <trkpt lat="50.14022" lon="3.17682">
        <ele>53.01</ele>
        <time>2014-09-13T07:31:14Z</time>
      </trkpt>
      <trkpt lat="50.14024" lon="3.17678">
        <ele>53.49</ele>
        <time>2014-09-13T07:31:15Z</time>
      </trkpt>
      <trkpt lat="50.14027" lon="3.17674">
        <ele>53.49</ele>
        <time>2014-09-13T07:31:16Z</time>
      </trkpt>
      <trkpt lat="50.1403" lon="3.1767">
        <ele>53.49</ele>
        <time>2014-09-13T07:31:17Z</time>
      </trkpt>
      <trkpt lat="50.14081" lon="3.17612">
        <ele>54.45</ele>
        <time>2014-09-13T07:31:31Z</time>
      </trkpt>
      <trkpt lat="50.14084" lon="3.17607">
        <ele>54.45</ele>
        <time>2014-09-13T07:31:32Z</time>
      </trkpt>
      <trkpt lat="50.1409" lon="3.17597">
        <ele>54.45</ele>
        <time>2014-09-13T07:31:34Z</time>
      </trkpt>
      <trkpt lat="50.14092" lon="3.17591">
        <ele>54.93</ele>
        <time>2014-09-13T07:31:35Z</time>
      </trkpt>
      <trkpt lat="50.14092" lon="3.17584">
        <ele>54.93</ele>
        <time>2014-09-13T07:31:36Z</time>
      </trkpt>
      <trkpt lat="50.14092" lon="3.17577">
        <ele>54.93</ele>
        <time>2014-09-13T07:31:37Z</time>
      </trkpt>
      <trkpt lat="50.1409" lon="3.17572">
        <ele>55.41</ele>
        <time>2014-09-13T07:31:38Z</time>
      </trkpt>
      <trkpt lat="50.14089" lon="3.17566">
        <ele>55.41</ele>
        <time>2014-09-13T07:31:39Z</time>
      </trkpt>
      <trkpt lat="50.1408" lon="3.17538">
        <ele>56.86</ele>
        <time>2014-09-13T07:31:44Z</time>
      </trkpt>
      <trkpt lat="50.14057" lon="3.17488">
        <ele>60.22</ele>
        <time>2014-09-13T07:31:54Z</time>
      </trkpt>
      <trkpt lat="50.14029" lon="3.17436">
        <ele>63.1</ele>
        <time>2014-09-13T07:32:05Z</time>
      </trkpt>
      <trkpt lat="50.13994" lon="3.17376">
        <ele>65.99</ele>
        <time>2014-09-13T07:32:18Z</time>
      </trkpt>
      <trkpt lat="50.1397" lon="3.17318">
        <ele>68.87</ele>
        <time>2014-09-13T07:32:31Z</time>
      </trkpt>
      <trkpt lat="50.13949" lon="3.17259">
        <ele>70.31</ele>
        <time>2014-09-13T07:32:44Z</time>
      </trkpt>
      <trkpt lat="50.13911" lon="3.17192">
        <ele>72.72</ele>
        <time>2014-09-13T07:33:01Z</time>
      </trkpt>
      <trkpt lat="50.13869" lon="3.17126">
        <ele>75.12</ele>
        <time>2014-09-13T07:33:19Z</time>
      </trkpt>
      <trkpt lat="50.13832" lon="3.17082">
        <ele>76.08</ele>
        <time>2014-09-13T07:33:33Z</time>
      </trkpt>
      <trkpt lat="50.13794" lon="3.17043">
        <ele>76.56</ele>
        <time>2014-09-13T07:33:46Z</time>
      </trkpt>
      <trkpt lat="50.1375" lon="3.17003">
        <ele>77.52</ele>
        <time>2014-09-13T07:34:02Z</time>
      </trkpt>
      <trkpt lat="50.13742" lon="3.17">
        <ele>77.52</ele>
        <time>2014-09-13T07:34:05Z</time>
      </trkpt>
      <trkpt lat="50.1374" lon="3.17002">
        <ele>77.52</ele>
        <time>2014-09-13T07:34:06Z</time>
      </trkpt>
      <trkpt lat="50.13706" lon="3.17036">
        <ele>78</ele>
        <time>2014-09-13T07:34:20Z</time>
      </trkpt>
      <trkpt lat="50.13671" lon="3.17071">
        <ele>78.48</ele>
        <time>2014-09-13T07:34:33Z</time>
      </trkpt>
      <trkpt lat="50.13631" lon="3.17093">
        <ele>79.93</ele>
        <time>2014-09-13T07:34:46Z</time>
      </trkpt>
      <trkpt lat="50.13585" lon="3.17108">
        <ele>80.89</ele>
        <time>2014-09-13T07:35:00Z</time>
      </trkpt>
      <trkpt lat="50.13549" lon="3.17136">
        <ele>81.85</ele>
        <time>2014-09-13T07:35:12Z</time>
      </trkpt>
      <trkpt lat="50.1352" lon="3.17161">
        <ele>82.81</ele>
        <time>2014-09-13T07:35:23Z</time>
      </trkpt>
      <trkpt lat="50.13501" lon="3.17173">
        <ele>82.81</ele>
        <time>2014-09-13T07:35:31Z</time>
      </trkpt>
      <trkpt lat="50.13499" lon="3.17174">
        <ele>83.29</ele>
        <time>2014-09-13T07:35:32Z</time>
      </trkpt>
      <trkpt lat="50.13483" lon="3.17181">
        <ele>83.29</ele>
        <time>2014-09-13T07:35:38Z</time>
      </trkpt>
      <trkpt lat="50.13478" lon="3.17184">
        <ele>83.29</ele>
        <time>2014-09-13T07:35:39Z</time>
      </trkpt>
      <trkpt lat="50.13441" lon="3.17205">
        <ele>81.85</ele>
        <time>2014-09-13T07:35:50Z</time>
      </trkpt>
      <trkpt lat="50.13441" lon="3.17205">
        <ele>81.85</ele>
        <time>2014-09-13T07:35:52Z</time>
      </trkpt>
      <trkpt lat="50.13442" lon="3.17205">
        <ele>81.85</ele>
        <time>2014-09-13T07:36:02Z</time>
      </trkpt>
      <trkpt lat="50.13441" lon="3.17203">
        <ele>81.85</ele>
        <time>2014-09-13T07:36:03Z</time>
      </trkpt>
      <trkpt lat="50.1344" lon="3.17202">
        <ele>81.85</ele>
        <time>2014-09-13T07:36:04Z</time>
      </trkpt>
      <trkpt lat="50.13438" lon="3.17202">
        <ele>81.85</ele>
        <time>2014-09-13T07:36:05Z</time>
      </trkpt>
      <trkpt lat="50.13436" lon="3.17204">
        <ele>81.85</ele>
        <time>2014-09-13T07:36:06Z</time>
      </trkpt>
      <trkpt lat="50.13433" lon="3.17206">
        <ele>81.85</ele>
        <time>2014-09-13T07:36:07Z</time>
      </trkpt>
      <trkpt lat="50.13429" lon="3.17209">
        <ele>81.85</ele>
        <time>2014-09-13T07:36:08Z</time>
      </trkpt>
      <trkpt lat="50.13425" lon="3.17211">
        <ele>81.85</ele>
        <time>2014-09-13T07:36:09Z</time>
      </trkpt>
      <trkpt lat="50.13408" lon="3.17222">
        <ele>81.85</ele>
        <time>2014-09-13T07:36:13Z</time>
      </trkpt>
      <trkpt lat="50.13374" lon="3.17238">
        <ele>83.29</ele>
        <time>2014-09-13T07:36:24Z</time>
      </trkpt>
      <trkpt lat="50.13363" lon="3.17244">
        <ele>83.29</ele>
        <time>2014-09-13T07:36:27Z</time>
      </trkpt>
      <trkpt lat="50.13359" lon="3.17247">
        <ele>83.29</ele>
        <time>2014-09-13T07:36:28Z</time>
      </trkpt>
      <trkpt lat="50.13328" lon="3.1726">
        <ele>81.85</ele>
        <time>2014-09-13T07:36:36Z</time>
      </trkpt>
      <trkpt lat="50.13266" lon="3.17281">
        <ele>79.93</ele>
        <time>2014-09-13T07:36:52Z</time>
      </trkpt>
      <trkpt lat="50.13222" lon="3.17297">
        <ele>78.48</ele>
        <time>2014-09-13T07:37:04Z</time>
      </trkpt>
      <trkpt lat="50.13202" lon="3.17302">
        <ele>78</ele>
        <time>2014-09-13T07:37:09Z</time>
      </trkpt>
      <trkpt lat="50.13198" lon="3.17304">
        <ele>77.52</ele>
        <time>2014-09-13T07:37:10Z</time>
      </trkpt>
      <trkpt lat="50.13149" lon="3.17323">
        <ele>76.08</ele>
        <time>2014-09-13T07:37:23Z</time>
      </trkpt>
      <trkpt lat="50.13098" lon="3.17338">
        <ele>74.16</ele>
        <time>2014-09-13T07:37:36Z</time>
      </trkpt>
      <trkpt lat="50.13072" lon="3.17344">
        <ele>73.68</ele>
        <time>2014-09-13T07:37:41Z</time>
      </trkpt>
      <trkpt lat="50.13067" lon="3.17346">
        <ele>73.68</ele>
        <time>2014-09-13T07:37:42Z</time>
      </trkpt>
      <trkpt lat="50.13052" lon="3.17354">
        <ele>73.2</ele>
        <time>2014-09-13T07:37:45Z</time>
      </trkpt>
      <trkpt lat="50.13047" lon="3.17357">
        <ele>72.24</ele>
        <time>2014-09-13T07:37:46Z</time>
      </trkpt>
      <trkpt lat="50.13042" lon="3.1736">
        <ele>72.24</ele>
        <time>2014-09-13T07:37:47Z</time>
      </trkpt>
      <trkpt lat="50.13022" lon="3.17372">
        <ele>71.27</ele>
        <time>2014-09-13T07:37:51Z</time>
      </trkpt>
      <trkpt lat="50.12963" lon="3.17397">
        <ele>70.31</ele>
        <time>2014-09-13T07:38:03Z</time>
      </trkpt>
      <trkpt lat="50.1296" lon="3.17399">
        <ele>70.31</ele>
        <time>2014-09-13T07:38:04Z</time>
      </trkpt>
      <trkpt lat="50.12914" lon="3.17424">
        <ele>70.79</ele>
        <time>2014-09-13T07:38:17Z</time>
      </trkpt>
      <trkpt lat="50.12905" lon="3.1743">
        <ele>72.24</ele>
        <time>2014-09-13T07:38:20Z</time>
      </trkpt>
      <trkpt lat="50.12898" lon="3.17434">
        <ele>72.24</ele>
        <time>2014-09-13T07:38:22Z</time>
      </trkpt>
      <trkpt lat="50.12859" lon="3.17456">
        <ele>75.12</ele>
        <time>2014-09-13T07:38:32Z</time>
      </trkpt>
      <trkpt lat="50.1282" lon="3.17462">
        <ele>76.08</ele>
        <time>2014-09-13T07:38:44Z</time>
      </trkpt>
      <trkpt lat="50.12764" lon="3.17466">
        <ele>73.68</ele>
        <time>2014-09-13T07:38:59Z</time>
      </trkpt>
      <trkpt lat="50.12716" lon="3.17473">
        <ele>71.27</ele>
        <time>2014-09-13T07:39:07Z</time>
      </trkpt>
      <trkpt lat="50.12641" lon="3.17472">
        <ele>67.43</ele>
        <time>2014-09-13T07:39:17Z</time>
      </trkpt>
      <trkpt lat="50.12559" lon="3.17478">
        <ele>64.07</ele>
        <time>2014-09-13T07:39:27Z</time>
      </trkpt>
      <trkpt lat="50.12533" lon="3.17476">
        <ele>63.1</ele>
        <time>2014-09-13T07:39:30Z</time>
      </trkpt>
      <trkpt lat="50.12499" lon="3.17466">
        <ele>61.66</ele>
        <time>2014-09-13T07:39:34Z</time>
      </trkpt>
      <trkpt lat="50.12492" lon="3.17461">
        <ele>61.66</ele>
        <time>2014-09-13T07:39:35Z</time>
      </trkpt>
      <trkpt lat="50.12468" lon="3.17443">
        <ele>60.22</ele>
        <time>2014-09-13T07:39:40Z</time>
      </trkpt>
      <trkpt lat="50.12464" lon="3.17438">
        <ele>60.22</ele>
        <time>2014-09-13T07:39:41Z</time>
      </trkpt>
      <trkpt lat="50.1246" lon="3.1743">
        <ele>60.22</ele>
        <time>2014-09-13T07:39:42Z</time>
      </trkpt>
      <trkpt lat="50.12457" lon="3.17423">
        <ele>60.22</ele>
        <time>2014-09-13T07:39:43Z</time>
      </trkpt>
      <trkpt lat="50.12454" lon="3.17417">
        <ele>60.22</ele>
        <time>2014-09-13T07:39:44Z</time>
      </trkpt>
      <trkpt lat="50.12406" lon="3.17304">
        <ele>60.22</ele>
        <time>2014-09-13T07:40:00Z</time>
      </trkpt>
      <trkpt lat="50.12402" lon="3.17297">
        <ele>60.22</ele>
        <time>2014-09-13T07:40:01Z</time>
      </trkpt>
      <trkpt lat="50.12341" lon="3.17184">
        <ele>58.78</ele>
        <time>2014-09-13T07:40:18Z</time>
      </trkpt>
      <trkpt lat="50.12296" lon="3.17105">
        <ele>56.86</ele>
        <time>2014-09-13T07:40:29Z</time>
      </trkpt>
      <trkpt lat="50.12291" lon="3.17099">
        <ele>56.37</ele>
        <time>2014-09-13T07:40:30Z</time>
      </trkpt>
      <trkpt lat="50.12207" lon="3.17037">
        <ele>55.41</ele>
        <time>2014-09-13T07:40:44Z</time>
      </trkpt>
      <trkpt lat="50.1212" lon="3.16955">
        <ele>54.93</ele>
        <time>2014-09-13T07:41:00Z</time>
      </trkpt>
      <trkpt lat="50.12045" lon="3.16886">
        <ele>54.93</ele>
        <time>2014-09-13T07:41:14Z</time>
      </trkpt>
      <trkpt lat="50.12023" lon="3.1686">
        <ele>54.45</ele>
        <time>2014-09-13T07:41:20Z</time>
      </trkpt>
      <trkpt lat="50.12019" lon="3.16859">
        <ele>54.45</ele>
        <time>2014-09-13T07:41:21Z</time>
      </trkpt>
      <trkpt lat="50.12013" lon="3.16862">
        <ele>54.45</ele>
        <time>2014-09-13T07:41:22Z</time>
      </trkpt>
      <trkpt lat="50.12009" lon="3.16867">
        <ele>53.49</ele>
        <time>2014-09-13T07:41:23Z</time>
      </trkpt>
      <trkpt lat="50.12006" lon="3.16872">
        <ele>53.49</ele>
        <time>2014-09-13T07:41:24Z</time>
      </trkpt>
      <trkpt lat="50.12002" lon="3.16877">
        <ele>53.49</ele>
        <time>2014-09-13T07:41:25Z</time>
      </trkpt>
      <trkpt lat="50.11945" lon="3.16969">
        <ele>53.97</ele>
        <time>2014-09-13T07:41:40Z</time>
      </trkpt>
      <trkpt lat="50.11888" lon="3.17053">
        <ele>53.97</ele>
        <time>2014-09-13T07:41:55Z</time>
      </trkpt>
      <trkpt lat="50.11884" lon="3.17056">
        <ele>53.97</ele>
        <time>2014-09-13T07:41:56Z</time>
      </trkpt>
      <trkpt lat="50.1188" lon="3.17059">
        <ele>54.93</ele>
        <time>2014-09-13T07:41:57Z</time>
      </trkpt>
      <trkpt lat="50.11875" lon="3.17062">
        <ele>54.93</ele>
        <time>2014-09-13T07:41:58Z</time>
      </trkpt>
      <trkpt lat="50.11858" lon="3.17072">
        <ele>54.93</ele>
        <time>2014-09-13T07:42:02Z</time>
      </trkpt>
      <trkpt lat="50.11853" lon="3.1707">
        <ele>55.89</ele>
        <time>2014-09-13T07:42:03Z</time>
      </trkpt>
      <trkpt lat="50.11849" lon="3.17065">
        <ele>55.89</ele>
        <time>2014-09-13T07:42:04Z</time>
      </trkpt>
      <trkpt lat="50.11847" lon="3.17057">
        <ele>55.89</ele>
        <time>2014-09-13T07:42:05Z</time>
      </trkpt>
      <trkpt lat="50.11846" lon="3.17053">
        <ele>55.89</ele>
        <time>2014-09-13T07:42:06Z</time>
      </trkpt>
      <trkpt lat="50.11807" lon="3.16928">
        <ele>56.37</ele>
        <time>2014-09-13T07:42:23Z</time>
      </trkpt>
      <trkpt lat="50.11762" lon="3.16833">
        <ele>58.3</ele>
        <time>2014-09-13T07:42:39Z</time>
      </trkpt>
      <trkpt lat="50.11749" lon="3.16815">
        <ele>58.3</ele>
        <time>2014-09-13T07:42:43Z</time>
      </trkpt>
      <trkpt lat="50.11737" lon="3.16802">
        <ele>58.3</ele>
        <time>2014-09-13T07:42:46Z</time>
      </trkpt>
      <trkpt lat="50.11733" lon="3.16799">
        <ele>58.3</ele>
        <time>2014-09-13T07:42:47Z</time>
      </trkpt>
      <trkpt lat="50.11729" lon="3.16795">
        <ele>58.3</ele>
        <time>2014-09-13T07:42:48Z</time>
      </trkpt>
      <trkpt lat="50.11724" lon="3.16791">
        <ele>58.3</ele>
        <time>2014-09-13T07:42:49Z</time>
      </trkpt>
      <trkpt lat="50.1172" lon="3.16788">
        <ele>58.3</ele>
        <time>2014-09-13T07:42:50Z</time>
      </trkpt>
      <trkpt lat="50.11696" lon="3.16764">
        <ele>59.26</ele>
        <time>2014-09-13T07:42:56Z</time>
      </trkpt>
      <trkpt lat="50.11694" lon="3.16759">
        <ele>59.74</ele>
        <time>2014-09-13T07:42:57Z</time>
      </trkpt>
      <trkpt lat="50.11693" lon="3.16752">
        <ele>59.74</ele>
        <time>2014-09-13T07:42:58Z</time>
      </trkpt>
      <trkpt lat="50.11693" lon="3.16745">
        <ele>59.74</ele>
        <time>2014-09-13T07:42:59Z</time>
      </trkpt>
      <trkpt lat="50.11695" lon="3.16738">
        <ele>59.74</ele>
        <time>2014-09-13T07:43:00Z</time>
      </trkpt>
      <trkpt lat="50.11696" lon="3.1673">
        <ele>59.74</ele>
        <time>2014-09-13T07:43:01Z</time>
      </trkpt>
      <trkpt lat="50.11697" lon="3.16723">
        <ele>59.74</ele>
        <time>2014-09-13T07:43:02Z</time>
      </trkpt>
      <trkpt lat="50.11698" lon="3.16717">
        <ele>59.74</ele>
        <time>2014-09-13T07:43:03Z</time>
      </trkpt>
      <trkpt lat="50.1172" lon="3.16611">
        <ele>58.3</ele>
        <time>2014-09-13T07:43:18Z</time>
      </trkpt>
      <trkpt lat="50.11735" lon="3.16556">
        <ele>58.3</ele>
        <time>2014-09-13T07:43:25Z</time>
      </trkpt>
      <trkpt lat="50.11736" lon="3.16551">
        <ele>58.3</ele>
        <time>2014-09-13T07:43:26Z</time>
      </trkpt>
      <trkpt lat="50.11735" lon="3.16531">
        <ele>56.37</ele>
        <time>2014-09-13T07:43:34Z</time>
      </trkpt>
      <trkpt lat="50.11734" lon="3.16523">
        <ele>55.41</ele>
        <time>2014-09-13T07:43:35Z</time>
      </trkpt>
      <trkpt lat="50.11733" lon="3.16514">
        <ele>55.41</ele>
        <time>2014-09-13T07:43:36Z</time>
      </trkpt>
      <trkpt lat="50.11733" lon="3.16505">
        <ele>55.41</ele>
        <time>2014-09-13T07:43:37Z</time>
      </trkpt>
      <trkpt lat="50.11734" lon="3.16496">
        <ele>55.41</ele>
        <time>2014-09-13T07:43:38Z</time>
      </trkpt>
      <trkpt lat="50.11736" lon="3.16488">
        <ele>55.41</ele>
        <time>2014-09-13T07:43:39Z</time>
      </trkpt>
      <trkpt lat="50.11739" lon="3.1648">
        <ele>55.41</ele>
        <time>2014-09-13T07:43:40Z</time>
      </trkpt>
      <trkpt lat="50.11742" lon="3.16473">
        <ele>55.41</ele>
        <time>2014-09-13T07:43:41Z</time>
      </trkpt>
      <trkpt lat="50.11748" lon="3.1646">
        <ele>55.41</ele>
        <time>2014-09-13T07:43:43Z</time>
      </trkpt>
      <trkpt lat="50.11749" lon="3.16452">
        <ele>55.41</ele>
        <time>2014-09-13T07:43:44Z</time>
      </trkpt>
      <trkpt lat="50.11749" lon="3.16444">
        <ele>55.41</ele>
        <time>2014-09-13T07:43:45Z</time>
      </trkpt>
      <trkpt lat="50.11747" lon="3.16436">
        <ele>54.93</ele>
        <time>2014-09-13T07:43:46Z</time>
      </trkpt>
      <trkpt lat="50.11735" lon="3.16405">
        <ele>55.41</ele>
        <time>2014-09-13T07:43:50Z</time>
      </trkpt>
      <trkpt lat="50.11712" lon="3.16347">
        <ele>55.41</ele>
        <time>2014-09-13T07:44:00Z</time>
      </trkpt>
      <trkpt lat="50.11707" lon="3.16336">
        <ele>53.49</ele>
        <time>2014-09-13T07:44:04Z</time>
      </trkpt>
      <trkpt lat="50.11699" lon="3.1632">
        <ele>54.93</ele>
        <time>2014-09-13T07:44:07Z</time>
      </trkpt>
      <trkpt lat="50.11687" lon="3.16298">
        <ele>55.41</ele>
        <time>2014-09-13T07:44:12Z</time>
      </trkpt>
      <trkpt lat="50.11682" lon="3.1628">
        <ele>55.41</ele>
        <time>2014-09-13T07:44:16Z</time>
      </trkpt>
      <trkpt lat="50.11655" lon="3.16218">
        <ele>55.41</ele>
        <time>2014-09-13T07:44:28Z</time>
      </trkpt>
      <trkpt lat="50.1165" lon="3.16207">
        <ele>55.41</ele>
        <time>2014-09-13T07:44:30Z</time>
      </trkpt>
      <trkpt lat="50.1164" lon="3.16174">
        <ele>55.89</ele>
        <time>2014-09-13T07:44:35Z</time>
      </trkpt>
      <trkpt lat="50.11638" lon="3.1614">
        <ele>55.41</ele>
        <time>2014-09-13T07:44:41Z</time>
      </trkpt>
      <trkpt lat="50.1164" lon="3.16126">
        <ele>55.41</ele>
        <time>2014-09-13T07:44:46Z</time>
      </trkpt>
      <trkpt lat="50.11649" lon="3.16136">
        <ele>55.41</ele>
        <time>2014-09-13T07:44:51Z</time>
      </trkpt>
      <trkpt lat="50.11693" lon="3.16199">
        <ele>55.89</ele>
        <time>2014-09-13T07:45:08Z</time>
      </trkpt>
      <trkpt lat="50.11751" lon="3.16282">
        <ele>57.82</ele>
        <time>2014-09-13T07:45:27Z</time>
      </trkpt>
      <trkpt lat="50.11795" lon="3.16348">
        <ele>60.22</ele>
        <time>2014-09-13T07:45:43Z</time>
      </trkpt>
      <trkpt lat="50.11841" lon="3.16417">
        <ele>58.78</ele>
        <time>2014-09-13T07:45:57Z</time>
      </trkpt>
      <trkpt lat="50.11844" lon="3.16422">
        <ele>58.78</ele>
        <time>2014-09-13T07:45:58Z</time>
      </trkpt>
      <trkpt lat="50.11894" lon="3.16498">
        <ele>58.78</ele>
        <time>2014-09-13T07:46:14Z</time>
      </trkpt>
      <trkpt lat="50.11922" lon="3.16539">
        <ele>58.78</ele>
        <time>2014-09-13T07:46:23Z</time>
      </trkpt>
      <trkpt lat="50.11949" lon="3.16579">
        <ele>58.78</ele>
        <time>2014-09-13T07:46:34Z</time>
      </trkpt>
      <trkpt lat="50.11952" lon="3.16579">
        <ele>58.78</ele>
        <time>2014-09-13T07:46:35Z</time>
      </trkpt>
      <trkpt lat="50.11956" lon="3.16576">
        <ele>58.78</ele>
        <time>2014-09-13T07:46:36Z</time>
      </trkpt>
      <trkpt lat="50.11958" lon="3.1657">
        <ele>58.78</ele>
        <time>2014-09-13T07:46:37Z</time>
      </trkpt>
      <trkpt lat="50.11958" lon="3.16563">
        <ele>58.78</ele>
        <time>2014-09-13T07:46:38Z</time>
      </trkpt>
      <trkpt lat="50.11957" lon="3.16555">
        <ele>59.74</ele>
        <time>2014-09-13T07:46:39Z</time>
      </trkpt>
      <trkpt lat="50.11957" lon="3.16547">
        <ele>60.22</ele>
        <time>2014-09-13T07:46:40Z</time>
      </trkpt>
      <trkpt lat="50.11957" lon="3.16539">
        <ele>60.22</ele>
        <time>2014-09-13T07:46:41Z</time>
      </trkpt>
      <trkpt lat="50.11953" lon="3.16441">
        <ele>64.07</ele>
        <time>2014-09-13T07:46:55Z</time>
      </trkpt>
      <trkpt lat="50.11949" lon="3.16306">
        <ele>66.47</ele>
        <time>2014-09-13T07:47:13Z</time>
      </trkpt>
      <trkpt lat="50.11947" lon="3.16231">
        <ele>67.91</ele>
        <time>2014-09-13T07:47:24Z</time>
      </trkpt>
      <trkpt lat="50.11949" lon="3.16227">
        <ele>67.91</ele>
        <time>2014-09-13T07:47:25Z</time>
      </trkpt>
      <trkpt lat="50.11953" lon="3.16227">
        <ele>68.39</ele>
        <time>2014-09-13T07:47:26Z</time>
      </trkpt>
      <trkpt lat="50.11956" lon="3.1623">
        <ele>68.39</ele>
        <time>2014-09-13T07:47:27Z</time>
      </trkpt>
      <trkpt lat="50.11959" lon="3.16235">
        <ele>68.39</ele>
        <time>2014-09-13T07:47:28Z</time>
      </trkpt>
      <trkpt lat="50.11962" lon="3.16241">
        <ele>68.39</ele>
        <time>2014-09-13T07:47:29Z</time>
      </trkpt>
      <trkpt lat="50.11965" lon="3.16247">
        <ele>68.39</ele>
        <time>2014-09-13T07:47:30Z</time>
      </trkpt>
      <trkpt lat="50.11967" lon="3.16254">
        <ele>68.39</ele>
        <time>2014-09-13T07:47:31Z</time>
      </trkpt>
      <trkpt lat="50.1197" lon="3.16261">
        <ele>68.39</ele>
        <time>2014-09-13T07:47:32Z</time>
      </trkpt>
      <trkpt lat="50.1201" lon="3.16347">
        <ele>68.87</ele>
        <time>2014-09-13T07:47:49Z</time>
      </trkpt>
      <trkpt lat="50.12054" lon="3.16422">
        <ele>68.87</ele>
        <time>2014-09-13T07:48:06Z</time>
      </trkpt>
      <trkpt lat="50.12092" lon="3.16481">
        <ele>68.87</ele>
        <time>2014-09-13T07:48:20Z</time>
      </trkpt>
      <trkpt lat="50.12124" lon="3.16534">
        <ele>67.43</ele>
        <time>2014-09-13T07:48:31Z</time>
      </trkpt>
      <trkpt lat="50.12162" lon="3.1661">
        <ele>65.99</ele>
        <time>2014-09-13T07:48:46Z</time>
      </trkpt>
      <trkpt lat="50.12178" lon="3.16642">
        <ele>65.51</ele>
        <time>2014-09-13T07:48:52Z</time>
      </trkpt>
      <trkpt lat="50.12181" lon="3.16644">
        <ele>65.51</ele>
        <time>2014-09-13T07:48:53Z</time>
      </trkpt>
      <trkpt lat="50.12185" lon="3.16643">
        <ele>65.51</ele>
        <time>2014-09-13T07:48:54Z</time>
      </trkpt>
      <trkpt lat="50.12187" lon="3.16641">
        <ele>65.51</ele>
        <time>2014-09-13T07:48:55Z</time>
      </trkpt>
      <trkpt lat="50.1219" lon="3.16639">
        <ele>65.51</ele>
        <time>2014-09-13T07:48:56Z</time>
      </trkpt>
      <trkpt lat="50.1222" lon="3.16606">
        <ele>68.39</ele>
        <time>2014-09-13T07:49:07Z</time>
      </trkpt>
      <trkpt lat="50.12252" lon="3.16569">
        <ele>71.76</ele>
        <time>2014-09-13T07:49:19Z</time>
      </trkpt>
      <trkpt lat="50.12285" lon="3.16539">
        <ele>74.64</ele>
        <time>2014-09-13T07:49:30Z</time>
      </trkpt>
      <trkpt lat="50.12288" lon="3.16542">
        <ele>74.64</ele>
        <time>2014-09-13T07:49:31Z</time>
      </trkpt>
      <trkpt lat="50.1229" lon="3.16545">
        <ele>74.64</ele>
        <time>2014-09-13T07:49:32Z</time>
      </trkpt>
      <trkpt lat="50.12293" lon="3.16549">
        <ele>74.64</ele>
        <time>2014-09-13T07:49:33Z</time>
      </trkpt>
      <trkpt lat="50.12295" lon="3.16552">
        <ele>74.64</ele>
        <time>2014-09-13T07:49:34Z</time>
      </trkpt>
      <trkpt lat="50.12326" lon="3.16603">
        <ele>75.6</ele>
        <time>2014-09-13T07:49:47Z</time>
      </trkpt>
      <trkpt lat="50.12357" lon="3.16631">
        <ele>77.52</ele>
        <time>2014-09-13T07:49:59Z</time>
      </trkpt>
      <trkpt lat="50.12388" lon="3.1668">
        <ele>78.48</ele>
        <time>2014-09-13T07:50:12Z</time>
      </trkpt>
      <trkpt lat="50.12419" lon="3.16748">
        <ele>77.04</ele>
        <time>2014-09-13T07:50:27Z</time>
      </trkpt>
      <trkpt lat="50.12433" lon="3.16838">
        <ele>74.16</ele>
        <time>2014-09-13T07:50:39Z</time>
      </trkpt>
      <trkpt lat="50.12439" lon="3.16862">
        <ele>73.2</ele>
        <time>2014-09-13T07:50:42Z</time>
      </trkpt>
      <trkpt lat="50.12449" lon="3.1689">
        <ele>72.24</ele>
        <time>2014-09-13T07:50:46Z</time>
      </trkpt>
      <trkpt lat="50.12453" lon="3.16896">
        <ele>72.72</ele>
        <time>2014-09-13T07:50:47Z</time>
      </trkpt>
      <trkpt lat="50.12465" lon="3.16915">
        <ele>72.72</ele>
        <time>2014-09-13T07:50:51Z</time>
      </trkpt>
      <trkpt lat="50.12492" lon="3.16936">
        <ele>72.72</ele>
        <time>2014-09-13T07:50:58Z</time>
      </trkpt>
      <trkpt lat="50.12496" lon="3.16937">
        <ele>72.72</ele>
        <time>2014-09-13T07:50:59Z</time>
      </trkpt>
      <trkpt lat="50.12516" lon="3.16941">
        <ele>72.72</ele>
        <time>2014-09-13T07:51:04Z</time>
      </trkpt>
      <trkpt lat="50.1252" lon="3.16936">
        <ele>72.72</ele>
        <time>2014-09-13T07:51:05Z</time>
      </trkpt>
      <trkpt lat="50.1252" lon="3.16933">
        <ele>72.72</ele>
        <time>2014-09-13T07:51:06Z</time>
      </trkpt>
      <trkpt lat="50.12521" lon="3.16928">
        <ele>72.72</ele>
        <time>2014-09-13T07:51:07Z</time>
      </trkpt>
      <trkpt lat="50.12521" lon="3.16922">
        <ele>72.72</ele>
        <time>2014-09-13T07:51:08Z</time>
      </trkpt>
      <trkpt lat="50.12522" lon="3.16897">
        <ele>74.16</ele>
        <time>2014-09-13T07:51:12Z</time>
      </trkpt>
      <trkpt lat="50.1253" lon="3.16779">
        <ele>77.04</ele>
        <time>2014-09-13T07:51:29Z</time>
      </trkpt>
      <trkpt lat="50.12535" lon="3.16708">
        <ele>78.97</ele>
        <time>2014-09-13T07:51:39Z</time>
      </trkpt>
      <trkpt lat="50.12535" lon="3.16701">
        <ele>78.97</ele>
        <time>2014-09-13T07:51:40Z</time>
      </trkpt>
      <trkpt lat="50.1254" lon="3.16623">
        <ele>81.37</ele>
        <time>2014-09-13T07:51:52Z</time>
      </trkpt>
      <trkpt lat="50.12542" lon="3.16596">
        <ele>82.33</ele>
        <time>2014-09-13T07:51:56Z</time>
      </trkpt>
      <trkpt lat="50.12544" lon="3.16565">
        <ele>83.29</ele>
        <time>2014-09-13T07:52:01Z</time>
      </trkpt>
      <trkpt lat="50.12545" lon="3.16558">
        <ele>83.29</ele>
        <time>2014-09-13T07:52:02Z</time>
      </trkpt>
      <trkpt lat="50.12548" lon="3.16545">
        <ele>84.25</ele>
        <time>2014-09-13T07:52:04Z</time>
      </trkpt>
      <trkpt lat="50.12549" lon="3.16539">
        <ele>84.25</ele>
        <time>2014-09-13T07:52:05Z</time>
      </trkpt>
      <trkpt lat="50.12571" lon="3.16459">
        <ele>86.18</ele>
        <time>2014-09-13T07:52:21Z</time>
      </trkpt>
      <trkpt lat="50.12608" lon="3.16396">
        <ele>87.62</ele>
        <time>2014-09-13T07:52:36Z</time>
      </trkpt>
      <trkpt lat="50.12648" lon="3.16355">
        <ele>87.62</ele>
        <time>2014-09-13T07:52:49Z</time>
      </trkpt>
      <trkpt lat="50.12709" lon="3.16301">
        <ele>89.54</ele>
        <time>2014-09-13T07:53:08Z</time>
      </trkpt>
      <trkpt lat="50.12756" lon="3.16222">
        <ele>90.98</ele>
        <time>2014-09-13T07:53:26Z</time>
      </trkpt>
      <trkpt lat="50.12761" lon="3.16215">
        <ele>90.98</ele>
        <time>2014-09-13T07:53:28Z</time>
      </trkpt>
      <trkpt lat="50.12764" lon="3.16214">
        <ele>90.98</ele>
        <time>2014-09-13T07:53:29Z</time>
      </trkpt>
      <trkpt lat="50.12768" lon="3.16215">
        <ele>90.98</ele>
        <time>2014-09-13T07:53:30Z</time>
      </trkpt>
      <trkpt lat="50.12771" lon="3.16218">
        <ele>90.98</ele>
        <time>2014-09-13T07:53:31Z</time>
      </trkpt>
      <trkpt lat="50.12774" lon="3.16221">
        <ele>90.98</ele>
        <time>2014-09-13T07:53:32Z</time>
      </trkpt>
      <trkpt lat="50.12777" lon="3.16224">
        <ele>90.98</ele>
        <time>2014-09-13T07:53:33Z</time>
      </trkpt>
      <trkpt lat="50.12793" lon="3.16242">
        <ele>90.98</ele>
        <time>2014-09-13T07:53:38Z</time>
      </trkpt>
      <trkpt lat="50.12797" lon="3.16246">
        <ele>90.98</ele>
        <time>2014-09-13T07:53:39Z</time>
      </trkpt>
      <trkpt lat="50.12816" lon="3.1627">
        <ele>89.06</ele>
        <time>2014-09-13T07:53:45Z</time>
      </trkpt>
      <trkpt lat="50.12869" lon="3.16326">
        <ele>89.06</ele>
        <time>2014-09-13T07:54:02Z</time>
      </trkpt>
      <trkpt lat="50.12901" lon="3.16368">
        <ele>88.1</ele>
        <time>2014-09-13T07:54:12Z</time>
      </trkpt>
      <trkpt lat="50.12904" lon="3.16373">
        <ele>88.1</ele>
        <time>2014-09-13T07:54:13Z</time>
      </trkpt>
      <trkpt lat="50.12917" lon="3.16393">
        <ele>87.62</ele>
        <time>2014-09-13T07:54:17Z</time>
      </trkpt>
      <trkpt lat="50.12919" lon="3.16398">
        <ele>87.62</ele>
        <time>2014-09-13T07:54:18Z</time>
      </trkpt>
      <trkpt lat="50.12922" lon="3.16404">
        <ele>87.62</ele>
        <time>2014-09-13T07:54:19Z</time>
      </trkpt>
      <trkpt lat="50.12934" lon="3.16425">
        <ele>87.62</ele>
        <time>2014-09-13T07:54:23Z</time>
      </trkpt>
      <trkpt lat="50.12937" lon="3.1643">
        <ele>87.62</ele>
        <time>2014-09-13T07:54:24Z</time>
      </trkpt>
      <trkpt lat="50.12997" lon="3.16534">
        <ele>87.62</ele>
        <time>2014-09-13T07:54:44Z</time>
      </trkpt>
      <trkpt lat="50.13031" lon="3.16598">
        <ele>87.62</ele>
        <time>2014-09-13T07:54:56Z</time>
      </trkpt>
      <trkpt lat="50.13088" lon="3.1669">
        <ele>87.62</ele>
        <time>2014-09-13T07:55:13Z</time>
      </trkpt>
      <trkpt lat="50.13162" lon="3.16782">
        <ele>87.14</ele>
        <time>2014-09-13T07:55:32Z</time>
      </trkpt>
      <trkpt lat="50.13239" lon="3.16861">
        <ele>87.14</ele>
        <time>2014-09-13T07:55:50Z</time>
      </trkpt>
      <trkpt lat="50.13304" lon="3.16949">
        <ele>87.14</ele>
        <time>2014-09-13T07:56:07Z</time>
      </trkpt>
      <trkpt lat="50.13337" lon="3.17009">
        <ele>85.69</ele>
        <time>2014-09-13T07:56:17Z</time>
      </trkpt>
      <trkpt lat="50.13344" lon="3.17022">
        <ele>85.69</ele>
        <time>2014-09-13T07:56:19Z</time>
      </trkpt>
      <trkpt lat="50.13347" lon="3.17028">
        <ele>85.69</ele>
        <time>2014-09-13T07:56:20Z</time>
      </trkpt>
      <trkpt lat="50.1335" lon="3.17035">
        <ele>85.69</ele>
        <time>2014-09-13T07:56:21Z</time>
      </trkpt>
      <trkpt lat="50.13364" lon="3.17058">
        <ele>85.21</ele>
        <time>2014-09-13T07:56:25Z</time>
      </trkpt>
      <trkpt lat="50.13405" lon="3.17114">
        <ele>84.25</ele>
        <time>2014-09-13T07:56:36Z</time>
      </trkpt>
      <trkpt lat="50.13415" lon="3.17131">
        <ele>83.77</ele>
        <time>2014-09-13T07:56:39Z</time>
      </trkpt>
      <trkpt lat="50.13427" lon="3.17158">
        <ele>83.29</ele>
        <time>2014-09-13T07:56:43Z</time>
      </trkpt>
      <trkpt lat="50.13429" lon="3.17166">
        <ele>82.81</ele>
        <time>2014-09-13T07:56:44Z</time>
      </trkpt>
      <trkpt lat="50.13433" lon="3.17181">
        <ele>82.33</ele>
        <time>2014-09-13T07:56:46Z</time>
      </trkpt>
      <trkpt lat="50.13436" lon="3.17201">
        <ele>81.85</ele>
        <time>2014-09-13T07:56:49Z</time>
      </trkpt>
      <trkpt lat="50.1344" lon="3.17203">
        <ele>81.85</ele>
        <time>2014-09-13T07:56:50Z</time>
      </trkpt>
      <trkpt lat="50.13444" lon="3.17202">
        <ele>81.37</ele>
        <time>2014-09-13T07:56:51Z</time>
      </trkpt>
      <trkpt lat="50.13447" lon="3.172">
        <ele>81.37</ele>
        <time>2014-09-13T07:56:52Z</time>
      </trkpt>
      <trkpt lat="50.13451" lon="3.17198">
        <ele>81.37</ele>
        <time>2014-09-13T07:56:53Z</time>
      </trkpt>
      <trkpt lat="50.13454" lon="3.17197">
        <ele>81.37</ele>
        <time>2014-09-13T07:56:54Z</time>
      </trkpt>
      <trkpt lat="50.13458" lon="3.17196">
        <ele>81.37</ele>
        <time>2014-09-13T07:56:55Z</time>
      </trkpt>
      <trkpt lat="50.13507" lon="3.17165">
        <ele>82.81</ele>
        <time>2014-09-13T07:57:08Z</time>
      </trkpt>
      <trkpt lat="50.13547" lon="3.17136">
        <ele>81.37</ele>
        <time>2014-09-13T07:57:22Z</time>
      </trkpt>
      <trkpt lat="50.13549" lon="3.17134">
        <ele>81.37</ele>
        <time>2014-09-13T07:57:23Z</time>
      </trkpt>
      <trkpt lat="50.13581" lon="3.17109">
        <ele>80.89</ele>
        <time>2014-09-13T07:57:33Z</time>
      </trkpt>
      <trkpt lat="50.13606" lon="3.17099">
        <ele>79.93</ele>
        <time>2014-09-13T07:57:38Z</time>
      </trkpt>
      <trkpt lat="50.13644" lon="3.17088">
        <ele>78.97</ele>
        <time>2014-09-13T07:57:45Z</time>
      </trkpt>
      <trkpt lat="50.13669" lon="3.17071">
        <ele>78</ele>
        <time>2014-09-13T07:57:50Z</time>
      </trkpt>
      <trkpt lat="50.1368" lon="3.17059">
        <ele>77.52</ele>
        <time>2014-09-13T07:57:52Z</time>
      </trkpt>
      <trkpt lat="50.13685" lon="3.17053">
        <ele>77.52</ele>
        <time>2014-09-13T07:57:53Z</time>
      </trkpt>
      <trkpt lat="50.1369" lon="3.17048">
        <ele>77.52</ele>
        <time>2014-09-13T07:57:54Z</time>
      </trkpt>
      <trkpt lat="50.13742" lon="3.16998">
        <ele>77.04</ele>
        <time>2014-09-13T07:58:07Z</time>
      </trkpt>
      <trkpt lat="50.13756" lon="3.16989">
        <ele>77.04</ele>
        <time>2014-09-13T07:58:11Z</time>
      </trkpt>
      <trkpt lat="50.13774" lon="3.16973">
        <ele>76.08</ele>
        <time>2014-09-13T07:58:16Z</time>
      </trkpt>
      <trkpt lat="50.13781" lon="3.16966">
        <ele>76.08</ele>
        <time>2014-09-13T07:58:18Z</time>
      </trkpt>
      <trkpt lat="50.13853" lon="3.16898">
        <ele>74.64</ele>
        <time>2014-09-13T07:58:38Z</time>
      </trkpt>
      <trkpt lat="50.13872" lon="3.1688">
        <ele>73.2</ele>
        <time>2014-09-13T07:58:43Z</time>
      </trkpt>
      <trkpt lat="50.13876" lon="3.16877">
        <ele>73.2</ele>
        <time>2014-09-13T07:58:44Z</time>
      </trkpt>
      <trkpt lat="50.13942" lon="3.16821">
        <ele>70.79</ele>
        <time>2014-09-13T07:59:01Z</time>
      </trkpt>
      <trkpt lat="50.13961" lon="3.16811">
        <ele>69.83</ele>
        <time>2014-09-13T07:59:05Z</time>
      </trkpt>
      <trkpt lat="50.13966" lon="3.16808">
        <ele>69.35</ele>
        <time>2014-09-13T07:59:06Z</time>
      </trkpt>
      <trkpt lat="50.14047" lon="3.16763">
        <ele>65.99</ele>
        <time>2014-09-13T07:59:22Z</time>
      </trkpt>
      <trkpt lat="50.14133" lon="3.16715">
        <ele>63.1</ele>
        <time>2014-09-13T07:59:41Z</time>
      </trkpt>
      <trkpt lat="50.14182" lon="3.16686">
        <ele>61.66</ele>
        <time>2014-09-13T07:59:54Z</time>
      </trkpt>
      <trkpt lat="50.14234" lon="3.16669">
        <ele>60.7</ele>
        <time>2014-09-13T08:00:08Z</time>
      </trkpt>
      <trkpt lat="50.14272" lon="3.1665">
        <ele>59.74</ele>
        <time>2014-09-13T08:00:18Z</time>
      </trkpt>
      <trkpt lat="50.1428" lon="3.16646">
        <ele>59.26</ele>
        <time>2014-09-13T08:00:20Z</time>
      </trkpt>
      <trkpt lat="50.14284" lon="3.16644">
        <ele>59.26</ele>
        <time>2014-09-13T08:00:21Z</time>
      </trkpt>
      <trkpt lat="50.14342" lon="3.16607">
        <ele>56.37</ele>
        <time>2014-09-13T08:00:37Z</time>
      </trkpt>
      <trkpt lat="50.14345" lon="3.16604">
        <ele>56.37</ele>
        <time>2014-09-13T08:00:38Z</time>
      </trkpt>
      <trkpt lat="50.14348" lon="3.16599">
        <ele>56.37</ele>
        <time>2014-09-13T08:00:39Z</time>
      </trkpt>
      <trkpt lat="50.14349" lon="3.16593">
        <ele>56.37</ele>
        <time>2014-09-13T08:00:40Z</time>
      </trkpt>
      <trkpt lat="50.14351" lon="3.16588">
        <ele>56.37</ele>
        <time>2014-09-13T08:00:41Z</time>
      </trkpt>
      <trkpt lat="50.14353" lon="3.16584">
        <ele>56.37</ele>
        <time>2014-09-13T08:00:42Z</time>
      </trkpt>
      <trkpt lat="50.14355" lon="3.16578">
        <ele>56.37</ele>
        <time>2014-09-13T08:00:43Z</time>
      </trkpt>
      <trkpt lat="50.14356" lon="3.16572">
        <ele>56.37</ele>
        <time>2014-09-13T08:00:44Z</time>
      </trkpt>
      <trkpt lat="50.14358" lon="3.16566">
        <ele>56.37</ele>
        <time>2014-09-13T08:00:45Z</time>
      </trkpt>
      <trkpt lat="50.14363" lon="3.16488">
        <ele>56.37</ele>
        <time>2014-09-13T08:00:58Z</time>
      </trkpt>
      <trkpt lat="50.14363" lon="3.16462">
        <ele>56.37</ele>
        <time>2014-09-13T08:01:02Z</time>
      </trkpt>
      <trkpt lat="50.14372" lon="3.16349">
        <ele>55.89</ele>
        <time>2014-09-13T08:01:20Z</time>
      </trkpt>
      <trkpt lat="50.14383" lon="3.16269">
        <ele>57.82</ele>
        <time>2014-09-13T08:01:34Z</time>
      </trkpt>
      <trkpt lat="50.14405" lon="3.16196">
        <ele>59.74</ele>
        <time>2014-09-13T08:01:50Z</time>
      </trkpt>
      <trkpt lat="50.14419" lon="3.16142">
        <ele>61.18</ele>
        <time>2014-09-13T08:02:02Z</time>
      </trkpt>
      <trkpt lat="50.14434" lon="3.1608">
        <ele>63.1</ele>
        <time>2014-09-13T08:02:15Z</time>
      </trkpt>
      <trkpt lat="50.14449" lon="3.16006">
        <ele>65.51</ele>
        <time>2014-09-13T08:02:30Z</time>
      </trkpt>
      <trkpt lat="50.14455" lon="3.15946">
        <ele>66.95</ele>
        <time>2014-09-13T08:02:43Z</time>
      </trkpt>
      <trkpt lat="50.14458" lon="3.15881">
        <ele>68.87</ele>
        <time>2014-09-13T08:02:57Z</time>
      </trkpt>
      <trkpt lat="50.1447" lon="3.15797">
        <ele>69.83</ele>
        <time>2014-09-13T08:03:14Z</time>
      </trkpt>
      <trkpt lat="50.14486" lon="3.15704">
        <ele>69.83</ele>
        <time>2014-09-13T08:03:31Z</time>
      </trkpt>
      <trkpt lat="50.14521" lon="3.15656">
        <ele>70.31</ele>
        <time>2014-09-13T08:03:44Z</time>
      </trkpt>
      <trkpt lat="50.14536" lon="3.15646">
        <ele>70.31</ele>
        <time>2014-09-13T08:03:48Z</time>
      </trkpt>
      <trkpt lat="50.14539" lon="3.15642">
        <ele>68.87</ele>
        <time>2014-09-13T08:03:49Z</time>
      </trkpt>
      <trkpt lat="50.14546" lon="3.15632">
        <ele>68.87</ele>
        <time>2014-09-13T08:03:51Z</time>
      </trkpt>
      <trkpt lat="50.14559" lon="3.15605">
        <ele>68.39</ele>
        <time>2014-09-13T08:03:56Z</time>
      </trkpt>
      <trkpt lat="50.14565" lon="3.15595">
        <ele>68.39</ele>
        <time>2014-09-13T08:03:58Z</time>
      </trkpt>
      <trkpt lat="50.14568" lon="3.1559">
        <ele>68.39</ele>
        <time>2014-09-13T08:03:59Z</time>
      </trkpt>
      <trkpt lat="50.1461" lon="3.15529">
        <ele>68.87</ele>
        <time>2014-09-13T08:04:12Z</time>
      </trkpt>
      <trkpt lat="50.14662" lon="3.15431">
        <ele>67.91</ele>
        <time>2014-09-13T08:04:29Z</time>
      </trkpt>
      <trkpt lat="50.14675" lon="3.15408">
        <ele>67.43</ele>
        <time>2014-09-13T08:04:33Z</time>
      </trkpt>
      <trkpt lat="50.1472" lon="3.15329">
        <ele>64.07</ele>
        <time>2014-09-13T08:04:45Z</time>
      </trkpt>
      <trkpt lat="50.14795" lon="3.15211">
        <ele>61.66</ele>
        <time>2014-09-13T08:05:02Z</time>
      </trkpt>
      <trkpt lat="50.14856" lon="3.15126">
        <ele>60.7</ele>
        <time>2014-09-13T08:05:16Z</time>
      </trkpt>
      <trkpt lat="50.14861" lon="3.1512">
        <ele>60.7</ele>
        <time>2014-09-13T08:05:17Z</time>
      </trkpt>
      <trkpt lat="50.14928" lon="3.15018">
        <ele>60.7</ele>
        <time>2014-09-13T08:05:34Z</time>
      </trkpt>
      <trkpt lat="50.1493" lon="3.15011">
        <ele>60.7</ele>
        <time>2014-09-13T08:05:35Z</time>
      </trkpt>
      <trkpt lat="50.14931" lon="3.15003">
        <ele>62.14</ele>
        <time>2014-09-13T08:05:36Z</time>
      </trkpt>
      <trkpt lat="50.14933" lon="3.14995">
        <ele>61.66</ele>
        <time>2014-09-13T08:05:37Z</time>
      </trkpt>
      <trkpt lat="50.14934" lon="3.14987">
        <ele>61.66</ele>
        <time>2014-09-13T08:05:38Z</time>
      </trkpt>
      <trkpt lat="50.14934" lon="3.14978">
        <ele>62.14</ele>
        <time>2014-09-13T08:05:39Z</time>
      </trkpt>
      <trkpt lat="50.14934" lon="3.1497">
        <ele>62.14</ele>
        <time>2014-09-13T08:05:40Z</time>
      </trkpt>
      <trkpt lat="50.14927" lon="3.14853">
        <ele>64.07</ele>
        <time>2014-09-13T08:05:55Z</time>
      </trkpt>
      <trkpt lat="50.1493" lon="3.1471">
        <ele>66.95</ele>
        <time>2014-09-13T08:06:14Z</time>
      </trkpt>
      <trkpt lat="50.14935" lon="3.14666">
        <ele>67.91</ele>
        <time>2014-09-13T08:06:20Z</time>
      </trkpt>
      <trkpt lat="50.14951" lon="3.1461">
        <ele>68.87</ele>
        <time>2014-09-13T08:06:29Z</time>
      </trkpt>
      <trkpt lat="50.14953" lon="3.14604">
        <ele>69.35</ele>
        <time>2014-09-13T08:06:30Z</time>
      </trkpt>
      <trkpt lat="50.14963" lon="3.14576">
        <ele>69.35</ele>
        <time>2014-09-13T08:06:35Z</time>
      </trkpt>
      <trkpt lat="50.14965" lon="3.14569">
        <ele>69.35</ele>
        <time>2014-09-13T08:06:36Z</time>
      </trkpt>
      <trkpt lat="50.14989" lon="3.14506">
        <ele>70.79</ele>
        <time>2014-09-13T08:06:44Z</time>
      </trkpt>
      <trkpt lat="50.14995" lon="3.14492">
        <ele>71.27</ele>
        <time>2014-09-13T08:06:46Z</time>
      </trkpt>
      <trkpt lat="50.15009" lon="3.14441">
        <ele>72.24</ele>
        <time>2014-09-13T08:06:54Z</time>
      </trkpt>
      <trkpt lat="50.15011" lon="3.14412">
        <ele>72.24</ele>
        <time>2014-09-13T08:06:58Z</time>
      </trkpt>
      <trkpt lat="50.15012" lon="3.14403">
        <ele>72.24</ele>
        <time>2014-09-13T08:06:59Z</time>
      </trkpt>
      <trkpt lat="50.15018" lon="3.14281">
        <ele>73.68</ele>
        <time>2014-09-13T08:07:13Z</time>
      </trkpt>
      <trkpt lat="50.15024" lon="3.14249">
        <ele>73.68</ele>
        <time>2014-09-13T08:07:17Z</time>
      </trkpt>
      <trkpt lat="50.15026" lon="3.14242">
        <ele>73.68</ele>
        <time>2014-09-13T08:07:18Z</time>
      </trkpt>
      <trkpt lat="50.15029" lon="3.14234">
        <ele>73.68</ele>
        <time>2014-09-13T08:07:19Z</time>
      </trkpt>
      <trkpt lat="50.15039" lon="3.14213">
        <ele>73.68</ele>
        <time>2014-09-13T08:07:22Z</time>
      </trkpt>
      <trkpt lat="50.15043" lon="3.14207">
        <ele>73.68</ele>
        <time>2014-09-13T08:07:23Z</time>
      </trkpt>
      <trkpt lat="50.15047" lon="3.14202">
        <ele>73.68</ele>
        <time>2014-09-13T08:07:24Z</time>
      </trkpt>
      <trkpt lat="50.15051" lon="3.14197">
        <ele>74.16</ele>
        <time>2014-09-13T08:07:25Z</time>
      </trkpt>
      <trkpt lat="50.15054" lon="3.14192">
        <ele>74.16</ele>
        <time>2014-09-13T08:07:26Z</time>
      </trkpt>
      <trkpt lat="50.15058" lon="3.14188">
        <ele>74.16</ele>
        <time>2014-09-13T08:07:27Z</time>
      </trkpt>
      <trkpt lat="50.15061" lon="3.14185">
        <ele>74.16</ele>
        <time>2014-09-13T08:07:28Z</time>
      </trkpt>
      <trkpt lat="50.15093" lon="3.14159">
        <ele>74.16</ele>
        <time>2014-09-13T08:07:38Z</time>
      </trkpt>
      <trkpt lat="50.15129" lon="3.14128">
        <ele>75.12</ele>
        <time>2014-09-13T08:07:51Z</time>
      </trkpt>
      <trkpt lat="50.15133" lon="3.14125">
        <ele>74.16</ele>
        <time>2014-09-13T08:07:52Z</time>
      </trkpt>
      <trkpt lat="50.15141" lon="3.14121">
        <ele>73.2</ele>
        <time>2014-09-13T08:07:54Z</time>
      </trkpt>
      <trkpt lat="50.15149" lon="3.14116">
        <ele>73.2</ele>
        <time>2014-09-13T08:08:02Z</time>
      </trkpt>
      <trkpt lat="50.1515" lon="3.14119">
        <ele>73.2</ele>
        <time>2014-09-13T08:08:10Z</time>
      </trkpt>
      <trkpt lat="50.15152" lon="3.14124">
        <ele>73.2</ele>
        <time>2014-09-13T08:08:21Z</time>
      </trkpt>
      <trkpt lat="50.15152" lon="3.14127">
        <ele>73.2</ele>
        <time>2014-09-13T08:08:59Z</time>
      </trkpt>
      <trkpt lat="50.15152" lon="3.14127">
        <ele>73.2</ele>
        <time>2014-09-13T08:09:43Z</time>
      </trkpt>
      <trkpt lat="50.1515" lon="3.14127">
        <ele>73.2</ele>
        <time>2014-09-13T08:10:18Z</time>
      </trkpt>
      <trkpt lat="50.15151" lon="3.14125">
        <ele>73.2</ele>
        <time>2014-09-13T08:11:01Z</time>
      </trkpt>
      <trkpt lat="50.15153" lon="3.14121">
        <ele>73.2</ele>
        <time>2014-09-13T08:11:45Z</time>
      </trkpt>
      <trkpt lat="50.15153" lon="3.14124">
        <ele>73.2</ele>
        <time>2014-09-13T08:12:17Z</time>
      </trkpt>
      <trkpt lat="50.15154" lon="3.14122">
        <ele>73.2</ele>
        <time>2014-09-13T08:12:36Z</time>
      </trkpt>
      <trkpt lat="50.15158" lon="3.14124">
        <ele>73.2</ele>
        <time>2014-09-13T08:12:57Z</time>
      </trkpt>
      <trkpt lat="50.1516" lon="3.14127">
        <ele>73.2</ele>
        <time>2014-09-13T08:12:58Z</time>
      </trkpt>
      <trkpt lat="50.15161" lon="3.1413">
        <ele>72.72</ele>
        <time>2014-09-13T08:12:59Z</time>
      </trkpt>
      <trkpt lat="50.15162" lon="3.14133">
        <ele>72.72</ele>
        <time>2014-09-13T08:13:00Z</time>
      </trkpt>
      <trkpt lat="50.15164" lon="3.14138">
        <ele>72.72</ele>
        <time>2014-09-13T08:13:01Z</time>
      </trkpt>
      <trkpt lat="50.15165" lon="3.14142">
        <ele>72.72</ele>
        <time>2014-09-13T08:13:02Z</time>
      </trkpt>
      <trkpt lat="50.15188" lon="3.14221">
        <ele>71.27</ele>
        <time>2014-09-13T08:13:17Z</time>
      </trkpt>
      <trkpt lat="50.15195" lon="3.14253">
        <ele>70.31</ele>
        <time>2014-09-13T08:13:22Z</time>
      </trkpt>
      <trkpt lat="50.15199" lon="3.14265">
        <ele>69.83</ele>
        <time>2014-09-13T08:13:24Z</time>
      </trkpt>
      <trkpt lat="50.15249" lon="3.14327">
        <ele>69.35</ele>
        <time>2014-09-13T08:13:40Z</time>
      </trkpt>
      <trkpt lat="50.15296" lon="3.14379">
        <ele>68.87</ele>
        <time>2014-09-13T08:13:54Z</time>
      </trkpt>
      <trkpt lat="50.15322" lon="3.14409">
        <ele>68.39</ele>
        <time>2014-09-13T08:14:02Z</time>
      </trkpt>
      <trkpt lat="50.15326" lon="3.14412">
        <ele>68.39</ele>
        <time>2014-09-13T08:14:03Z</time>
      </trkpt>
      <trkpt lat="50.15377" lon="3.14464">
        <ele>67.91</ele>
        <time>2014-09-13T08:14:18Z</time>
      </trkpt>
      <trkpt lat="50.15447" lon="3.14535">
        <ele>67.43</ele>
        <time>2014-09-13T08:14:39Z</time>
      </trkpt>
      <trkpt lat="50.15492" lon="3.14587">
        <ele>66.47</ele>
        <time>2014-09-13T08:14:53Z</time>
      </trkpt>
      <trkpt lat="50.15548" lon="3.14662">
        <ele>65.51</ele>
        <time>2014-09-13T08:15:10Z</time>
      </trkpt>
      <trkpt lat="50.15598" lon="3.14722">
        <ele>65.51</ele>
        <time>2014-09-13T08:15:25Z</time>
      </trkpt>
      <trkpt lat="50.15602" lon="3.14725">
        <ele>65.03</ele>
        <time>2014-09-13T08:15:26Z</time>
      </trkpt>
      <trkpt lat="50.15663" lon="3.14775">
        <ele>64.55</ele>
        <time>2014-09-13T08:15:42Z</time>
      </trkpt>
      <trkpt lat="50.15667" lon="3.14779">
        <ele>64.55</ele>
        <time>2014-09-13T08:15:43Z</time>
      </trkpt>
      <trkpt lat="50.15702" lon="3.14808">
        <ele>64.07</ele>
        <time>2014-09-13T08:15:52Z</time>
      </trkpt>
      <trkpt lat="50.15706" lon="3.14811">
        <ele>64.07</ele>
        <time>2014-09-13T08:15:53Z</time>
      </trkpt>
      <trkpt lat="50.15722" lon="3.14826">
        <ele>63.1</ele>
        <time>2014-09-13T08:15:57Z</time>
      </trkpt>
      <trkpt lat="50.15725" lon="3.14831">
        <ele>63.1</ele>
        <time>2014-09-13T08:15:58Z</time>
      </trkpt>
      <trkpt lat="50.1579" lon="3.14903">
        <ele>60.22</ele>
        <time>2014-09-13T08:16:14Z</time>
      </trkpt>
      <trkpt lat="50.15858" lon="3.14999">
        <ele>57.34</ele>
        <time>2014-09-13T08:16:31Z</time>
      </trkpt>
      <trkpt lat="50.15925" lon="3.15092">
        <ele>54.45</ele>
        <time>2014-09-13T08:16:48Z</time>
      </trkpt>
      <trkpt lat="50.1596" lon="3.15124">
        <ele>53.97</ele>
        <time>2014-09-13T08:16:56Z</time>
      </trkpt>
      <trkpt lat="50.15988" lon="3.15147">
        <ele>53.49</ele>
        <time>2014-09-13T08:17:02Z</time>
      </trkpt>
      <trkpt lat="50.16019" lon="3.15188">
        <ele>53.49</ele>
        <time>2014-09-13T08:17:10Z</time>
      </trkpt>
      <trkpt lat="50.1605" lon="3.15281">
        <ele>52.53</ele>
        <time>2014-09-13T08:17:23Z</time>
      </trkpt>
      <trkpt lat="50.16071" lon="3.15361">
        <ele>52.05</ele>
        <time>2014-09-13T08:17:34Z</time>
      </trkpt>
      <trkpt lat="50.16074" lon="3.15368">
        <ele>52.05</ele>
        <time>2014-09-13T08:17:35Z</time>
      </trkpt>
      <trkpt lat="50.16083" lon="3.15386">
        <ele>51.57</ele>
        <time>2014-09-13T08:17:38Z</time>
      </trkpt>
      <trkpt lat="50.16109" lon="3.15419">
        <ele>51.09</ele>
        <time>2014-09-13T08:17:45Z</time>
      </trkpt>
      <trkpt lat="50.16133" lon="3.15443">
        <ele>50.61</ele>
        <time>2014-09-13T08:17:51Z</time>
      </trkpt>
      <trkpt lat="50.16137" lon="3.15447">
        <ele>50.61</ele>
        <time>2014-09-13T08:17:52Z</time>
      </trkpt>
      <trkpt lat="50.16142" lon="3.1545">
        <ele>50.61</ele>
        <time>2014-09-13T08:17:53Z</time>
      </trkpt>
      <trkpt lat="50.16178" lon="3.15474">
        <ele>50.61</ele>
        <time>2014-09-13T08:18:01Z</time>
      </trkpt>
      <trkpt lat="50.16253" lon="3.15491">
        <ele>50.13</ele>
        <time>2014-09-13T08:18:17Z</time>
      </trkpt>
      <trkpt lat="50.16285" lon="3.15482">
        <ele>50.13</ele>
        <time>2014-09-13T08:18:24Z</time>
      </trkpt>
      <trkpt lat="50.16333" lon="3.15468">
        <ele>50.13</ele>
        <time>2014-09-13T08:18:35Z</time>
      </trkpt>
      <trkpt lat="50.16349" lon="3.15468">
        <ele>51.57</ele>
        <time>2014-09-13T08:18:39Z</time>
      </trkpt>
      <trkpt lat="50.16358" lon="3.15469">
        <ele>51.57</ele>
        <time>2014-09-13T08:18:41Z</time>
      </trkpt>
      <trkpt lat="50.16383" lon="3.15476">
        <ele>52.53</ele>
        <time>2014-09-13T08:18:47Z</time>
      </trkpt>
      <trkpt lat="50.16386" lon="3.15479">
        <ele>52.53</ele>
        <time>2014-09-13T08:18:48Z</time>
      </trkpt>
      <trkpt lat="50.16433" lon="3.15519">
        <ele>54.45</ele>
        <time>2014-09-13T08:19:02Z</time>
      </trkpt>
      <trkpt lat="50.16483" lon="3.15572">
        <ele>56.86</ele>
        <time>2014-09-13T08:19:18Z</time>
      </trkpt>
      <trkpt lat="50.16516" lon="3.15611">
        <ele>58.3</ele>
        <time>2014-09-13T08:19:31Z</time>
      </trkpt>
      <trkpt lat="50.16516" lon="3.15615">
        <ele>58.3</ele>
        <time>2014-09-13T08:19:32Z</time>
      </trkpt>
      <trkpt lat="50.16515" lon="3.15618">
        <ele>58.78</ele>
        <time>2014-09-13T08:19:33Z</time>
      </trkpt>
      <trkpt lat="50.16514" lon="3.1562">
        <ele>58.78</ele>
        <time>2014-09-13T08:19:34Z</time>
      </trkpt>
      <trkpt lat="50.16512" lon="3.15622">
        <ele>58.78</ele>
        <time>2014-09-13T08:19:35Z</time>
      </trkpt>
      <trkpt lat="50.16509" lon="3.15623">
        <ele>58.78</ele>
        <time>2014-09-13T08:19:36Z</time>
      </trkpt>
      <trkpt lat="50.16505" lon="3.15624">
        <ele>58.78</ele>
        <time>2014-09-13T08:19:37Z</time>
      </trkpt>
      <trkpt lat="50.16501" lon="3.15626">
        <ele>58.78</ele>
        <time>2014-09-13T08:19:38Z</time>
      </trkpt>
      <trkpt lat="50.16489" lon="3.1563">
        <ele>58.78</ele>
        <time>2014-09-13T08:19:42Z</time>
      </trkpt>
      <trkpt lat="50.16489" lon="3.15632">
        <ele>58.78</ele>
        <time>2014-09-13T08:19:43Z</time>
      </trkpt>
      <trkpt lat="50.1649" lon="3.15632">
        <ele>58.78</ele>
        <time>2014-09-13T08:19:44Z</time>
      </trkpt>
      <trkpt lat="50.16494" lon="3.15631">
        <ele>58.78</ele>
        <time>2014-09-13T08:19:45Z</time>
      </trkpt>
      <trkpt lat="50.16497" lon="3.15629">
        <ele>58.78</ele>
        <time>2014-09-13T08:19:46Z</time>
      </trkpt>
      <trkpt lat="50.16501" lon="3.15628">
        <ele>58.78</ele>
        <time>2014-09-13T08:19:47Z</time>
      </trkpt>
      <trkpt lat="50.16555" lon="3.15611">
        <ele>59.74</ele>
        <time>2014-09-13T08:20:01Z</time>
      </trkpt>
      <trkpt lat="50.16592" lon="3.15611">
        <ele>60.22</ele>
        <time>2014-09-13T08:20:10Z</time>
      </trkpt>
      <trkpt lat="50.16595" lon="3.15614">
        <ele>60.22</ele>
        <time>2014-09-13T08:20:11Z</time>
      </trkpt>
      <trkpt lat="50.16598" lon="3.15619">
        <ele>60.7</ele>
        <time>2014-09-13T08:20:12Z</time>
      </trkpt>
      <trkpt lat="50.16602" lon="3.15623">
        <ele>60.7</ele>
        <time>2014-09-13T08:20:13Z</time>
      </trkpt>
      <trkpt lat="50.16605" lon="3.15625">
        <ele>60.7</ele>
        <time>2014-09-13T08:20:14Z</time>
      </trkpt>
      <trkpt lat="50.16608" lon="3.15627">
        <ele>60.7</ele>
        <time>2014-09-13T08:20:15Z</time>
      </trkpt>
      <trkpt lat="50.16612" lon="3.15628">
        <ele>60.7</ele>
        <time>2014-09-13T08:20:16Z</time>
      </trkpt>
      <trkpt lat="50.16616" lon="3.15629">
        <ele>60.7</ele>
        <time>2014-09-13T08:20:17Z</time>
      </trkpt>
      <trkpt lat="50.16671" lon="3.15652">
        <ele>61.66</ele>
        <time>2014-09-13T08:20:32Z</time>
      </trkpt>
      <trkpt lat="50.16729" lon="3.15669">
        <ele>64.55</ele>
        <time>2014-09-13T08:20:48Z</time>
      </trkpt>
      <trkpt lat="50.16772" lon="3.15668">
        <ele>65.99</ele>
        <time>2014-09-13T08:20:59Z</time>
      </trkpt>
      <trkpt lat="50.16829" lon="3.15661">
        <ele>68.39</ele>
        <time>2014-09-13T08:21:15Z</time>
      </trkpt>
      <trkpt lat="50.16863" lon="3.15611">
        <ele>70.79</ele>
        <time>2014-09-13T08:21:30Z</time>
      </trkpt>
      <trkpt lat="50.16896" lon="3.15563">
        <ele>72.72</ele>
        <time>2014-09-13T08:21:45Z</time>
      </trkpt>
      <trkpt lat="50.16907" lon="3.1554">
        <ele>73.68</ele>
        <time>2014-09-13T08:21:52Z</time>
      </trkpt>
      <trkpt lat="50.16908" lon="3.15537">
        <ele>74.16</ele>
        <time>2014-09-13T08:21:53Z</time>
      </trkpt>
      <trkpt lat="50.16907" lon="3.15533">
        <ele>74.16</ele>
        <time>2014-09-13T08:21:54Z</time>
      </trkpt>
      <trkpt lat="50.16906" lon="3.1553">
        <ele>74.16</ele>
        <time>2014-09-13T08:21:55Z</time>
      </trkpt>
      <trkpt lat="50.16905" lon="3.15527">
        <ele>74.16</ele>
        <time>2014-09-13T08:21:56Z</time>
      </trkpt>
      <trkpt lat="50.16884" lon="3.15505">
        <ele>74.16</ele>
        <time>2014-09-13T08:22:05Z</time>
      </trkpt>
      <trkpt lat="50.16872" lon="3.15509">
        <ele>72.72</ele>
        <time>2014-09-13T08:22:08Z</time>
      </trkpt>
      <trkpt lat="50.16868" lon="3.1551">
        <ele>72.24</ele>
        <time>2014-09-13T08:22:09Z</time>
      </trkpt>
      <trkpt lat="50.16847" lon="3.15509">
        <ele>71.76</ele>
        <time>2014-09-13T08:22:15Z</time>
      </trkpt>
      <trkpt lat="50.16846" lon="3.15509">
        <ele>71.27</ele>
        <time>2014-09-13T08:22:25Z</time>
      </trkpt>
      <trkpt lat="50.16844" lon="3.15509">
        <ele>71.27</ele>
        <time>2014-09-13T08:22:39Z</time>
      </trkpt>
      <trkpt lat="50.16844" lon="3.15512">
        <ele>71.27</ele>
        <time>2014-09-13T08:22:40Z</time>
      </trkpt>
      <trkpt lat="50.16846" lon="3.15514">
        <ele>71.27</ele>
        <time>2014-09-13T08:22:41Z</time>
      </trkpt>
      <trkpt lat="50.16848" lon="3.15514">
        <ele>71.27</ele>
        <time>2014-09-13T08:22:42Z</time>
      </trkpt>
      <trkpt lat="50.16851" lon="3.15513">
        <ele>71.27</ele>
        <time>2014-09-13T08:22:43Z</time>
      </trkpt>
      <trkpt lat="50.16885" lon="3.15506">
        <ele>72.72</ele>
        <time>2014-09-13T08:22:55Z</time>
      </trkpt>
      <trkpt lat="50.16906" lon="3.15478">
        <ele>74.64</ele>
        <time>2014-09-13T08:23:06Z</time>
      </trkpt>
      <trkpt lat="50.1692" lon="3.15449">
        <ele>75.6</ele>
        <time>2014-09-13T08:23:15Z</time>
      </trkpt>
      <trkpt lat="50.16921" lon="3.15445">
        <ele>76.08</ele>
        <time>2014-09-13T08:23:16Z</time>
      </trkpt>
      <trkpt lat="50.16921" lon="3.1544">
        <ele>76.08</ele>
        <time>2014-09-13T08:23:17Z</time>
      </trkpt>
      <trkpt lat="50.16922" lon="3.15436">
        <ele>76.08</ele>
        <time>2014-09-13T08:23:18Z</time>
      </trkpt>
      <trkpt lat="50.16922" lon="3.1543">
        <ele>76.08</ele>
        <time>2014-09-13T08:23:19Z</time>
      </trkpt>
      <trkpt lat="50.16922" lon="3.15425">
        <ele>76.08</ele>
        <time>2014-09-13T08:23:20Z</time>
      </trkpt>
      <trkpt lat="50.16922" lon="3.1542">
        <ele>76.56</ele>
        <time>2014-09-13T08:23:21Z</time>
      </trkpt>
      <trkpt lat="50.16918" lon="3.15354">
        <ele>76.08</ele>
        <time>2014-09-13T08:23:35Z</time>
      </trkpt>
      <trkpt lat="50.16904" lon="3.15246">
        <ele>77.04</ele>
        <time>2014-09-13T08:23:52Z</time>
      </trkpt>
      <trkpt lat="50.169" lon="3.15192">
        <ele>77.04</ele>
        <time>2014-09-13T08:24:00Z</time>
      </trkpt>
      <trkpt lat="50.16903" lon="3.15186">
        <ele>77.04</ele>
        <time>2014-09-13T08:24:01Z</time>
      </trkpt>
      <trkpt lat="50.16908" lon="3.15183">
        <ele>77.04</ele>
        <time>2014-09-13T08:24:02Z</time>
      </trkpt>
      <trkpt lat="50.16911" lon="3.15183">
        <ele>77.04</ele>
        <time>2014-09-13T08:24:03Z</time>
      </trkpt>
      <trkpt lat="50.16915" lon="3.15183">
        <ele>77.52</ele>
        <time>2014-09-13T08:24:04Z</time>
      </trkpt>
      <trkpt lat="50.1692" lon="3.15184">
        <ele>77.52</ele>
        <time>2014-09-13T08:24:05Z</time>
      </trkpt>
      <trkpt lat="50.16924" lon="3.15186">
        <ele>77.52</ele>
        <time>2014-09-13T08:24:06Z</time>
      </trkpt>
      <trkpt lat="50.16965" lon="3.15218">
        <ele>78.48</ele>
        <time>2014-09-13T08:24:18Z</time>
      </trkpt>
      <trkpt lat="50.17024" lon="3.15264">
        <ele>79.93</ele>
        <time>2014-09-13T08:24:34Z</time>
      </trkpt>
      <trkpt lat="50.17082" lon="3.15258">
        <ele>80.89</ele>
        <time>2014-09-13T08:24:49Z</time>
      </trkpt>
      <trkpt lat="50.1713" lon="3.15217">
        <ele>82.33</ele>
        <time>2014-09-13T08:25:03Z</time>
      </trkpt>
      <trkpt lat="50.17132" lon="3.15212">
        <ele>82.33</ele>
        <time>2014-09-13T08:25:04Z</time>
      </trkpt>
      <trkpt lat="50.17135" lon="3.15206">
        <ele>82.33</ele>
        <time>2014-09-13T08:25:05Z</time>
      </trkpt>
      <trkpt lat="50.17149" lon="3.15134">
        <ele>84.73</ele>
        <time>2014-09-13T08:25:18Z</time>
      </trkpt>
      <trkpt lat="50.17159" lon="3.15075">
        <ele>85.69</ele>
        <time>2014-09-13T08:25:29Z</time>
      </trkpt>
      <trkpt lat="50.17185" lon="3.15005">
        <ele>86.66</ele>
        <time>2014-09-13T08:25:45Z</time>
      </trkpt>
      <trkpt lat="50.17232" lon="3.14969">
        <ele>87.14</ele>
        <time>2014-09-13T08:26:02Z</time>
      </trkpt>
      <trkpt lat="50.17298" lon="3.14945">
        <ele>86.18</ele>
        <time>2014-09-13T08:26:20Z</time>
      </trkpt>
      <trkpt lat="50.17336" lon="3.14934">
        <ele>85.69</ele>
        <time>2014-09-13T08:26:30Z</time>
      </trkpt>
      <trkpt lat="50.1738" lon="3.14902">
        <ele>85.21</ele>
        <time>2014-09-13T08:26:44Z</time>
      </trkpt>
      <trkpt lat="50.17427" lon="3.14843">
        <ele>85.21</ele>
        <time>2014-09-13T08:26:59Z</time>
      </trkpt>
      <trkpt lat="50.17437" lon="3.14833">
        <ele>85.21</ele>
        <time>2014-09-13T08:27:02Z</time>
      </trkpt>
      <trkpt lat="50.1744" lon="3.14829">
        <ele>85.21</ele>
        <time>2014-09-13T08:27:03Z</time>
      </trkpt>
      <trkpt lat="50.17444" lon="3.14826">
        <ele>85.21</ele>
        <time>2014-09-13T08:27:04Z</time>
      </trkpt>
      <trkpt lat="50.1747" lon="3.14808">
        <ele>84.73</ele>
        <time>2014-09-13T08:27:11Z</time>
      </trkpt>
      <trkpt lat="50.17474" lon="3.14806">
        <ele>84.73</ele>
        <time>2014-09-13T08:27:12Z</time>
      </trkpt>
      <trkpt lat="50.17481" lon="3.14803">
        <ele>84.73</ele>
        <time>2014-09-13T08:27:14Z</time>
      </trkpt>
      <trkpt lat="50.1754" lon="3.1478">
        <ele>84.25</ele>
        <time>2014-09-13T08:27:30Z</time>
      </trkpt>
      <trkpt lat="50.17601" lon="3.14749">
        <ele>84.25</ele>
        <time>2014-09-13T08:27:47Z</time>
      </trkpt>
      <trkpt lat="50.17658" lon="3.14723">
        <ele>85.69</ele>
        <time>2014-09-13T08:28:02Z</time>
      </trkpt>
      <trkpt lat="50.17711" lon="3.147">
        <ele>84.25</ele>
        <time>2014-09-13T08:28:16Z</time>
      </trkpt>
      <trkpt lat="50.17721" lon="3.14697">
        <ele>84.25</ele>
        <time>2014-09-13T08:28:18Z</time>
      </trkpt>
      <trkpt lat="50.17784" lon="3.14686">
        <ele>82.81</ele>
        <time>2014-09-13T08:28:33Z</time>
      </trkpt>
      <trkpt lat="50.17847" lon="3.14676">
        <ele>79.93</ele>
        <time>2014-09-13T08:28:46Z</time>
      </trkpt>
      <trkpt lat="50.17892" lon="3.14665">
        <ele>78.48</ele>
        <time>2014-09-13T08:28:56Z</time>
      </trkpt>
      <trkpt lat="50.17914" lon="3.14659">
        <ele>78</ele>
        <time>2014-09-13T08:29:01Z</time>
      </trkpt>
      <trkpt lat="50.17924" lon="3.14649">
        <ele>78</ele>
        <time>2014-09-13T08:29:04Z</time>
      </trkpt>
      <trkpt lat="50.17925" lon="3.14641">
        <ele>77.52</ele>
        <time>2014-09-13T08:29:05Z</time>
      </trkpt>
      <trkpt lat="50.17924" lon="3.14636">
        <ele>77.52</ele>
        <time>2014-09-13T08:29:06Z</time>
      </trkpt>
      <trkpt lat="50.17923" lon="3.14629">
        <ele>77.52</ele>
        <time>2014-09-13T08:29:07Z</time>
      </trkpt>
      <trkpt lat="50.17922" lon="3.14622">
        <ele>77.52</ele>
        <time>2014-09-13T08:29:08Z</time>
      </trkpt>
      <trkpt lat="50.17899" lon="3.14488">
        <ele>76.56</ele>
        <time>2014-09-13T08:29:26Z</time>
      </trkpt>
      <trkpt lat="50.17891" lon="3.14433">
        <ele>76.56</ele>
        <time>2014-09-13T08:29:34Z</time>
      </trkpt>
      <trkpt lat="50.17889" lon="3.14427">
        <ele>76.56</ele>
        <time>2014-09-13T08:29:35Z</time>
      </trkpt>
      <trkpt lat="50.17876" lon="3.14358">
        <ele>76.56</ele>
        <time>2014-09-13T08:29:48Z</time>
      </trkpt>
      <trkpt lat="50.17872" lon="3.14326">
        <ele>76.56</ele>
        <time>2014-09-13T08:29:53Z</time>
      </trkpt>
      <trkpt lat="50.17855" lon="3.14233">
        <ele>76.56</ele>
        <time>2014-09-13T08:30:09Z</time>
      </trkpt>
      <trkpt lat="50.17839" lon="3.14137">
        <ele>78</ele>
        <time>2014-09-13T08:30:26Z</time>
      </trkpt>
      <trkpt lat="50.17823" lon="3.14044">
        <ele>78.97</ele>
        <time>2014-09-13T08:30:43Z</time>
      </trkpt>
      <trkpt lat="50.17807" lon="3.13947">
        <ele>81.37</ele>
        <time>2014-09-13T08:31:02Z</time>
      </trkpt>
      <trkpt lat="50.17797" lon="3.13887">
        <ele>83.77</ele>
        <time>2014-09-13T08:31:17Z</time>
      </trkpt>
      <trkpt lat="50.17786" lon="3.1382">
        <ele>85.69</ele>
        <time>2014-09-13T08:31:35Z</time>
      </trkpt>
      <trkpt lat="50.17775" lon="3.13755">
        <ele>89.54</ele>
        <time>2014-09-13T08:31:44Z</time>
      </trkpt>
      <trkpt lat="50.17762" lon="3.13679">
        <ele>92.9</ele>
        <time>2014-09-13T08:31:52Z</time>
      </trkpt>
      <trkpt lat="50.1775" lon="3.13615">
        <ele>96.27</ele>
        <time>2014-09-13T08:32:00Z</time>
      </trkpt>
      <trkpt lat="50.17748" lon="3.13598">
        <ele>96.75</ele>
        <time>2014-09-13T08:32:03Z</time>
      </trkpt>
      <trkpt lat="50.17746" lon="3.13523">
        <ele>99.15</ele>
        <time>2014-09-13T08:32:17Z</time>
      </trkpt>
      <trkpt lat="50.17748" lon="3.1347">
        <ele>100.6</ele>
        <time>2014-09-13T08:32:30Z</time>
      </trkpt>
      <trkpt lat="50.17748" lon="3.13439">
        <ele>100.6</ele>
        <time>2014-09-13T08:32:42Z</time>
      </trkpt>
      <trkpt lat="50.17745" lon="3.13437">
        <ele>100.6</ele>
        <time>2014-09-13T08:33:10Z</time>
      </trkpt>
      <trkpt lat="50.17743" lon="3.13432">
        <ele>100.6</ele>
        <time>2014-09-13T08:33:31Z</time>
      </trkpt>
      <trkpt lat="50.17744" lon="3.1343">
        <ele>100.6</ele>
        <time>2014-09-13T08:33:32Z</time>
      </trkpt>
      <trkpt lat="50.17745" lon="3.13427">
        <ele>100.6</ele>
        <time>2014-09-13T08:33:33Z</time>
      </trkpt>
      <trkpt lat="50.17745" lon="3.13424">
        <ele>100.6</ele>
        <time>2014-09-13T08:33:34Z</time>
      </trkpt>
      <trkpt lat="50.17746" lon="3.13422">
        <ele>100.6</ele>
        <time>2014-09-13T08:33:35Z</time>
      </trkpt>
      <trkpt lat="50.17746" lon="3.13419">
        <ele>100.6</ele>
        <time>2014-09-13T08:33:36Z</time>
      </trkpt>
      <trkpt lat="50.17746" lon="3.13416">
        <ele>100.6</ele>
        <time>2014-09-13T08:33:37Z</time>
      </trkpt>
      <trkpt lat="50.17746" lon="3.13412">
        <ele>100.6</ele>
        <time>2014-09-13T08:33:38Z</time>
      </trkpt>
      <trkpt lat="50.17747" lon="3.13397">
        <ele>100.6</ele>
        <time>2014-09-13T08:33:49Z</time>
      </trkpt>
      <trkpt lat="50.17747" lon="3.13397">
        <ele>100.6</ele>
        <time>2014-09-13T08:34:11Z</time>
      </trkpt>
      <trkpt lat="50.17748" lon="3.13397">
        <ele>100.6</ele>
        <time>2014-09-13T08:34:32Z</time>
      </trkpt>
      <trkpt lat="50.1775" lon="3.13387">
        <ele>100.6</ele>
        <time>2014-09-13T08:34:45Z</time>
      </trkpt>
      <trkpt lat="50.17751" lon="3.13331">
        <ele>100.6</ele>
        <time>2014-09-13T08:34:57Z</time>
      </trkpt>
      <trkpt lat="50.17762" lon="3.13256">
        <ele>99.63</ele>
        <time>2014-09-13T08:35:12Z</time>
      </trkpt>
      <trkpt lat="50.17773" lon="3.13196">
        <ele>98.67</ele>
        <time>2014-09-13T08:35:25Z</time>
      </trkpt>
      <trkpt lat="50.17776" lon="3.1319">
        <ele>98.67</ele>
        <time>2014-09-13T08:35:28Z</time>
      </trkpt>
      <trkpt lat="50.17777" lon="3.13187">
        <ele>98.67</ele>
        <time>2014-09-13T08:35:29Z</time>
      </trkpt>
      <trkpt lat="50.17789" lon="3.13127">
        <ele>98.19</ele>
        <time>2014-09-13T08:35:40Z</time>
      </trkpt>
      <trkpt lat="50.17781" lon="3.13062">
        <ele>96.75</ele>
        <time>2014-09-13T08:35:50Z</time>
      </trkpt>
      <trkpt lat="50.17772" lon="3.13038">
        <ele>96.27</ele>
        <time>2014-09-13T08:35:56Z</time>
      </trkpt>
      <trkpt lat="50.17768" lon="3.13036">
        <ele>96.27</ele>
        <time>2014-09-13T08:35:57Z</time>
      </trkpt>
      <trkpt lat="50.17765" lon="3.13035">
        <ele>96.27</ele>
        <time>2014-09-13T08:35:58Z</time>
      </trkpt>
      <trkpt lat="50.17738" lon="3.13005">
        <ele>96.27</ele>
        <time>2014-09-13T08:36:09Z</time>
      </trkpt>
      <trkpt lat="50.17718" lon="3.12962">
        <ele>96.27</ele>
        <time>2014-09-13T08:36:20Z</time>
      </trkpt>
      <trkpt lat="50.17694" lon="3.12912">
        <ele>96.27</ele>
        <time>2014-09-13T08:36:31Z</time>
      </trkpt>
      <trkpt lat="50.17661" lon="3.12843">
        <ele>96.27</ele>
        <time>2014-09-13T08:36:44Z</time>
      </trkpt>
      <trkpt lat="50.17632" lon="3.12793">
        <ele>96.75</ele>
        <time>2014-09-13T08:36:55Z</time>
      </trkpt>
      <trkpt lat="50.17631" lon="3.12789">
        <ele>96.75</ele>
        <time>2014-09-13T08:36:56Z</time>
      </trkpt>
      <trkpt lat="50.17631" lon="3.12784">
        <ele>96.75</ele>
        <time>2014-09-13T08:36:57Z</time>
      </trkpt>
      <trkpt lat="50.17632" lon="3.12725">
        <ele>96.75</ele>
        <time>2014-09-13T08:37:10Z</time>
      </trkpt>
      <trkpt lat="50.17633" lon="3.12667">
        <ele>96.75</ele>
        <time>2014-09-13T08:37:21Z</time>
      </trkpt>
      <trkpt lat="50.17636" lon="3.1265">
        <ele>97.71</ele>
        <time>2014-09-13T08:37:24Z</time>
      </trkpt>
      <trkpt lat="50.17641" lon="3.12586">
        <ele>98.67</ele>
        <time>2014-09-13T08:37:35Z</time>
      </trkpt>
      <trkpt lat="50.17642" lon="3.12535">
        <ele>99.15</ele>
        <time>2014-09-13T08:37:44Z</time>
      </trkpt>
      <trkpt lat="50.17637" lon="3.12477">
        <ele>100.11</ele>
        <time>2014-09-13T08:37:54Z</time>
      </trkpt>
      <trkpt lat="50.17636" lon="3.12472">
        <ele>100.11</ele>
        <time>2014-09-13T08:37:55Z</time>
      </trkpt>
      <trkpt lat="50.17635" lon="3.12467">
        <ele>100.6</ele>
        <time>2014-09-13T08:37:56Z</time>
      </trkpt>
      <trkpt lat="50.17635" lon="3.12462">
        <ele>100.6</ele>
        <time>2014-09-13T08:37:57Z</time>
      </trkpt>
      <trkpt lat="50.17634" lon="3.12456">
        <ele>100.6</ele>
        <time>2014-09-13T08:37:58Z</time>
      </trkpt>
      <trkpt lat="50.17634" lon="3.12451">
        <ele>100.6</ele>
        <time>2014-09-13T08:37:59Z</time>
      </trkpt>
      <trkpt lat="50.17625" lon="3.12406">
        <ele>101.08</ele>
        <time>2014-09-13T08:38:08Z</time>
      </trkpt>
      <trkpt lat="50.17617" lon="3.12355">
        <ele>101.08</ele>
        <time>2014-09-13T08:38:18Z</time>
      </trkpt>
      <trkpt lat="50.17598" lon="3.12286">
        <ele>101.08</ele>
        <time>2014-09-13T08:38:30Z</time>
      </trkpt>
      <trkpt lat="50.17587" lon="3.12241">
        <ele>101.08</ele>
        <time>2014-09-13T08:38:40Z</time>
      </trkpt>
      <trkpt lat="50.17586" lon="3.12235">
        <ele>101.08</ele>
        <time>2014-09-13T08:38:41Z</time>
      </trkpt>
      <trkpt lat="50.17584" lon="3.1223">
        <ele>101.08</ele>
        <time>2014-09-13T08:38:42Z</time>
      </trkpt>
      <trkpt lat="50.17583" lon="3.12224">
        <ele>101.56</ele>
        <time>2014-09-13T08:38:43Z</time>
      </trkpt>
      <trkpt lat="50.17583" lon="3.12219">
        <ele>101.56</ele>
        <time>2014-09-13T08:38:44Z</time>
      </trkpt>
      <trkpt lat="50.17582" lon="3.12214">
        <ele>101.56</ele>
        <time>2014-09-13T08:38:45Z</time>
      </trkpt>
      <trkpt lat="50.17582" lon="3.12209">
        <ele>101.56</ele>
        <time>2014-09-13T08:38:46Z</time>
      </trkpt>
      <trkpt lat="50.17573" lon="3.1218">
        <ele>100.11</ele>
        <time>2014-09-13T08:38:50Z</time>
      </trkpt>
      <trkpt lat="50.17568" lon="3.12174">
        <ele>100.11</ele>
        <time>2014-09-13T08:38:51Z</time>
      </trkpt>
      <trkpt lat="50.17565" lon="3.1217">
        <ele>100.11</ele>
        <time>2014-09-13T08:38:52Z</time>
      </trkpt>
      <trkpt lat="50.17531" lon="3.12124">
        <ele>100.11</ele>
        <time>2014-09-13T08:39:04Z</time>
      </trkpt>
      <trkpt lat="50.17518" lon="3.12106">
        <ele>101.56</ele>
        <time>2014-09-13T08:39:08Z</time>
      </trkpt>
      <trkpt lat="50.17494" lon="3.12065">
        <ele>101.56</ele>
        <time>2014-09-13T08:39:17Z</time>
      </trkpt>
      <trkpt lat="50.17474" lon="3.12008">
        <ele>102.04</ele>
        <time>2014-09-13T08:39:29Z</time>
      </trkpt>
      <trkpt lat="50.17466" lon="3.11989">
        <ele>102.52</ele>
        <time>2014-09-13T08:39:35Z</time>
      </trkpt>
      <trkpt lat="50.17465" lon="3.11986">
        <ele>102.52</ele>
        <time>2014-09-13T08:39:36Z</time>
      </trkpt>
      <trkpt lat="50.17463" lon="3.11984">
        <ele>102.52</ele>
        <time>2014-09-13T08:39:37Z</time>
      </trkpt>
      <trkpt lat="50.17462" lon="3.1198">
        <ele>102.52</ele>
        <time>2014-09-13T08:39:38Z</time>
      </trkpt>
      <trkpt lat="50.17461" lon="3.11977">
        <ele>102.52</ele>
        <time>2014-09-13T08:39:39Z</time>
      </trkpt>
      <trkpt lat="50.1746" lon="3.11974">
        <ele>102.52</ele>
        <time>2014-09-13T08:39:40Z</time>
      </trkpt>
      <trkpt lat="50.17459" lon="3.11972">
        <ele>102.52</ele>
        <time>2014-09-13T08:39:41Z</time>
      </trkpt>
      <trkpt lat="50.17458" lon="3.11969">
        <ele>102.52</ele>
        <time>2014-09-13T08:39:42Z</time>
      </trkpt>
      <trkpt lat="50.17458" lon="3.11966">
        <ele>102.52</ele>
        <time>2014-09-13T08:39:43Z</time>
      </trkpt>
      <trkpt lat="50.17457" lon="3.11962">
        <ele>102.52</ele>
        <time>2014-09-13T08:39:44Z</time>
      </trkpt>
      <trkpt lat="50.17457" lon="3.11959">
        <ele>102.52</ele>
        <time>2014-09-13T08:39:45Z</time>
      </trkpt>
      <trkpt lat="50.17456" lon="3.11956">
        <ele>102.52</ele>
        <time>2014-09-13T08:39:46Z</time>
      </trkpt>
      <trkpt lat="50.17456" lon="3.11953">
        <ele>102.52</ele>
        <time>2014-09-13T08:39:47Z</time>
      </trkpt>
      <trkpt lat="50.17455" lon="3.11951">
        <ele>102.52</ele>
        <time>2014-09-13T08:39:48Z</time>
      </trkpt>
      <trkpt lat="50.17454" lon="3.11948">
        <ele>102.52</ele>
        <time>2014-09-13T08:39:49Z</time>
      </trkpt>
      <trkpt lat="50.17452" lon="3.11944">
        <ele>102.52</ele>
        <time>2014-09-13T08:39:51Z</time>
      </trkpt>
      <trkpt lat="50.17447" lon="3.11939">
        <ele>102.52</ele>
        <time>2014-09-13T08:40:01Z</time>
      </trkpt>
      <trkpt lat="50.17446" lon="3.11937">
        <ele>102.52</ele>
        <time>2014-09-13T08:40:06Z</time>
      </trkpt>
      <trkpt lat="50.17445" lon="3.11934">
        <ele>102.52</ele>
        <time>2014-09-13T08:40:07Z</time>
      </trkpt>
      <trkpt lat="50.17443" lon="3.11932">
        <ele>102.52</ele>
        <time>2014-09-13T08:40:08Z</time>
      </trkpt>
      <trkpt lat="50.17439" lon="3.11933">
        <ele>103</ele>
        <time>2014-09-13T08:40:10Z</time>
      </trkpt>
      <trkpt lat="50.17438" lon="3.11937">
        <ele>103</ele>
        <time>2014-09-13T08:40:11Z</time>
      </trkpt>
      <trkpt lat="50.17437" lon="3.1194">
        <ele>103.48</ele>
        <time>2014-09-13T08:40:12Z</time>
      </trkpt>
      <trkpt lat="50.17437" lon="3.11943">
        <ele>103.48</ele>
        <time>2014-09-13T08:40:13Z</time>
      </trkpt>
      <trkpt lat="50.1743" lon="3.11978">
        <ele>106.36</ele>
        <time>2014-09-13T08:40:22Z</time>
      </trkpt>
      <trkpt lat="50.17417" lon="3.11978">
        <ele>108.77</ele>
        <time>2014-09-13T08:40:32Z</time>
      </trkpt>
      <trkpt lat="50.174" lon="3.11986">
        <ele>110.69</ele>
        <time>2014-09-13T08:40:42Z</time>
      </trkpt>
      <trkpt lat="50.17398" lon="3.11988">
        <ele>110.69</ele>
        <time>2014-09-13T08:40:43Z</time>
      </trkpt>
      <trkpt lat="50.1739" lon="3.1199">
        <ele>111.17</ele>
        <time>2014-09-13T08:40:47Z</time>
      </trkpt>
      <trkpt lat="50.17383" lon="3.11992">
        <ele>111.65</ele>
        <time>2014-09-13T08:40:51Z</time>
      </trkpt>
      <trkpt lat="50.17365" lon="3.12003">
        <ele>113.09</ele>
        <time>2014-09-13T08:41:04Z</time>
      </trkpt>
      <trkpt lat="50.17364" lon="3.12004">
        <ele>113.09</ele>
        <time>2014-09-13T08:41:08Z</time>
      </trkpt>
      <trkpt lat="50.17355" lon="3.12011">
        <ele>113.09</ele>
        <time>2014-09-13T08:41:12Z</time>
      </trkpt>
      <trkpt lat="50.1733" lon="3.12035">
        <ele>115.5</ele>
        <time>2014-09-13T08:41:25Z</time>
      </trkpt>
      <trkpt lat="50.17314" lon="3.12051">
        <ele>116.94</ele>
        <time>2014-09-13T08:41:34Z</time>
      </trkpt>
      <trkpt lat="50.17308" lon="3.12058">
        <ele>117.9</ele>
        <time>2014-09-13T08:41:38Z</time>
      </trkpt>
      <trkpt lat="50.17299" lon="3.12067">
        <ele>118.38</ele>
        <time>2014-09-13T08:41:44Z</time>
      </trkpt>
      <trkpt lat="50.1729" lon="3.12075">
        <ele>119.34</ele>
        <time>2014-09-13T08:41:53Z</time>
      </trkpt>
      <trkpt lat="50.17284" lon="3.12079">
        <ele>119.34</ele>
        <time>2014-09-13T08:41:57Z</time>
      </trkpt>
      <trkpt lat="50.17281" lon="3.12084">
        <ele>119.82</ele>
        <time>2014-09-13T08:42:11Z</time>
      </trkpt>
      <trkpt lat="50.17277" lon="3.12081">
        <ele>120.3</ele>
        <time>2014-09-13T08:42:28Z</time>
      </trkpt>
      <trkpt lat="50.17275" lon="3.12082">
        <ele>120.3</ele>
        <time>2014-09-13T08:42:29Z</time>
      </trkpt>
      <trkpt lat="50.17265" lon="3.12087">
        <ele>120.78</ele>
        <time>2014-09-13T08:42:41Z</time>
      </trkpt>
      <trkpt lat="50.17261" lon="3.12086">
        <ele>121.26</ele>
        <time>2014-09-13T08:42:47Z</time>
      </trkpt>
      <trkpt lat="50.17239" lon="3.12095">
        <ele>121.26</ele>
        <time>2014-09-13T08:42:59Z</time>
      </trkpt>
      <trkpt lat="50.17223" lon="3.12088">
        <ele>118.38</ele>
        <time>2014-09-13T08:43:07Z</time>
      </trkpt>
      <trkpt lat="50.17207" lon="3.12081">
        <ele>117.42</ele>
        <time>2014-09-13T08:43:16Z</time>
      </trkpt>
      <trkpt lat="50.17193" lon="3.12081">
        <ele>117.42</ele>
        <time>2014-09-13T08:43:35Z</time>
      </trkpt>
      <trkpt lat="50.17194" lon="3.12079">
        <ele>117.9</ele>
        <time>2014-09-13T08:43:58Z</time>
      </trkpt>
      <trkpt lat="50.1721" lon="3.12065">
        <ele>117.9</ele>
        <time>2014-09-13T08:44:09Z</time>
      </trkpt>
      <trkpt lat="50.17236" lon="3.12026">
        <ele>117.9</ele>
        <time>2014-09-13T08:44:21Z</time>
      </trkpt>
      <trkpt lat="50.17243" lon="3.12025">
        <ele>117.9</ele>
        <time>2014-09-13T08:44:32Z</time>
      </trkpt>
      <trkpt lat="50.1725" lon="3.12019">
        <ele>117.9</ele>
        <time>2014-09-13T08:44:38Z</time>
      </trkpt>
      <trkpt lat="50.17253" lon="3.12011">
        <ele>117.42</ele>
        <time>2014-09-13T08:44:42Z</time>
      </trkpt>
      <trkpt lat="50.17243" lon="3.12003">
        <ele>115.5</ele>
        <time>2014-09-13T08:44:46Z</time>
      </trkpt>
      <trkpt lat="50.1723" lon="3.11995">
        <ele>112.61</ele>
        <time>2014-09-13T08:44:53Z</time>
      </trkpt>
      <trkpt lat="50.17229" lon="3.11992">
        <ele>111.65</ele>
        <time>2014-09-13T08:44:55Z</time>
      </trkpt>
      <trkpt lat="50.17233" lon="3.11977">
        <ele>109.73</ele>
        <time>2014-09-13T08:45:00Z</time>
      </trkpt>
      <trkpt lat="50.17238" lon="3.1197">
        <ele>109.73</ele>
        <time>2014-09-13T08:45:02Z</time>
      </trkpt>
      <trkpt lat="50.17248" lon="3.11947">
        <ele>107.81</ele>
        <time>2014-09-13T08:45:06Z</time>
      </trkpt>
      <trkpt lat="50.17255" lon="3.11915">
        <ele>104.44</ele>
        <time>2014-09-13T08:45:11Z</time>
      </trkpt>
      <trkpt lat="50.17257" lon="3.11907">
        <ele>103.96</ele>
        <time>2014-09-13T08:45:13Z</time>
      </trkpt>
      <trkpt lat="50.17247" lon="3.11901">
        <ele>103</ele>
        <time>2014-09-13T08:45:17Z</time>
      </trkpt>
      <trkpt lat="50.17232" lon="3.11887">
        <ele>103</ele>
        <time>2014-09-13T08:45:21Z</time>
      </trkpt>
      <trkpt lat="50.17225" lon="3.11883">
        <ele>103.96</ele>
        <time>2014-09-13T08:45:35Z</time>
      </trkpt>
      <trkpt lat="50.17225" lon="3.11883">
        <ele>103.96</ele>
        <time>2014-09-13T08:45:36Z</time>
      </trkpt>
      <trkpt lat="50.17247" lon="3.11902">
        <ele>102.52</ele>
        <time>2014-09-13T08:45:44Z</time>
      </trkpt>
      <trkpt lat="50.17261" lon="3.1189">
        <ele>103.48</ele>
        <time>2014-09-13T08:45:49Z</time>
      </trkpt>
      <trkpt lat="50.17272" lon="3.1187">
        <ele>103</ele>
        <time>2014-09-13T08:45:52Z</time>
      </trkpt>
      <trkpt lat="50.1728" lon="3.11844">
        <ele>104.44</ele>
        <time>2014-09-13T08:45:59Z</time>
      </trkpt>
      <trkpt lat="50.17281" lon="3.11835">
        <ele>104.44</ele>
        <time>2014-09-13T08:46:14Z</time>
      </trkpt>
      <trkpt lat="50.17308" lon="3.11801">
        <ele>102.04</ele>
        <time>2014-09-13T08:46:24Z</time>
      </trkpt>
      <trkpt lat="50.17319" lon="3.11796">
        <ele>101.08</ele>
        <time>2014-09-13T08:46:26Z</time>
      </trkpt>
      <trkpt lat="50.17328" lon="3.11791">
        <ele>100.6</ele>
        <time>2014-09-13T08:46:28Z</time>
      </trkpt>
      <trkpt lat="50.17333" lon="3.11792">
        <ele>100.6</ele>
        <time>2014-09-13T08:46:29Z</time>
      </trkpt>
      <trkpt lat="50.17337" lon="3.11794">
        <ele>100.6</ele>
        <time>2014-09-13T08:46:30Z</time>
      </trkpt>
      <trkpt lat="50.17349" lon="3.118">
        <ele>100.6</ele>
        <time>2014-09-13T08:46:33Z</time>
      </trkpt>
      <trkpt lat="50.17399" lon="3.1181">
        <ele>100.6</ele>
        <time>2014-09-13T08:46:44Z</time>
      </trkpt>
      <trkpt lat="50.17404" lon="3.11813">
        <ele>100.6</ele>
        <time>2014-09-13T08:46:45Z</time>
      </trkpt>
      <trkpt lat="50.17408" lon="3.11817">
        <ele>101.08</ele>
        <time>2014-09-13T08:46:46Z</time>
      </trkpt>
      <trkpt lat="50.1741" lon="3.11823">
        <ele>101.08</ele>
        <time>2014-09-13T08:46:47Z</time>
      </trkpt>
      <trkpt lat="50.17412" lon="3.11828">
        <ele>101.08</ele>
        <time>2014-09-13T08:46:48Z</time>
      </trkpt>
      <trkpt lat="50.17414" lon="3.11833">
        <ele>101.08</ele>
        <time>2014-09-13T08:46:49Z</time>
      </trkpt>
      <trkpt lat="50.17417" lon="3.11848">
        <ele>102.04</ele>
        <time>2014-09-13T08:46:52Z</time>
      </trkpt>
      <trkpt lat="50.1742" lon="3.11865">
        <ele>103</ele>
        <time>2014-09-13T08:46:55Z</time>
      </trkpt>
      <trkpt lat="50.17422" lon="3.11871">
        <ele>103</ele>
        <time>2014-09-13T08:46:56Z</time>
      </trkpt>
      <trkpt lat="50.17423" lon="3.11876">
        <ele>103.96</ele>
        <time>2014-09-13T08:46:57Z</time>
      </trkpt>
      <trkpt lat="50.17424" lon="3.11882">
        <ele>104.44</ele>
        <time>2014-09-13T08:46:58Z</time>
      </trkpt>
      <trkpt lat="50.17424" lon="3.11888">
        <ele>104.92</ele>
        <time>2014-09-13T08:46:59Z</time>
      </trkpt>
      <trkpt lat="50.17424" lon="3.11894">
        <ele>104.92</ele>
        <time>2014-09-13T08:47:00Z</time>
      </trkpt>
      <trkpt lat="50.17423" lon="3.11944">
        <ele>107.81</ele>
        <time>2014-09-13T08:47:09Z</time>
      </trkpt>
      <trkpt lat="50.17423" lon="3.11965">
        <ele>109.25</ele>
        <time>2014-09-13T08:47:13Z</time>
      </trkpt>
      <trkpt lat="50.17408" lon="3.11975">
        <ele>112.61</ele>
        <time>2014-09-13T08:47:20Z</time>
      </trkpt>
      <trkpt lat="50.17392" lon="3.11987">
        <ele>114.05</ele>
        <time>2014-09-13T08:47:29Z</time>
      </trkpt>
      <trkpt lat="50.17373" lon="3.12003">
        <ele>115.5</ele>
        <time>2014-09-13T08:47:41Z</time>
      </trkpt>
      <trkpt lat="50.1736" lon="3.12005">
        <ele>115.98</ele>
        <time>2014-09-13T08:47:52Z</time>
      </trkpt>
      <trkpt lat="50.17358" lon="3.12006">
        <ele>116.46</ele>
        <time>2014-09-13T08:48:11Z</time>
      </trkpt>
      <trkpt lat="50.17343" lon="3.12006">
        <ele>116.94</ele>
        <time>2014-09-13T08:48:29Z</time>
      </trkpt>
      <trkpt lat="50.17319" lon="3.12004">
        <ele>118.86</ele>
        <time>2014-09-13T08:48:40Z</time>
      </trkpt>
      <trkpt lat="50.17314" lon="3.12001">
        <ele>118.86</ele>
        <time>2014-09-13T08:48:43Z</time>
      </trkpt>
      <trkpt lat="50.17308" lon="3.11995">
        <ele>118.86</ele>
        <time>2014-09-13T08:48:46Z</time>
      </trkpt>
      <trkpt lat="50.17305" lon="3.11993">
        <ele>118.86</ele>
        <time>2014-09-13T08:48:48Z</time>
      </trkpt>
      <trkpt lat="50.17288" lon="3.11994">
        <ele>118.86</ele>
        <time>2014-09-13T08:49:00Z</time>
      </trkpt>
      <trkpt lat="50.17265" lon="3.12013">
        <ele>119.34</ele>
        <time>2014-09-13T08:49:14Z</time>
      </trkpt>
      <trkpt lat="50.17243" lon="3.12002">
        <ele>115.98</ele>
        <time>2014-09-13T08:49:22Z</time>
      </trkpt>
      <trkpt lat="50.1723" lon="3.11995">
        <ele>112.61</ele>
        <time>2014-09-13T08:49:26Z</time>
      </trkpt>
      <trkpt lat="50.17224" lon="3.11993">
        <ele>112.61</ele>
        <time>2014-09-13T08:49:34Z</time>
      </trkpt>
      <trkpt lat="50.17241" lon="3.11957">
        <ele>109.73</ele>
        <time>2014-09-13T08:49:43Z</time>
      </trkpt>
      <trkpt lat="50.17251" lon="3.11939">
        <ele>107.81</ele>
        <time>2014-09-13T08:49:46Z</time>
      </trkpt>
      <trkpt lat="50.17261" lon="3.11917">
        <ele>105.4</ele>
        <time>2014-09-13T08:49:49Z</time>
      </trkpt>
      <trkpt lat="50.17269" lon="3.1189">
        <ele>103.96</ele>
        <time>2014-09-13T08:49:52Z</time>
      </trkpt>
      <trkpt lat="50.17276" lon="3.11863">
        <ele>105.88</ele>
        <time>2014-09-13T08:49:56Z</time>
      </trkpt>
      <trkpt lat="50.17284" lon="3.11855">
        <ele>108.77</ele>
        <time>2014-09-13T08:50:00Z</time>
      </trkpt>
      <trkpt lat="50.17299" lon="3.11847">
        <ele>110.69</ele>
        <time>2014-09-13T08:50:07Z</time>
      </trkpt>
      <trkpt lat="50.17308" lon="3.11841">
        <ele>112.13</ele>
        <time>2014-09-13T08:50:19Z</time>
      </trkpt>
      <trkpt lat="50.17319" lon="3.11843">
        <ele>113.09</ele>
        <time>2014-09-13T08:50:31Z</time>
      </trkpt>
      <trkpt lat="50.1732" lon="3.11844">
        <ele>113.09</ele>
        <time>2014-09-13T08:50:32Z</time>
      </trkpt>
      <trkpt lat="50.17328" lon="3.11848">
        <ele>115.01</ele>
        <time>2014-09-13T08:50:36Z</time>
      </trkpt>
      <trkpt lat="50.17329" lon="3.11848">
        <ele>115.01</ele>
        <time>2014-09-13T08:50:37Z</time>
      </trkpt>
      <trkpt lat="50.17333" lon="3.11843">
        <ele>114.53</ele>
        <time>2014-09-13T08:50:54Z</time>
      </trkpt>
      <trkpt lat="50.17333" lon="3.11842">
        <ele>114.53</ele>
        <time>2014-09-13T08:51:04Z</time>
      </trkpt>
      <trkpt lat="50.17342" lon="3.11837">
        <ele>110.69</ele>
        <time>2014-09-13T08:51:08Z</time>
      </trkpt>
      <trkpt lat="50.17347" lon="3.11828">
        <ele>107.32</ele>
        <time>2014-09-13T08:51:10Z</time>
      </trkpt>
      <trkpt lat="50.17349" lon="3.1182">
        <ele>103.48</ele>
        <time>2014-09-13T08:51:11Z</time>
      </trkpt>
      <trkpt lat="50.17351" lon="3.11811">
        <ele>103.48</ele>
        <time>2014-09-13T08:51:12Z</time>
      </trkpt>
      <trkpt lat="50.17354" lon="3.11804">
        <ele>102.04</ele>
        <time>2014-09-13T08:51:13Z</time>
      </trkpt>
      <trkpt lat="50.17356" lon="3.11801">
        <ele>101.08</ele>
        <time>2014-09-13T08:51:14Z</time>
      </trkpt>
      <trkpt lat="50.17358" lon="3.11799">
        <ele>100.11</ele>
        <time>2014-09-13T08:51:15Z</time>
      </trkpt>
      <trkpt lat="50.17359" lon="3.11798">
        <ele>100.11</ele>
        <time>2014-09-13T08:51:16Z</time>
      </trkpt>
      <trkpt lat="50.1736" lon="3.11803">
        <ele>101.56</ele>
        <time>2014-09-13T08:51:28Z</time>
      </trkpt>
      <trkpt lat="50.17361" lon="3.11804">
        <ele>102.04</ele>
        <time>2014-09-13T08:51:45Z</time>
      </trkpt>
      <trkpt lat="50.1736" lon="3.11805">
        <ele>102.04</ele>
        <time>2014-09-13T08:52:07Z</time>
      </trkpt>
      <trkpt lat="50.17362" lon="3.118">
        <ele>102.04</ele>
        <time>2014-09-13T08:52:24Z</time>
      </trkpt>
      <trkpt lat="50.17365" lon="3.11801">
        <ele>102.04</ele>
        <time>2014-09-13T08:52:36Z</time>
      </trkpt>
      <trkpt lat="50.17392" lon="3.11807">
        <ele>102.04</ele>
        <time>2014-09-13T08:52:48Z</time>
      </trkpt>
      <trkpt lat="50.17405" lon="3.11808">
        <ele>102.04</ele>
        <time>2014-09-13T08:52:53Z</time>
      </trkpt>
      <trkpt lat="50.17407" lon="3.1181">
        <ele>102.04</ele>
        <time>2014-09-13T08:52:54Z</time>
      </trkpt>
      <trkpt lat="50.17409" lon="3.11813">
        <ele>102.04</ele>
        <time>2014-09-13T08:52:55Z</time>
      </trkpt>
      <trkpt lat="50.1741" lon="3.11817">
        <ele>102.04</ele>
        <time>2014-09-13T08:52:56Z</time>
      </trkpt>
      <trkpt lat="50.1741" lon="3.11821">
        <ele>102.04</ele>
        <time>2014-09-13T08:52:57Z</time>
      </trkpt>
      <trkpt lat="50.17411" lon="3.11824">
        <ele>102.04</ele>
        <time>2014-09-13T08:52:58Z</time>
      </trkpt>
      <trkpt lat="50.17411" lon="3.11827">
        <ele>102.52</ele>
        <time>2014-09-13T08:52:59Z</time>
      </trkpt>
      <trkpt lat="50.17411" lon="3.11829">
        <ele>102.52</ele>
        <time>2014-09-13T08:53:00Z</time>
      </trkpt>
      <trkpt lat="50.17411" lon="3.11832">
        <ele>102.52</ele>
        <time>2014-09-13T08:53:01Z</time>
      </trkpt>
      <trkpt lat="50.17412" lon="3.11836">
        <ele>103.48</ele>
        <time>2014-09-13T08:53:02Z</time>
      </trkpt>
      <trkpt lat="50.17412" lon="3.1184">
        <ele>103.48</ele>
        <time>2014-09-13T08:53:03Z</time>
      </trkpt>
      <trkpt lat="50.17417" lon="3.11883">
        <ele>105.88</ele>
        <time>2014-09-13T08:53:17Z</time>
      </trkpt>
      <trkpt lat="50.17432" lon="3.11925">
        <ele>107.32</ele>
        <time>2014-09-13T08:53:31Z</time>
      </trkpt>
      <trkpt lat="50.17451" lon="3.11972">
        <ele>107.32</ele>
        <time>2014-09-13T08:53:44Z</time>
      </trkpt>
      <trkpt lat="50.17474" lon="3.12019">
        <ele>107.32</ele>
        <time>2014-09-13T08:53:56Z</time>
      </trkpt>
      <trkpt lat="50.17481" lon="3.12051">
        <ele>106.36</ele>
        <time>2014-09-13T08:54:03Z</time>
      </trkpt>
      <trkpt lat="50.17504" lon="3.12105">
        <ele>105.88</ele>
        <time>2014-09-13T08:54:15Z</time>
      </trkpt>
      <trkpt lat="50.17554" lon="3.12168">
        <ele>105.4</ele>
        <time>2014-09-13T08:54:31Z</time>
      </trkpt>
      <trkpt lat="50.17551" lon="3.12206">
        <ele>105.4</ele>
        <time>2014-09-13T08:54:41Z</time>
      </trkpt>
      <trkpt lat="50.17566" lon="3.12259">
        <ele>104.92</ele>
        <time>2014-09-13T08:54:54Z</time>
      </trkpt>
      <trkpt lat="50.17578" lon="3.12323">
        <ele>104.92</ele>
        <time>2014-09-13T08:55:10Z</time>
      </trkpt>
      <trkpt lat="50.1759" lon="3.124">
        <ele>104.92</ele>
        <time>2014-09-13T08:55:28Z</time>
      </trkpt>
      <trkpt lat="50.17609" lon="3.12479">
        <ele>104.92</ele>
        <time>2014-09-13T08:55:41Z</time>
      </trkpt>
      <trkpt lat="50.17615" lon="3.12558">
        <ele>103.48</ele>
        <time>2014-09-13T08:55:54Z</time>
      </trkpt>
      <trkpt lat="50.17602" lon="3.12599">
        <ele>103</ele>
        <time>2014-09-13T08:56:01Z</time>
      </trkpt>
      <trkpt lat="50.17587" lon="3.12679">
        <ele>101.56</ele>
        <time>2014-09-13T08:56:15Z</time>
      </trkpt>
      <trkpt lat="50.17579" lon="3.12762">
        <ele>100.6</ele>
        <time>2014-09-13T08:56:29Z</time>
      </trkpt>
      <trkpt lat="50.17571" lon="3.12802">
        <ele>101.56</ele>
        <time>2014-09-13T08:56:38Z</time>
      </trkpt>
      <trkpt lat="50.17558" lon="3.12842">
        <ele>103</ele>
        <time>2014-09-13T08:56:49Z</time>
      </trkpt>
      <trkpt lat="50.17531" lon="3.12879">
        <ele>104.92</ele>
        <time>2014-09-13T08:57:01Z</time>
      </trkpt>
      <trkpt lat="50.17508" lon="3.12921">
        <ele>106.36</ele>
        <time>2014-09-13T08:57:17Z</time>
      </trkpt>
      <trkpt lat="50.17487" lon="3.1296">
        <ele>108.29</ele>
        <time>2014-09-13T08:57:31Z</time>
      </trkpt>
      <trkpt lat="50.17463" lon="3.13">
        <ele>110.21</ele>
        <time>2014-09-13T08:57:46Z</time>
      </trkpt>
      <trkpt lat="50.17434" lon="3.13043">
        <ele>112.13</ele>
        <time>2014-09-13T08:58:03Z</time>
      </trkpt>
      <trkpt lat="50.17399" lon="3.1308">
        <ele>113.57</ele>
        <time>2014-09-13T08:58:18Z</time>
      </trkpt>
      <trkpt lat="50.17373" lon="3.13116">
        <ele>113.57</ele>
        <time>2014-09-13T08:58:32Z</time>
      </trkpt>
      <trkpt lat="50.17334" lon="3.1316">
        <ele>113.57</ele>
        <time>2014-09-13T08:58:47Z</time>
      </trkpt>
      <trkpt lat="50.17323" lon="3.13173">
        <ele>112.61</ele>
        <time>2014-09-13T08:58:51Z</time>
      </trkpt>
      <trkpt lat="50.17293" lon="3.13214">
        <ele>111.65</ele>
        <time>2014-09-13T08:59:04Z</time>
      </trkpt>
      <trkpt lat="50.17252" lon="3.13258">
        <ele>109.73</ele>
        <time>2014-09-13T08:59:17Z</time>
      </trkpt>
      <trkpt lat="50.17209" lon="3.13306">
        <ele>108.77</ele>
        <time>2014-09-13T08:59:30Z</time>
      </trkpt>
      <trkpt lat="50.17168" lon="3.13355">
        <ele>110.21</ele>
        <time>2014-09-13T08:59:44Z</time>
      </trkpt>
      <trkpt lat="50.17138" lon="3.13398">
        <ele>111.65</ele>
        <time>2014-09-13T08:59:58Z</time>
      </trkpt>
      <trkpt lat="50.17112" lon="3.13442">
        <ele>114.53</ele>
        <time>2014-09-13T09:00:14Z</time>
      </trkpt>
      <trkpt lat="50.17071" lon="3.13489">
        <ele>115.98</ele>
        <time>2014-09-13T09:00:29Z</time>
      </trkpt>
      <trkpt lat="50.17031" lon="3.13534">
        <ele>116.46</ele>
        <time>2014-09-13T09:00:44Z</time>
      </trkpt>
      <trkpt lat="50.17021" lon="3.13552">
        <ele>115.01</ele>
        <time>2014-09-13T09:00:50Z</time>
      </trkpt>
      <trkpt lat="50.16984" lon="3.13604">
        <ele>114.05</ele>
        <time>2014-09-13T09:01:05Z</time>
      </trkpt>
      <trkpt lat="50.16954" lon="3.13657">
        <ele>112.61</ele>
        <time>2014-09-13T09:01:17Z</time>
      </trkpt>
      <trkpt lat="50.16934" lon="3.13728">
        <ele>111.17</ele>
        <time>2014-09-13T09:01:30Z</time>
      </trkpt>
      <trkpt lat="50.16916" lon="3.13799">
        <ele>107.81</ele>
        <time>2014-09-13T09:01:43Z</time>
      </trkpt>
      <trkpt lat="50.16914" lon="3.13817">
        <ele>106.84</ele>
        <time>2014-09-13T09:01:45Z</time>
      </trkpt>
      <trkpt lat="50.16915" lon="3.13837">
        <ele>106.36</ele>
        <time>2014-09-13T09:01:47Z</time>
      </trkpt>
      <trkpt lat="50.16916" lon="3.13883">
        <ele>103.96</ele>
        <time>2014-09-13T09:01:51Z</time>
      </trkpt>
      <trkpt lat="50.16917" lon="3.13942">
        <ele>102.04</ele>
        <time>2014-09-13T09:01:56Z</time>
      </trkpt>
      <trkpt lat="50.16922" lon="3.14016">
        <ele>100.6</ele>
        <time>2014-09-13T09:02:05Z</time>
      </trkpt>
      <trkpt lat="50.16923" lon="3.14023">
        <ele>100.6</ele>
        <time>2014-09-13T09:02:06Z</time>
      </trkpt>
      <trkpt lat="50.16923" lon="3.14101">
        <ele>97.23</ele>
        <time>2014-09-13T09:02:15Z</time>
      </trkpt>
      <trkpt lat="50.16909" lon="3.14192">
        <ele>93.87</ele>
        <time>2014-09-13T09:02:24Z</time>
      </trkpt>
      <trkpt lat="50.169" lon="3.14245">
        <ele>90.98</ele>
        <time>2014-09-13T09:02:29Z</time>
      </trkpt>
      <trkpt lat="50.16886" lon="3.14342">
        <ele>88.1</ele>
        <time>2014-09-13T09:02:37Z</time>
      </trkpt>
      <trkpt lat="50.16888" lon="3.14421">
        <ele>85.21</ele>
        <time>2014-09-13T09:02:43Z</time>
      </trkpt>
      <trkpt lat="50.16886" lon="3.14434">
        <ele>84.73</ele>
        <time>2014-09-13T09:02:44Z</time>
      </trkpt>
      <trkpt lat="50.16884" lon="3.14446">
        <ele>84.25</ele>
        <time>2014-09-13T09:02:45Z</time>
      </trkpt>
      <trkpt lat="50.16881" lon="3.14458">
        <ele>83.77</ele>
        <time>2014-09-13T09:02:46Z</time>
      </trkpt>
      <trkpt lat="50.16877" lon="3.14469">
        <ele>83.77</ele>
        <time>2014-09-13T09:02:47Z</time>
      </trkpt>
      <trkpt lat="50.16832" lon="3.14607">
        <ele>82.33</ele>
        <time>2014-09-13T09:03:01Z</time>
      </trkpt>
      <trkpt lat="50.16818" lon="3.14652">
        <ele>82.33</ele>
        <time>2014-09-13T09:03:07Z</time>
      </trkpt>
      <trkpt lat="50.16817" lon="3.14659">
        <ele>82.33</ele>
        <time>2014-09-13T09:03:08Z</time>
      </trkpt>
      <trkpt lat="50.16816" lon="3.14665">
        <ele>82.33</ele>
        <time>2014-09-13T09:03:09Z</time>
      </trkpt>
      <trkpt lat="50.16816" lon="3.14671">
        <ele>82.33</ele>
        <time>2014-09-13T09:03:10Z</time>
      </trkpt>
      <trkpt lat="50.16817" lon="3.14676">
        <ele>83.29</ele>
        <time>2014-09-13T09:03:11Z</time>
      </trkpt>
      <trkpt lat="50.16818" lon="3.1468">
        <ele>83.29</ele>
        <time>2014-09-13T09:03:12Z</time>
      </trkpt>
      <trkpt lat="50.16819" lon="3.14683">
        <ele>83.29</ele>
        <time>2014-09-13T09:03:13Z</time>
      </trkpt>
      <trkpt lat="50.16821" lon="3.14685">
        <ele>83.29</ele>
        <time>2014-09-13T09:03:14Z</time>
      </trkpt>
      <trkpt lat="50.16823" lon="3.14687">
        <ele>83.29</ele>
        <time>2014-09-13T09:03:15Z</time>
      </trkpt>
      <trkpt lat="50.16825" lon="3.14689">
        <ele>83.29</ele>
        <time>2014-09-13T09:03:16Z</time>
      </trkpt>
      <trkpt lat="50.16828" lon="3.14691">
        <ele>83.29</ele>
        <time>2014-09-13T09:03:17Z</time>
      </trkpt>
      <trkpt lat="50.16863" lon="3.14737">
        <ele>84.73</ele>
        <time>2014-09-13T09:03:30Z</time>
      </trkpt>
      <trkpt lat="50.16898" lon="3.14826">
        <ele>86.66</ele>
        <time>2014-09-13T09:03:47Z</time>
      </trkpt>
      <trkpt lat="50.16922" lon="3.14951">
        <ele>86.66</ele>
        <time>2014-09-13T09:04:06Z</time>
      </trkpt>
      <trkpt lat="50.16916" lon="3.15034">
        <ele>85.69</ele>
        <time>2014-09-13T09:04:18Z</time>
      </trkpt>
      <trkpt lat="50.16914" lon="3.1504">
        <ele>85.69</ele>
        <time>2014-09-13T09:04:19Z</time>
      </trkpt>
      <trkpt lat="50.169" lon="3.15154">
        <ele>85.21</ele>
        <time>2014-09-13T09:04:36Z</time>
      </trkpt>
      <trkpt lat="50.1691" lon="3.15274">
        <ele>84.73</ele>
        <time>2014-09-13T09:04:54Z</time>
      </trkpt>
      <trkpt lat="50.16935" lon="3.15407">
        <ele>83.77</ele>
        <time>2014-09-13T09:05:12Z</time>
      </trkpt>
      <trkpt lat="50.16965" lon="3.15502">
        <ele>83.77</ele>
        <time>2014-09-13T09:05:28Z</time>
      </trkpt>
      <trkpt lat="50.16963" lon="3.15507">
        <ele>83.77</ele>
        <time>2014-09-13T09:05:29Z</time>
      </trkpt>
      <trkpt lat="50.16961" lon="3.1551">
        <ele>83.77</ele>
        <time>2014-09-13T09:05:30Z</time>
      </trkpt>
      <trkpt lat="50.16958" lon="3.15512">
        <ele>83.77</ele>
        <time>2014-09-13T09:05:31Z</time>
      </trkpt>
      <trkpt lat="50.16952" lon="3.15515">
        <ele>83.77</ele>
        <time>2014-09-13T09:05:32Z</time>
      </trkpt>
      <trkpt lat="50.16946" lon="3.15518">
        <ele>83.77</ele>
        <time>2014-09-13T09:05:33Z</time>
      </trkpt>
      <trkpt lat="50.16916" lon="3.15539">
        <ele>82.33</ele>
        <time>2014-09-13T09:05:39Z</time>
      </trkpt>
      <trkpt lat="50.16911" lon="3.15544">
        <ele>81.85</ele>
        <time>2014-09-13T09:05:40Z</time>
      </trkpt>
      <trkpt lat="50.16906" lon="3.15551">
        <ele>81.85</ele>
        <time>2014-09-13T09:05:41Z</time>
      </trkpt>
      <trkpt lat="50.16878" lon="3.15589">
        <ele>79.93</ele>
        <time>2014-09-13T09:05:47Z</time>
      </trkpt>
      <trkpt lat="50.16872" lon="3.15596">
        <ele>79.45</ele>
        <time>2014-09-13T09:05:48Z</time>
      </trkpt>
      <trkpt lat="50.16867" lon="3.15604">
        <ele>79.45</ele>
        <time>2014-09-13T09:05:49Z</time>
      </trkpt>
      <trkpt lat="50.16861" lon="3.15611">
        <ele>78.48</ele>
        <time>2014-09-13T09:05:50Z</time>
      </trkpt>
      <trkpt lat="50.16855" lon="3.1562">
        <ele>78.48</ele>
        <time>2014-09-13T09:05:51Z</time>
      </trkpt>
      <trkpt lat="50.1685" lon="3.15628">
        <ele>78</ele>
        <time>2014-09-13T09:05:52Z</time>
      </trkpt>
      <trkpt lat="50.16845" lon="3.15636">
        <ele>78</ele>
        <time>2014-09-13T09:05:53Z</time>
      </trkpt>
      <trkpt lat="50.16829" lon="3.15657">
        <ele>76.56</ele>
        <time>2014-09-13T09:05:56Z</time>
      </trkpt>
      <trkpt lat="50.16823" lon="3.15663">
        <ele>76.08</ele>
        <time>2014-09-13T09:05:57Z</time>
      </trkpt>
      <trkpt lat="50.16817" lon="3.15665">
        <ele>76.08</ele>
        <time>2014-09-13T09:05:58Z</time>
      </trkpt>
      <trkpt lat="50.16811" lon="3.15665">
        <ele>76.08</ele>
        <time>2014-09-13T09:05:59Z</time>
      </trkpt>
      <trkpt lat="50.16804" lon="3.15666">
        <ele>76.08</ele>
        <time>2014-09-13T09:06:00Z</time>
      </trkpt>
      <trkpt lat="50.16797" lon="3.15667">
        <ele>75.6</ele>
        <time>2014-09-13T09:06:01Z</time>
      </trkpt>
      <trkpt lat="50.1679" lon="3.15666">
        <ele>75.12</ele>
        <time>2014-09-13T09:06:02Z</time>
      </trkpt>
      <trkpt lat="50.16782" lon="3.15667">
        <ele>74.64</ele>
        <time>2014-09-13T09:06:03Z</time>
      </trkpt>
      <trkpt lat="50.16775" lon="3.15668">
        <ele>74.64</ele>
        <time>2014-09-13T09:06:04Z</time>
      </trkpt>
      <trkpt lat="50.16768" lon="3.15668">
        <ele>74.64</ele>
        <time>2014-09-13T09:06:05Z</time>
      </trkpt>
      <trkpt lat="50.16761" lon="3.15668">
        <ele>74.16</ele>
        <time>2014-09-13T09:06:06Z</time>
      </trkpt>
      <trkpt lat="50.16753" lon="3.15669">
        <ele>74.16</ele>
        <time>2014-09-13T09:06:07Z</time>
      </trkpt>
      <trkpt lat="50.16719" lon="3.1567">
        <ele>72.24</ele>
        <time>2014-09-13T09:06:12Z</time>
      </trkpt>
      <trkpt lat="50.16712" lon="3.15677">
        <ele>71.76</ele>
        <time>2014-09-13T09:06:13Z</time>
      </trkpt>
      <trkpt lat="50.16707" lon="3.15686">
        <ele>71.27</ele>
        <time>2014-09-13T09:06:14Z</time>
      </trkpt>
      <trkpt lat="50.16703" lon="3.15696">
        <ele>71.27</ele>
        <time>2014-09-13T09:06:15Z</time>
      </trkpt>
      <trkpt lat="50.167" lon="3.15707">
        <ele>71.27</ele>
        <time>2014-09-13T09:06:16Z</time>
      </trkpt>
      <trkpt lat="50.167" lon="3.15718">
        <ele>71.27</ele>
        <time>2014-09-13T09:06:17Z</time>
      </trkpt>
      <trkpt lat="50.167" lon="3.1573">
        <ele>72.24</ele>
        <time>2014-09-13T09:06:18Z</time>
      </trkpt>
      <trkpt lat="50.16716" lon="3.15817">
        <ele>75.12</ele>
        <time>2014-09-13T09:06:28Z</time>
      </trkpt>
      <trkpt lat="50.16719" lon="3.15829">
        <ele>75.12</ele>
        <time>2014-09-13T09:06:30Z</time>
      </trkpt>
      <trkpt lat="50.16719" lon="3.15836">
        <ele>75.12</ele>
        <time>2014-09-13T09:06:31Z</time>
      </trkpt>
      <trkpt lat="50.16714" lon="3.15847">
        <ele>76.08</ele>
        <time>2014-09-13T09:06:33Z</time>
      </trkpt>
      <trkpt lat="50.16709" lon="3.15851">
        <ele>76.08</ele>
        <time>2014-09-13T09:06:34Z</time>
      </trkpt>
      <trkpt lat="50.16705" lon="3.15852">
        <ele>76.56</ele>
        <time>2014-09-13T09:06:35Z</time>
      </trkpt>
      <trkpt lat="50.16689" lon="3.15859">
        <ele>76.56</ele>
        <time>2014-09-13T09:06:38Z</time>
      </trkpt>
      <trkpt lat="50.16658" lon="3.15882">
        <ele>76.08</ele>
        <time>2014-09-13T09:06:45Z</time>
      </trkpt>
      <trkpt lat="50.16655" lon="3.15888">
        <ele>76.08</ele>
        <time>2014-09-13T09:06:46Z</time>
      </trkpt>
      <trkpt lat="50.16653" lon="3.15894">
        <ele>76.08</ele>
        <time>2014-09-13T09:06:47Z</time>
      </trkpt>
      <trkpt lat="50.16651" lon="3.15901">
        <ele>76.08</ele>
        <time>2014-09-13T09:06:48Z</time>
      </trkpt>
      <trkpt lat="50.16651" lon="3.15908">
        <ele>76.08</ele>
        <time>2014-09-13T09:06:49Z</time>
      </trkpt>
      <trkpt lat="50.16652" lon="3.15912">
        <ele>76.08</ele>
        <time>2014-09-13T09:06:50Z</time>
      </trkpt>
      <trkpt lat="50.16653" lon="3.15917">
        <ele>76.08</ele>
        <time>2014-09-13T09:06:51Z</time>
      </trkpt>
      <trkpt lat="50.16655" lon="3.15922">
        <ele>76.56</ele>
        <time>2014-09-13T09:06:52Z</time>
      </trkpt>
      <trkpt lat="50.16669" lon="3.15957">
        <ele>77.04</ele>
        <time>2014-09-13T09:06:59Z</time>
      </trkpt>
      <trkpt lat="50.1667" lon="3.15963">
        <ele>77.04</ele>
        <time>2014-09-13T09:07:00Z</time>
      </trkpt>
      <trkpt lat="50.16671" lon="3.15971">
        <ele>77.04</ele>
        <time>2014-09-13T09:07:01Z</time>
      </trkpt>
      <trkpt lat="50.16671" lon="3.15978">
        <ele>77.52</ele>
        <time>2014-09-13T09:07:02Z</time>
      </trkpt>
      <trkpt lat="50.16672" lon="3.15986">
        <ele>77.52</ele>
        <time>2014-09-13T09:07:03Z</time>
      </trkpt>
      <trkpt lat="50.16673" lon="3.15993">
        <ele>77.52</ele>
        <time>2014-09-13T09:07:04Z</time>
      </trkpt>
      <trkpt lat="50.16692" lon="3.16068">
        <ele>79.45</ele>
        <time>2014-09-13T09:07:15Z</time>
      </trkpt>
      <trkpt lat="50.167" lon="3.1613">
        <ele>80.41</ele>
        <time>2014-09-13T09:07:29Z</time>
      </trkpt>
      <trkpt lat="50.16681" lon="3.16162">
        <ele>80.41</ele>
        <time>2014-09-13T09:07:38Z</time>
      </trkpt>
      <trkpt lat="50.16673" lon="3.16184">
        <ele>78.97</ele>
        <time>2014-09-13T09:07:42Z</time>
      </trkpt>
      <trkpt lat="50.16644" lon="3.16261">
        <ele>76.08</ele>
        <time>2014-09-13T09:07:53Z</time>
      </trkpt>
      <trkpt lat="50.16641" lon="3.1627">
        <ele>75.12</ele>
        <time>2014-09-13T09:07:54Z</time>
      </trkpt>
      <trkpt lat="50.16639" lon="3.16279">
        <ele>75.6</ele>
        <time>2014-09-13T09:07:55Z</time>
      </trkpt>
      <trkpt lat="50.16637" lon="3.16288">
        <ele>74.64</ele>
        <time>2014-09-13T09:07:56Z</time>
      </trkpt>
      <trkpt lat="50.16633" lon="3.16309">
        <ele>74.16</ele>
        <time>2014-09-13T09:07:58Z</time>
      </trkpt>
      <trkpt lat="50.16631" lon="3.16318">
        <ele>73.68</ele>
        <time>2014-09-13T09:07:59Z</time>
      </trkpt>
      <trkpt lat="50.16628" lon="3.16328">
        <ele>74.16</ele>
        <time>2014-09-13T09:08:00Z</time>
      </trkpt>
      <trkpt lat="50.16594" lon="3.16415">
        <ele>70.31</ele>
        <time>2014-09-13T09:08:10Z</time>
      </trkpt>
      <trkpt lat="50.16562" lon="3.16512">
        <ele>66.47</ele>
        <time>2014-09-13T09:08:20Z</time>
      </trkpt>
      <trkpt lat="50.16531" lon="3.16608">
        <ele>63.58</ele>
        <time>2014-09-13T09:08:29Z</time>
      </trkpt>
      <trkpt lat="50.16486" lon="3.16734">
        <ele>60.22</ele>
        <time>2014-09-13T09:08:40Z</time>
      </trkpt>
      <trkpt lat="50.1643" lon="3.16889">
        <ele>57.82</ele>
        <time>2014-09-13T09:08:55Z</time>
      </trkpt>
      <trkpt lat="50.16382" lon="3.17014">
        <ele>55.89</ele>
        <time>2014-09-13T09:09:09Z</time>
      </trkpt>
      <trkpt lat="50.16332" lon="3.17121">
        <ele>54.45</ele>
        <time>2014-09-13T09:09:21Z</time>
      </trkpt>
      <trkpt lat="50.1629" lon="3.17242">
        <ele>54.45</ele>
        <time>2014-09-13T09:09:35Z</time>
      </trkpt>
      <trkpt lat="50.16246" lon="3.1737">
        <ele>54.45</ele>
        <time>2014-09-13T09:09:52Z</time>
      </trkpt>
      <trkpt lat="50.16226" lon="3.17409">
        <ele>53.97</ele>
        <time>2014-09-13T09:09:58Z</time>
      </trkpt>
      <trkpt lat="50.16222" lon="3.17414">
        <ele>53.97</ele>
        <time>2014-09-13T09:09:59Z</time>
      </trkpt>
      <trkpt lat="50.1621" lon="3.17428">
        <ele>53.97</ele>
        <time>2014-09-13T09:10:02Z</time>
      </trkpt>
      <trkpt lat="50.16188" lon="3.17442">
        <ele>53.97</ele>
        <time>2014-09-13T09:10:08Z</time>
      </trkpt>
      <trkpt lat="50.16184" lon="3.17439">
        <ele>53.97</ele>
        <time>2014-09-13T09:10:09Z</time>
      </trkpt>
      <trkpt lat="50.16182" lon="3.17433">
        <ele>53.97</ele>
        <time>2014-09-13T09:10:10Z</time>
      </trkpt>
      <trkpt lat="50.1618" lon="3.17427">
        <ele>53.97</ele>
        <time>2014-09-13T09:10:11Z</time>
      </trkpt>
      <trkpt lat="50.16178" lon="3.17422">
        <ele>53.97</ele>
        <time>2014-09-13T09:10:12Z</time>
      </trkpt>
      <trkpt lat="50.16175" lon="3.17418">
        <ele>53.97</ele>
        <time>2014-09-13T09:10:13Z</time>
      </trkpt>
      <trkpt lat="50.16172" lon="3.17416">
        <ele>53.97</ele>
        <time>2014-09-13T09:10:14Z</time>
      </trkpt>
      <trkpt lat="50.16168" lon="3.17414">
        <ele>55.41</ele>
        <time>2014-09-13T09:10:15Z</time>
      </trkpt>
      <trkpt lat="50.16165" lon="3.17412">
        <ele>55.41</ele>
        <time>2014-09-13T09:10:16Z</time>
      </trkpt>
      <trkpt lat="50.16107" lon="3.17388">
        <ele>55.89</ele>
        <time>2014-09-13T09:10:30Z</time>
      </trkpt>
      <trkpt lat="50.16094" lon="3.17383">
        <ele>55.89</ele>
        <time>2014-09-13T09:10:33Z</time>
      </trkpt>
      <trkpt lat="50.16069" lon="3.1737">
        <ele>55.89</ele>
        <time>2014-09-13T09:10:39Z</time>
      </trkpt>
      <trkpt lat="50.16066" lon="3.17368">
        <ele>55.89</ele>
        <time>2014-09-13T09:10:40Z</time>
      </trkpt>
      <trkpt lat="50.16034" lon="3.17347">
        <ele>56.37</ele>
        <time>2014-09-13T09:10:50Z</time>
      </trkpt>
      <trkpt lat="50.15981" lon="3.17318">
        <ele>56.86</ele>
        <time>2014-09-13T09:11:03Z</time>
      </trkpt>
      <trkpt lat="50.15933" lon="3.17295">
        <ele>58.78</ele>
        <time>2014-09-13T09:11:16Z</time>
      </trkpt>
      <trkpt lat="50.1589" lon="3.17268">
        <ele>61.18</ele>
        <time>2014-09-13T09:11:31Z</time>
      </trkpt>
      <trkpt lat="50.15844" lon="3.17241">
        <ele>62.14</ele>
        <time>2014-09-13T09:11:44Z</time>
      </trkpt>
      <trkpt lat="50.15808" lon="3.1721">
        <ele>60.22</ele>
        <time>2014-09-13T09:11:55Z</time>
      </trkpt>
      <trkpt lat="50.15767" lon="3.17171">
        <ele>59.26</ele>
        <time>2014-09-13T09:12:06Z</time>
      </trkpt>
      <trkpt lat="50.15731" lon="3.17135">
        <ele>59.26</ele>
        <time>2014-09-13T09:12:18Z</time>
      </trkpt>
      <trkpt lat="50.15694" lon="3.17101">
        <ele>58.78</ele>
        <time>2014-09-13T09:12:30Z</time>
      </trkpt>
      <trkpt lat="50.15661" lon="3.17071">
        <ele>58.3</ele>
        <time>2014-09-13T09:12:41Z</time>
      </trkpt>
      <trkpt lat="50.15612" lon="3.1703">
        <ele>57.82</ele>
        <time>2014-09-13T09:12:57Z</time>
      </trkpt>
      <trkpt lat="50.1557" lon="3.16989">
        <ele>57.34</ele>
        <time>2014-09-13T09:13:09Z</time>
      </trkpt>
      <trkpt lat="50.15516" lon="3.16928">
        <ele>57.34</ele>
        <time>2014-09-13T09:13:25Z</time>
      </trkpt>
      <trkpt lat="50.15489" lon="3.16903">
        <ele>57.34</ele>
        <time>2014-09-13T09:13:33Z</time>
      </trkpt>
      <trkpt lat="50.15484" lon="3.169">
        <ele>57.34</ele>
        <time>2014-09-13T09:13:34Z</time>
      </trkpt>
      <trkpt lat="50.1548" lon="3.16898">
        <ele>57.34</ele>
        <time>2014-09-13T09:13:35Z</time>
      </trkpt>
      <trkpt lat="50.15476" lon="3.16895">
        <ele>57.34</ele>
        <time>2014-09-13T09:13:36Z</time>
      </trkpt>
      <trkpt lat="50.15472" lon="3.16893">
        <ele>57.34</ele>
        <time>2014-09-13T09:13:37Z</time>
      </trkpt>
      <trkpt lat="50.15406" lon="3.16877">
        <ele>57.34</ele>
        <time>2014-09-13T09:13:53Z</time>
      </trkpt>
      <trkpt lat="50.15344" lon="3.16834">
        <ele>57.34</ele>
        <time>2014-09-13T09:14:10Z</time>
      </trkpt>
      <trkpt lat="50.15292" lon="3.16787">
        <ele>58.78</ele>
        <time>2014-09-13T09:14:25Z</time>
      </trkpt>
      <trkpt lat="50.15263" lon="3.16768">
        <ele>60.7</ele>
        <time>2014-09-13T09:14:37Z</time>
      </trkpt>
      <trkpt lat="50.1526" lon="3.16767">
        <ele>60.7</ele>
        <time>2014-09-13T09:14:39Z</time>
      </trkpt>
      <trkpt lat="50.15259" lon="3.16768">
        <ele>60.7</ele>
        <time>2014-09-13T09:14:40Z</time>
      </trkpt>
      <trkpt lat="50.15258" lon="3.16769">
        <ele>60.7</ele>
        <time>2014-09-13T09:14:41Z</time>
      </trkpt>
      <trkpt lat="50.15257" lon="3.1677">
        <ele>61.18</ele>
        <time>2014-09-13T09:14:53Z</time>
      </trkpt>
      <trkpt lat="50.15255" lon="3.16771">
        <ele>61.18</ele>
        <time>2014-09-13T09:14:59Z</time>
      </trkpt>
      <trkpt lat="50.1525" lon="3.16772">
        <ele>61.18</ele>
        <time>2014-09-13T09:15:01Z</time>
      </trkpt>
      <trkpt lat="50.15248" lon="3.16774">
        <ele>61.18</ele>
        <time>2014-09-13T09:15:02Z</time>
      </trkpt>
      <trkpt lat="50.15201" lon="3.16839">
        <ele>62.14</ele>
        <time>2014-09-13T09:15:19Z</time>
      </trkpt>
      <trkpt lat="50.15168" lon="3.16889">
        <ele>62.14</ele>
        <time>2014-09-13T09:15:30Z</time>
      </trkpt>
      <trkpt lat="50.15161" lon="3.16898">
        <ele>62.14</ele>
        <time>2014-09-13T09:15:32Z</time>
      </trkpt>
      <trkpt lat="50.15145" lon="3.16919">
        <ele>60.7</ele>
        <time>2014-09-13T09:15:36Z</time>
      </trkpt>
      <trkpt lat="50.15141" lon="3.16924">
        <ele>60.7</ele>
        <time>2014-09-13T09:15:37Z</time>
      </trkpt>
      <trkpt lat="50.15136" lon="3.16929">
        <ele>60.7</ele>
        <time>2014-09-13T09:15:38Z</time>
      </trkpt>
      <trkpt lat="50.15131" lon="3.16932">
        <ele>60.22</ele>
        <time>2014-09-13T09:15:39Z</time>
      </trkpt>
      <trkpt lat="50.15125" lon="3.16936">
        <ele>60.22</ele>
        <time>2014-09-13T09:15:40Z</time>
      </trkpt>
      <trkpt lat="50.1512" lon="3.16939">
        <ele>60.22</ele>
        <time>2014-09-13T09:15:41Z</time>
      </trkpt>
      <trkpt lat="50.1511" lon="3.16943">
        <ele>59.74</ele>
        <time>2014-09-13T09:15:43Z</time>
      </trkpt>
      <trkpt lat="50.15106" lon="3.16945">
        <ele>59.74</ele>
        <time>2014-09-13T09:15:44Z</time>
      </trkpt>
      <trkpt lat="50.15104" lon="3.16949">
        <ele>59.74</ele>
        <time>2014-09-13T09:15:45Z</time>
      </trkpt>
      <trkpt lat="50.15105" lon="3.16958">
        <ele>59.26</ele>
        <time>2014-09-13T09:15:47Z</time>
      </trkpt>
      <trkpt lat="50.15107" lon="3.16966">
        <ele>58.78</ele>
        <time>2014-09-13T09:15:48Z</time>
      </trkpt>
      <trkpt lat="50.15109" lon="3.16972">
        <ele>58.78</ele>
        <time>2014-09-13T09:15:49Z</time>
      </trkpt>
      <trkpt lat="50.15111" lon="3.16977">
        <ele>58.78</ele>
        <time>2014-09-13T09:15:50Z</time>
      </trkpt>
      <trkpt lat="50.15113" lon="3.16983">
        <ele>58.78</ele>
        <time>2014-09-13T09:15:51Z</time>
      </trkpt>
      <trkpt lat="50.15116" lon="3.16988">
        <ele>58.78</ele>
        <time>2014-09-13T09:15:52Z</time>
      </trkpt>
      <trkpt lat="50.15178" lon="3.17096">
        <ele>56.86</ele>
        <time>2014-09-13T09:16:11Z</time>
      </trkpt>
      <trkpt lat="50.15194" lon="3.17121">
        <ele>56.86</ele>
        <time>2014-09-13T09:16:16Z</time>
      </trkpt>
      <trkpt lat="50.15207" lon="3.1714">
        <ele>56.86</ele>
        <time>2014-09-13T09:16:20Z</time>
      </trkpt>
      <trkpt lat="50.15209" lon="3.17146">
        <ele>56.86</ele>
        <time>2014-09-13T09:16:21Z</time>
      </trkpt>
      <trkpt lat="50.15212" lon="3.17152">
        <ele>56.86</ele>
        <time>2014-09-13T09:16:22Z</time>
      </trkpt>
      <trkpt lat="50.15214" lon="3.17158">
        <ele>56.86</ele>
        <time>2014-09-13T09:16:23Z</time>
      </trkpt>
      <trkpt lat="50.15216" lon="3.17164">
        <ele>56.86</ele>
        <time>2014-09-13T09:16:24Z</time>
      </trkpt>
      <trkpt lat="50.15241" lon="3.17287">
        <ele>56.37</ele>
        <time>2014-09-13T09:16:41Z</time>
      </trkpt>
      <trkpt lat="50.15255" lon="3.17364">
        <ele>56.37</ele>
        <time>2014-09-13T09:16:52Z</time>
      </trkpt>
      <trkpt lat="50.15255" lon="3.17372">
        <ele>56.37</ele>
        <time>2014-09-13T09:16:53Z</time>
      </trkpt>
      <trkpt lat="50.15255" lon="3.17387">
        <ele>56.37</ele>
        <time>2014-09-13T09:16:55Z</time>
      </trkpt>
      <trkpt lat="50.15256" lon="3.17393">
        <ele>57.82</ele>
        <time>2014-09-13T09:16:56Z</time>
      </trkpt>
      <trkpt lat="50.15257" lon="3.174">
        <ele>57.82</ele>
        <time>2014-09-13T09:16:57Z</time>
      </trkpt>
      <trkpt lat="50.15279" lon="3.17507">
        <ele>57.82</ele>
        <time>2014-09-13T09:17:13Z</time>
      </trkpt>
      <trkpt lat="50.15285" lon="3.17537">
        <ele>57.82</ele>
        <time>2014-09-13T09:17:17Z</time>
      </trkpt>
      <trkpt lat="50.15288" lon="3.17552">
        <ele>57.82</ele>
        <time>2014-09-13T09:17:19Z</time>
      </trkpt>
      <trkpt lat="50.15291" lon="3.17559">
        <ele>57.82</ele>
        <time>2014-09-13T09:17:20Z</time>
      </trkpt>
      <trkpt lat="50.15309" lon="3.1761">
        <ele>56.37</ele>
        <time>2014-09-13T09:17:27Z</time>
      </trkpt>
      <trkpt lat="50.15326" lon="3.17701">
        <ele>55.41</ele>
        <time>2014-09-13T09:17:37Z</time>
      </trkpt>
      <trkpt lat="50.15359" lon="3.1784">
        <ele>54.93</ele>
        <time>2014-09-13T09:17:53Z</time>
      </trkpt>
      <trkpt lat="50.15403" lon="3.17944">
        <ele>53.97</ele>
        <time>2014-09-13T09:18:07Z</time>
      </trkpt>
      <trkpt lat="50.15407" lon="3.17951">
        <ele>53.97</ele>
        <time>2014-09-13T09:18:08Z</time>
      </trkpt>
      <trkpt lat="50.1541" lon="3.17959">
        <ele>53.97</ele>
        <time>2014-09-13T09:18:09Z</time>
      </trkpt>
      <trkpt lat="50.15413" lon="3.17968">
        <ele>53.97</ele>
        <time>2014-09-13T09:18:10Z</time>
      </trkpt>
      <trkpt lat="50.15415" lon="3.17977">
        <ele>53.97</ele>
        <time>2014-09-13T09:18:11Z</time>
      </trkpt>
      <trkpt lat="50.15417" lon="3.17987">
        <ele>53.97</ele>
        <time>2014-09-13T09:18:12Z</time>
      </trkpt>
      <trkpt lat="50.15419" lon="3.17996">
        <ele>53.49</ele>
        <time>2014-09-13T09:18:13Z</time>
      </trkpt>
      <trkpt lat="50.15428" lon="3.18074">
        <ele>53.49</ele>
        <time>2014-09-13T09:18:21Z</time>
      </trkpt>
      <trkpt lat="50.15426" lon="3.1822">
        <ele>53.01</ele>
        <time>2014-09-13T09:18:35Z</time>
      </trkpt>
      <trkpt lat="50.15431" lon="3.18301">
        <ele>53.49</ele>
        <time>2014-09-13T09:18:43Z</time>
      </trkpt>
      <trkpt lat="50.15436" lon="3.1835">
        <ele>54.93</ele>
        <time>2014-09-13T09:18:48Z</time>
      </trkpt>
      <trkpt lat="50.15447" lon="3.18452">
        <ele>57.82</ele>
        <time>2014-09-13T09:19:00Z</time>
      </trkpt>
      <trkpt lat="50.15447" lon="3.1846">
        <ele>57.82</ele>
        <time>2014-09-13T09:19:01Z</time>
      </trkpt>
      <trkpt lat="50.15448" lon="3.18467">
        <ele>58.3</ele>
        <time>2014-09-13T09:19:02Z</time>
      </trkpt>
      <trkpt lat="50.15444" lon="3.18515">
        <ele>58.3</ele>
        <time>2014-09-13T09:19:11Z</time>
      </trkpt>
      <trkpt lat="50.15446" lon="3.1852">
        <ele>58.3</ele>
        <time>2014-09-13T09:19:12Z</time>
      </trkpt>
      <trkpt lat="50.1545" lon="3.18525">
        <ele>56.37</ele>
        <time>2014-09-13T09:19:13Z</time>
      </trkpt>
      <trkpt lat="50.15454" lon="3.18528">
        <ele>55.89</ele>
        <time>2014-09-13T09:19:14Z</time>
      </trkpt>
      <trkpt lat="50.15459" lon="3.18531">
        <ele>55.41</ele>
        <time>2014-09-13T09:19:15Z</time>
      </trkpt>
      <trkpt lat="50.15529" lon="3.18553">
        <ele>54.93</ele>
        <time>2014-09-13T09:19:26Z</time>
      </trkpt>
      <trkpt lat="50.15573" lon="3.18559">
        <ele>53.97</ele>
        <time>2014-09-13T09:19:34Z</time>
      </trkpt>
      <trkpt lat="50.15656" lon="3.18584">
        <ele>53.97</ele>
        <time>2014-09-13T09:19:50Z</time>
      </trkpt>
      <trkpt lat="50.15681" lon="3.18591">
        <ele>53.97</ele>
        <time>2014-09-13T09:19:55Z</time>
      </trkpt>
      <trkpt lat="50.15757" lon="3.18615">
        <ele>53.97</ele>
        <time>2014-09-13T09:20:11Z</time>
      </trkpt>
      <trkpt lat="50.15808" lon="3.18636">
        <ele>53.49</ele>
        <time>2014-09-13T09:20:24Z</time>
      </trkpt>
      <trkpt lat="50.15873" lon="3.18659">
        <ele>53.49</ele>
        <time>2014-09-13T09:20:41Z</time>
      </trkpt>
      <trkpt lat="50.15908" lon="3.18671">
        <ele>53.97</ele>
        <time>2014-09-13T09:20:52Z</time>
      </trkpt>
      <trkpt lat="50.15909" lon="3.18676">
        <ele>53.97</ele>
        <time>2014-09-13T09:20:53Z</time>
      </trkpt>
      <trkpt lat="50.15917" lon="3.18692">
        <ele>56.86</ele>
        <time>2014-09-13T09:20:58Z</time>
      </trkpt>
      <trkpt lat="50.15922" lon="3.18696">
        <ele>56.86</ele>
        <time>2014-09-13T09:21:04Z</time>
      </trkpt>
      <trkpt lat="50.15925" lon="3.18699">
        <ele>54.45</ele>
        <time>2014-09-13T09:21:05Z</time>
      </trkpt>
      <trkpt lat="50.15929" lon="3.18704">
        <ele>53.97</ele>
        <time>2014-09-13T09:21:06Z</time>
      </trkpt>
      <trkpt lat="50.15931" lon="3.18708">
        <ele>53.97</ele>
        <time>2014-09-13T09:21:07Z</time>
      </trkpt>
      <trkpt lat="50.15933" lon="3.18711">
        <ele>53.97</ele>
        <time>2014-09-13T09:21:08Z</time>
      </trkpt>
      <trkpt lat="50.15934" lon="3.18714">
        <ele>53.97</ele>
        <time>2014-09-13T09:21:09Z</time>
      </trkpt>
      <trkpt lat="50.15938" lon="3.18722">
        <ele>54.93</ele>
        <time>2014-09-13T09:21:24Z</time>
      </trkpt>
      <trkpt lat="50.15949" lon="3.18718">
        <ele>54.93</ele>
        <time>2014-09-13T09:21:35Z</time>
      </trkpt>
      <trkpt lat="50.1595" lon="3.18716">
        <ele>54.93</ele>
        <time>2014-09-13T09:21:36Z</time>
      </trkpt>
      <trkpt lat="50.15958" lon="3.18708">
        <ele>54.93</ele>
        <time>2014-09-13T09:21:42Z</time>
      </trkpt>
      <trkpt lat="50.15961" lon="3.18708">
        <ele>54.93</ele>
        <time>2014-09-13T09:21:43Z</time>
      </trkpt>
      <trkpt lat="50.16005" lon="3.18723">
        <ele>55.41</ele>
        <time>2014-09-13T09:21:56Z</time>
      </trkpt>
      <trkpt lat="50.16075" lon="3.18745">
        <ele>55.41</ele>
        <time>2014-09-13T09:22:12Z</time>
      </trkpt>
      <trkpt lat="50.16172" lon="3.18776">
        <ele>54.45</ele>
        <time>2014-09-13T09:22:32Z</time>
      </trkpt>
      <trkpt lat="50.16265" lon="3.18823">
        <ele>54.45</ele>
        <time>2014-09-13T09:22:51Z</time>
      </trkpt>
      <trkpt lat="50.16338" lon="3.18892">
        <ele>54.93</ele>
        <time>2014-09-13T09:23:09Z</time>
      </trkpt>
      <trkpt lat="50.16418" lon="3.18995">
        <ele>54.93</ele>
        <time>2014-09-13T09:23:30Z</time>
      </trkpt>
      <trkpt lat="50.16427" lon="3.19012">
        <ele>54.93</ele>
        <time>2014-09-13T09:23:33Z</time>
      </trkpt>
      <trkpt lat="50.1643" lon="3.19017">
        <ele>54.93</ele>
        <time>2014-09-13T09:23:34Z</time>
      </trkpt>
      <trkpt lat="50.16458" lon="3.19086">
        <ele>54.93</ele>
        <time>2014-09-13T09:23:45Z</time>
      </trkpt>
      <trkpt lat="50.16497" lon="3.19198">
        <ele>54.93</ele>
        <time>2014-09-13T09:24:02Z</time>
      </trkpt>
      <trkpt lat="50.16533" lon="3.19333">
        <ele>55.41</ele>
        <time>2014-09-13T09:24:22Z</time>
      </trkpt>
      <trkpt lat="50.16558" lon="3.19467">
        <ele>54.93</ele>
        <time>2014-09-13T09:24:40Z</time>
      </trkpt>
      <trkpt lat="50.16577" lon="3.19522">
        <ele>54.93</ele>
        <time>2014-09-13T09:24:48Z</time>
      </trkpt>
      <trkpt lat="50.16589" lon="3.19581">
        <ele>54.45</ele>
        <time>2014-09-13T09:24:56Z</time>
      </trkpt>
      <trkpt lat="50.16616" lon="3.19707">
        <ele>53.01</ele>
        <time>2014-09-13T09:25:13Z</time>
      </trkpt>
      <trkpt lat="50.16637" lon="3.19778">
        <ele>53.49</ele>
        <time>2014-09-13T09:25:23Z</time>
      </trkpt>
      <trkpt lat="50.16667" lon="3.19905">
        <ele>53.01</ele>
        <time>2014-09-13T09:25:40Z</time>
      </trkpt>
      <trkpt lat="50.16702" lon="3.20042">
        <ele>52.53</ele>
        <time>2014-09-13T09:25:58Z</time>
      </trkpt>
      <trkpt lat="50.16716" lon="3.20104">
        <ele>52.53</ele>
        <time>2014-09-13T09:26:06Z</time>
      </trkpt>
      <trkpt lat="50.16718" lon="3.2011">
        <ele>52.53</ele>
        <time>2014-09-13T09:26:07Z</time>
      </trkpt>
      <trkpt lat="50.16727" lon="3.20153">
        <ele>52.53</ele>
        <time>2014-09-13T09:26:13Z</time>
      </trkpt>
      <trkpt lat="50.1673" lon="3.2016">
        <ele>52.53</ele>
        <time>2014-09-13T09:26:14Z</time>
      </trkpt>
      <trkpt lat="50.16732" lon="3.20167">
        <ele>52.53</ele>
        <time>2014-09-13T09:26:15Z</time>
      </trkpt>
      <trkpt lat="50.16762" lon="3.20296">
        <ele>52.53</ele>
        <time>2014-09-13T09:26:32Z</time>
      </trkpt>
      <trkpt lat="50.168" lon="3.20445">
        <ele>52.53</ele>
        <time>2014-09-13T09:26:52Z</time>
      </trkpt>
      <trkpt lat="50.16809" lon="3.20498">
        <ele>52.53</ele>
        <time>2014-09-13T09:26:59Z</time>
      </trkpt>
      <trkpt lat="50.16806" lon="3.20508">
        <ele>52.53</ele>
        <time>2014-09-13T09:27:01Z</time>
      </trkpt>
      <trkpt lat="50.168" lon="3.20513">
        <ele>52.53</ele>
        <time>2014-09-13T09:27:02Z</time>
      </trkpt>
      <trkpt lat="50.16797" lon="3.20517">
        <ele>52.53</ele>
        <time>2014-09-13T09:27:03Z</time>
      </trkpt>
      <trkpt lat="50.16793" lon="3.20522">
        <ele>52.53</ele>
        <time>2014-09-13T09:27:04Z</time>
      </trkpt>
      <trkpt lat="50.16765" lon="3.20557">
        <ele>52.53</ele>
        <time>2014-09-13T09:27:11Z</time>
      </trkpt>
      <trkpt lat="50.1676" lon="3.20561">
        <ele>52.53</ele>
        <time>2014-09-13T09:27:12Z</time>
      </trkpt>
      <trkpt lat="50.1675" lon="3.20568">
        <ele>52.53</ele>
        <time>2014-09-13T09:27:14Z</time>
      </trkpt>
      <trkpt lat="50.16704" lon="3.20599">
        <ele>52.53</ele>
        <time>2014-09-13T09:27:24Z</time>
      </trkpt>
      <trkpt lat="50.167" lon="3.20604">
        <ele>52.53</ele>
        <time>2014-09-13T09:27:25Z</time>
      </trkpt>
      <trkpt lat="50.16696" lon="3.20609">
        <ele>52.53</ele>
        <time>2014-09-13T09:27:26Z</time>
      </trkpt>
      <trkpt lat="50.16684" lon="3.20624">
        <ele>52.53</ele>
        <time>2014-09-13T09:27:29Z</time>
      </trkpt>
      <trkpt lat="50.16679" lon="3.20629">
        <ele>52.53</ele>
        <time>2014-09-13T09:27:30Z</time>
      </trkpt>
      <trkpt lat="50.16649" lon="3.20664">
        <ele>52.53</ele>
        <time>2014-09-13T09:27:37Z</time>
      </trkpt>
      <trkpt lat="50.16645" lon="3.20669">
        <ele>52.53</ele>
        <time>2014-09-13T09:27:38Z</time>
      </trkpt>
      <trkpt lat="50.16619" lon="3.2069">
        <ele>52.53</ele>
        <time>2014-09-13T09:27:44Z</time>
      </trkpt>
      <trkpt lat="50.16597" lon="3.20705">
        <ele>52.53</ele>
        <time>2014-09-13T09:27:49Z</time>
      </trkpt>
      <trkpt lat="50.16592" lon="3.20707">
        <ele>52.53</ele>
        <time>2014-09-13T09:27:50Z</time>
      </trkpt>
      <trkpt lat="50.16587" lon="3.2071">
        <ele>52.53</ele>
        <time>2014-09-13T09:27:51Z</time>
      </trkpt>
      <trkpt lat="50.16572" lon="3.20722">
        <ele>52.53</ele>
        <time>2014-09-13T09:27:54Z</time>
      </trkpt>
      <trkpt lat="50.16567" lon="3.20726">
        <ele>52.53</ele>
        <time>2014-09-13T09:27:55Z</time>
      </trkpt>
      <trkpt lat="50.16563" lon="3.2073">
        <ele>52.53</ele>
        <time>2014-09-13T09:27:56Z</time>
      </trkpt>
      <trkpt lat="50.16558" lon="3.20735">
        <ele>52.53</ele>
        <time>2014-09-13T09:27:57Z</time>
      </trkpt>
      <trkpt lat="50.16553" lon="3.20738">
        <ele>52.53</ele>
        <time>2014-09-13T09:27:58Z</time>
      </trkpt>
      <trkpt lat="50.16529" lon="3.20755">
        <ele>52.53</ele>
        <time>2014-09-13T09:28:03Z</time>
      </trkpt>
      <trkpt lat="50.16525" lon="3.2076">
        <ele>52.53</ele>
        <time>2014-09-13T09:28:04Z</time>
      </trkpt>
      <trkpt lat="50.1652" lon="3.20764">
        <ele>52.53</ele>
        <time>2014-09-13T09:28:05Z</time>
      </trkpt>
      <trkpt lat="50.16511" lon="3.20771">
        <ele>53.49</ele>
        <time>2014-09-13T09:28:07Z</time>
      </trkpt>
      <trkpt lat="50.16506" lon="3.20774">
        <ele>53.49</ele>
        <time>2014-09-13T09:28:08Z</time>
      </trkpt>
      <trkpt lat="50.165" lon="3.20777">
        <ele>53.49</ele>
        <time>2014-09-13T09:28:09Z</time>
      </trkpt>
      <trkpt lat="50.16473" lon="3.20798">
        <ele>53.49</ele>
        <time>2014-09-13T09:28:14Z</time>
      </trkpt>
      <trkpt lat="50.16469" lon="3.20804">
        <ele>53.49</ele>
        <time>2014-09-13T09:28:15Z</time>
      </trkpt>
      <trkpt lat="50.16466" lon="3.2081">
        <ele>53.97</ele>
        <time>2014-09-13T09:28:16Z</time>
      </trkpt>
      <trkpt lat="50.16463" lon="3.20816">
        <ele>53.97</ele>
        <time>2014-09-13T09:28:17Z</time>
      </trkpt>
      <trkpt lat="50.1646" lon="3.2082">
        <ele>53.97</ele>
        <time>2014-09-13T09:28:18Z</time>
      </trkpt>
      <trkpt lat="50.16457" lon="3.20826">
        <ele>53.97</ele>
        <time>2014-09-13T09:28:19Z</time>
      </trkpt>
      <trkpt lat="50.16455" lon="3.20831">
        <ele>53.97</ele>
        <time>2014-09-13T09:28:20Z</time>
      </trkpt>
      <trkpt lat="50.16431" lon="3.20876">
        <ele>53.97</ele>
        <time>2014-09-13T09:28:30Z</time>
      </trkpt>
      <trkpt lat="50.16416" lon="3.20891">
        <ele>53.97</ele>
        <time>2014-09-13T09:28:34Z</time>
      </trkpt>
      <trkpt lat="50.16394" lon="3.2091">
        <ele>53.97</ele>
        <time>2014-09-13T09:28:40Z</time>
      </trkpt>
      <trkpt lat="50.1639" lon="3.20912">
        <ele>53.97</ele>
        <time>2014-09-13T09:28:41Z</time>
      </trkpt>
      <trkpt lat="50.16386" lon="3.20915">
        <ele>53.97</ele>
        <time>2014-09-13T09:28:42Z</time>
      </trkpt>
      <trkpt lat="50.16382" lon="3.20917">
        <ele>53.97</ele>
        <time>2014-09-13T09:28:43Z</time>
      </trkpt>
      <trkpt lat="50.16378" lon="3.2092">
        <ele>53.97</ele>
        <time>2014-09-13T09:28:44Z</time>
      </trkpt>
      <trkpt lat="50.16362" lon="3.2093">
        <ele>53.97</ele>
        <time>2014-09-13T09:28:48Z</time>
      </trkpt>
      <trkpt lat="50.16358" lon="3.20929">
        <ele>53.97</ele>
        <time>2014-09-13T09:28:49Z</time>
      </trkpt>
      <trkpt lat="50.16355" lon="3.20925">
        <ele>53.97</ele>
        <time>2014-09-13T09:28:50Z</time>
      </trkpt>
      <trkpt lat="50.16353" lon="3.20917">
        <ele>53.97</ele>
        <time>2014-09-13T09:28:51Z</time>
      </trkpt>
      <trkpt lat="50.16352" lon="3.20912">
        <ele>53.97</ele>
        <time>2014-09-13T09:28:52Z</time>
      </trkpt>
      <trkpt lat="50.16328" lon="3.20787">
        <ele>54.45</ele>
        <time>2014-09-13T09:29:10Z</time>
      </trkpt>
      <trkpt lat="50.16315" lon="3.2071">
        <ele>54.45</ele>
        <time>2014-09-13T09:29:21Z</time>
      </trkpt>
      <trkpt lat="50.16312" lon="3.20704">
        <ele>54.45</ele>
        <time>2014-09-13T09:29:22Z</time>
      </trkpt>
      <trkpt lat="50.16308" lon="3.20699">
        <ele>54.93</ele>
        <time>2014-09-13T09:29:23Z</time>
      </trkpt>
      <trkpt lat="50.16304" lon="3.20695">
        <ele>54.45</ele>
        <time>2014-09-13T09:29:24Z</time>
      </trkpt>
      <trkpt lat="50.163" lon="3.20691">
        <ele>54.93</ele>
        <time>2014-09-13T09:29:25Z</time>
      </trkpt>
      <trkpt lat="50.16248" lon="3.20642">
        <ele>56.86</ele>
        <time>2014-09-13T09:29:39Z</time>
      </trkpt>
      <trkpt lat="50.16214" lon="3.20588">
        <ele>57.82</ele>
        <time>2014-09-13T09:29:53Z</time>
      </trkpt>
      <trkpt lat="50.16228" lon="3.20555">
        <ele>57.82</ele>
        <time>2014-09-13T09:30:03Z</time>
      </trkpt>
      <trkpt lat="50.16254" lon="3.20503">
        <ele>57.82</ele>
        <time>2014-09-13T09:30:15Z</time>
      </trkpt>
      <trkpt lat="50.16272" lon="3.20468">
        <ele>57.82</ele>
        <time>2014-09-13T09:30:25Z</time>
      </trkpt>
      <trkpt lat="50.16282" lon="3.20439">
        <ele>57.82</ele>
        <time>2014-09-13T09:30:31Z</time>
      </trkpt>
      <trkpt lat="50.16281" lon="3.20434">
        <ele>57.82</ele>
        <time>2014-09-13T09:30:32Z</time>
      </trkpt>
      <trkpt lat="50.16279" lon="3.2043">
        <ele>57.82</ele>
        <time>2014-09-13T09:30:33Z</time>
      </trkpt>
      <trkpt lat="50.16276" lon="3.20427">
        <ele>57.82</ele>
        <time>2014-09-13T09:30:34Z</time>
      </trkpt>
      <trkpt lat="50.16273" lon="3.20424">
        <ele>57.82</ele>
        <time>2014-09-13T09:30:35Z</time>
      </trkpt>
      <trkpt lat="50.16226" lon="3.20366">
        <ele>58.3</ele>
        <time>2014-09-13T09:30:51Z</time>
      </trkpt>
      <trkpt lat="50.16223" lon="3.20358">
        <ele>58.3</ele>
        <time>2014-09-13T09:30:53Z</time>
      </trkpt>
      <trkpt lat="50.1622" lon="3.20356">
        <ele>58.3</ele>
        <time>2014-09-13T09:30:54Z</time>
      </trkpt>
      <trkpt lat="50.16217" lon="3.20354">
        <ele>58.3</ele>
        <time>2014-09-13T09:30:55Z</time>
      </trkpt>
      <trkpt lat="50.16214" lon="3.20352">
        <ele>58.3</ele>
        <time>2014-09-13T09:30:56Z</time>
      </trkpt>
      <trkpt lat="50.16211" lon="3.20349">
        <ele>58.3</ele>
        <time>2014-09-13T09:30:57Z</time>
      </trkpt>
      <trkpt lat="50.16185" lon="3.20316">
        <ele>59.26</ele>
        <time>2014-09-13T09:31:09Z</time>
      </trkpt>
      <trkpt lat="50.16183" lon="3.20315">
        <ele>59.26</ele>
        <time>2014-09-13T09:31:10Z</time>
      </trkpt>
      <trkpt lat="50.16182" lon="3.20316">
        <ele>59.26</ele>
        <time>2014-09-13T09:31:11Z</time>
      </trkpt>
      <trkpt lat="50.16181" lon="3.20322">
        <ele>59.74</ele>
        <time>2014-09-13T09:31:19Z</time>
      </trkpt>
      <trkpt lat="50.16182" lon="3.20325">
        <ele>60.7</ele>
        <time>2014-09-13T09:31:30Z</time>
      </trkpt>
      <trkpt lat="50.16182" lon="3.20326">
        <ele>59.26</ele>
        <time>2014-09-13T09:31:54Z</time>
      </trkpt>
      <trkpt lat="50.16179" lon="3.20326">
        <ele>60.22</ele>
        <time>2014-09-13T09:32:11Z</time>
      </trkpt>
      <trkpt lat="50.16178" lon="3.20331">
        <ele>61.18</ele>
        <time>2014-09-13T09:32:28Z</time>
      </trkpt>
      <trkpt lat="50.16178" lon="3.20329">
        <ele>61.18</ele>
        <time>2014-09-13T09:32:47Z</time>
      </trkpt>
    </trkseg>
  </trk>
</gpx>